Aviation Digital Data Service (ADDS)

Output produced by METARs form (2000 UTC 24 July 2014)
found at http://aviationweather.gov/adds/metars/
 
K01M 241935Z AUTO 29003KT 10SM SCT035 27/20 A3001 RMK AO2 T02670200
K04V 241955Z AUTO 21005KT 10SM SCT095 26/08 A3036 RMK AO2 LTG DSNT SW AND W
K04W 241958Z AUTO 20007KT 10SM SCT050 25/13 A3007 RMK AO2 LTG DSNT SW
K05U 241955Z AUTO 28003KT 10SM CLR 29/M03 A3020 RMK AO1
K06D 241935Z AUTO 16009G16KT 10SM FEW026 22/18 A2989 RMK AO2
K08D 241935Z AUTO 16011KT 10SM CLR 23/20 A2980 RMK AO2 LTG DSNT S AND SW
K0A9 241955Z AUTO 34012KT 290V360 10SM SCT039 SCT046 BKN060 26/19 A2996 RMK
K0CO 241955Z AUTO 29016G21KT 10SM VCTS SCT075 SCT100 BKN120 12/04 A3075 RMK AO2 LTG DSNT ALQS
K0E0 241935Z AUTO 12009G15KT 10SM CLR 30/06 A3033 RMK AO2 T03040057
K0F2 241935Z AUTO 00000KT 10SM SCT047 33/20 A3004 RMK AO2 T03250204
K0J4 241939Z AUTO 21008KT 10SM VCTS FEW040 SCT055 BKN075 30/23 A3000 RMK AO2 TSB36 $
K0R0 241955Z AUTO 00000KT 10SM CLR 33/22 A2997 RMK AO2
K0VG 241935Z AUTO 33008KT 020V360 10SM CLR 25/20 A2999 RMK AO2
K11R 241935Z AUTO 09004KT 10SM CLR 33/21 A3000 RMK AO2 T03250205
K12N 241954Z AUTO VRB04KT 26/13 A2988 RMK AO1 SLP112 T02610133
K14Y 241957Z AUTO 18004KT 10SM SCT055 BKN090 21/14 A3010 RMK AO2 LTG DSNT S AND SW
K19A 241955Z AUTO 26008KT 10SM CLR 31/15 A2994 RMK AO2 LTG DSNT SW
K1A5 241955Z AUTO 29008KT 10SM CLR 28/18 A2999 RMK AO2 T02800180
K1A6 241955Z AUTO 02011KT 10SM BKN020 BKN031 OVC060 24/20 A2999 RMK AO2 LTG DSNT E T02440204
K1A9 241955Z AUTO 27003KT 10SM CLR 31/23 A2995 RMK AO2 T03080228
K1B7 241945Z 27007KT 10SM FEW047 30/23 A2999
K1F0 241955Z AUTO 09005KT 10SM CLR 32/19 A3002 RMK AO2
K1H2 241935Z AUTO 02007KT 10SM SCT047 25/12 A3010 RMK AO2 T02530119
K1II 241935Z AUTO 06007G15KT 010V080 10SM SCT047 SCT055 23/12 A3009 RMK AO2
K1J0 241858Z AUTO 19005KT 10SM FEW047 SCT100 SCT120 27/24 A3000 RMK AO2 RAB00E10B27E54 SLP117 P0000 T02720239
K1M4 241956Z AUTO 32007KT 10SM FEW034 28/21 A3003 RMK AO2 T02830205 SLP180
K1P1 241955Z AUTO 29008KT 10SM CLR 24/12 A2986 RMK AO2 T02410116
K1R7 241955Z AUTO 29004KT 7SM SCT034 BKN047 30/23 A3000 RMK AO2
K1V4 241954Z AUTO 21/10 A2988 RMK AO1 SLP112 T02110100
K1YT 241556Z AUTO 19017G26KT 12SM BKN055 16/08 A3012 RMK AO2 PK WND 20026/49 SLPNO T01560078
K20V 241957Z AUTO 23007KT 10SM SCT110 26/02 A3034 RMK AO2 LTG DSNT W THRU NE
K21D 241951Z AUTO 19007KT 10SM BKN060 25/15 A3008 RMK AO2 LTG DSNT W
K24J 241955Z AUTO 22005KT FEW050 34/22 A2999 RMK AO1
K28J 241955Z AUTO 24007KT 10SM FEW050 34/22 A2998 RMK AO2
K2C8 241955Z AUTO 14005KT 10SM CLR 23/17 A2991 RMK AO2
K2DP 241956Z AUTO 11004KT 12SM FEW150 24/21 A2990 RMK AO2 LTG DSNT SE SLPNO P0001 T02360214
K2G4 241935Z AUTO 36004KT 10SM SCT033 20/11 A3004 RMK AO1
K2I0 241955Z AUTO 06005KT 10SM BKN060 27/15 A3004 RMK AO2 T02670148
K2J9 241935Z AUTO 11004KT 10SM FEW027 SCT035 33/24 A3000 RMK AO1
K2V5 241955Z AUTO 20013G20KT 10SM 41/03 A2993 RMK AO2 T04110029 PWINO
K2W6 241938Z AUTO 04005KT 10SM OVC035 23/18 A2991 RMK AO1
K2WX 241956Z AUTO 13011KT 29/19 A2972 RMK AO1 SLP037 T02940194
K33V 241955Z AUTO 26011G17KT 10SM SCT026 SCT060 BKN100 21/08 A3040 RMK AO2
K36U 241955Z AUTO 22020G25KT 10SM CLR 33/01 A3012 RMK AO2
K3I2 241935Z AUTO 03004KT 10SM SCT049 26/16 A3001 RMK AO2
K3J7 241955Z AUTO 21007KT 190V250 10SM SCT045 SCT070 30/19 A2990 RMK AO2 LTG DSNT W AND NW
K3LF 241935Z AUTO 06008KT 10SM SCT048 24/14 A3011 RMK AO2 T02420135
K3R7 241955Z AUTO 34004KT 10SM SCT027 31/25 A2997 RMK AO2 LTG DSNT S T03100251
K3T5 241955Z AUTO 05005KT 10SM SCT046 33/24 A2998 RMK AO2 T03330236
K40B 241916Z AUTO VRB05G12KT 21/06 A2984 RMK AO1 SLP104 T02070065 57008
K40J 241955Z AUTO 22009G17KT 10SM CLR 31/20 A3000 RMK AO2 LTG DSNT W AND NW
K42J 241955Z AUTO 21007KT 10SM CLR 33/21 A2999 RMK AO1
K46D 241955Z AUTO 16023G30KT 10SM CLR 23/18 A2983 RMK AO2
K4A6 241955Z AUTO 29004KT 9SM BKN033 29/22 A2996 RMK AO2
K4A9 241935Z AUTO 30007KT 10SM SCT070 28/18 A2996 RMK AO2
K4BM 241952Z AUTO 28006KT 10SM SCT070 21/01 A3066 RMK AO2
K4I3 241955Z AUTO 36012KT 10SM SCT040 SCT049 BKN055 23/14 A3005 RMK AO2
K4I7 241955Z AUTO 05012G19KT 10SM SCT045 SCT050 24/13 A3009 RMK AO2
K4M9 241955Z AUTO 04005KT 10SM 27/14 A3006 RMK AO2
K4MR 241956Z AUTO 19007G15KT 12SM FEW085 33/06 A3021 RMK AO2 SLP163 T03290060
K4O4 241955Z AUTO 00000KT 10SM CLR 31/20 A3004 RMK AO2
K54J 241955Z AUTO 19009KT 160V240 10SM SCT041 SCT050 31/22 A2998 RMK AO2 T03100222
K5C1 241935Z AUTO 00000KT 10SM CLR 31/17 A3005 RMK AO1
K5H4 241955Z AUTO 16014G20KT 10SM CLR 24/18 A2982 RMK AO2
K5M9 241955Z AUTO 01007KT 10SM SCT042 SCT049 26/16 A3005 RMK AO2 T02550156
K5R8 241955Z AUTO 36007KT 10SM SCT035 SCT042 SCT050 31/23 A3000 RMK AO2 T03090231
K5SM 241955Z AUTO 00000KT 10SM BKN035 BKN042 BKN050 20/10 A3064 RMK AO2 LTG DSNT ALQS
K5W8 241955Z AUTO 23004KT 10SM SCT090 30/23 A2986 RMK AO2 T02990225
K65S 241955Z AUTO 21004KT 7SM FEW039 FEW049 12/09 A3010 RMK AO2 P0001
K6A2 241955Z AUTO 26006G14KT 10SM BKN044 31/21 A2997 RMK AO2 LTG DSNT NE
K6B0 241955Z AUTO 02008G17KT 10SM CLR 22/11 A2991 RMK AO2 T02200111
K6R3 241935Z AUTO 00000KT 10SM SCT045 33/23 A3001 RMK AO2 T03260228
K6R6 241953Z AUTO 09007KT 020V130 38/15 A3003 RMK AO1 SLP126 T03780150
K79J 241956Z AUTO 29007KT 260V330 10SM FEW044 SCT100 34/21 A2997 RMK AO2 SLP143 T03440211
K7BM 241954Z AUTO 35003KT 10SM SCT070 SCT080 SCT110 27/00 A3051 RMK AO2 LTG DSNT N
K7L2 241955Z AUTO 14014G21KT 10SM OVC033 26/19 A2981 RMK AO2
K7R3 241930Z 34003KT 10SM CLR 34/21 A2998
K82V 241935Z AUTO 28010G17KT 10SM CLR 36/04 A3003 RMK AO2 LTG DSNT E
K8A0 241955Z AUTO 29008KT 10SM SCT039 SCT045 SCT070 28/23 A2997 RMK AO2
K8D3 241956Z AUTO 16018G26KT 21/19 A2990 RMK AO1 PK WND 15026/1948 SLP115 T02060189
K8S0 241945Z 24024G42KT
K96D 241935Z AUTO 15009KT 22/19 RMK AO2 PWINO PNO TSNO
K9D7 241935Z AUTO 15013G18KT 10SM FEW030 24/18 A2988 RMK AO2 PWINO PNO
K9F2 241725Z 30005KT 7SM DZ BKN050 BKN065 23/22 A3003
K9L2 241955Z AUTO 00000KT 10SM CLR 37/M01 A2989 RMK AO2 SLP096 T03671006 TSNO $
K9MN 241952Z AUTO 13007KT 10SM BKN050 25/10 A3005 RMK AO1 T02500100
K9V9 241955Z AUTO 16019G26KT 10SM CLR 31/20 A2979 RMK AO2 T03050202
KAAA 241935Z AUTO 03006KT 10SM CLR 26/12 A3009 RMK AO2 T02580115
KAAF 241953Z AUTO 22012KT 10SM SCT025 SCT046 BKN090 31/24 A3000 RMK AO2 SLP158 T03110244
KAAO 241954Z AUTO 16014G19KT 10SM CLR 31/21 A3004 RMK AO2 SLP158 T03110206
KAAT 241955Z AUTO VRB03KT 10SM CLR 23/M13 A3019 RMK AO2 SLP189 T02331128
KABE 241951Z 34008KT 10SM SCT060 27/12 A2988 RMK AO2 SLP116 T02720122
KABH 241956Z AUTO 21017G25KT 10SM CLR 33/07 A3015 RMK AO2 SLP106 T03330072 PNO $
KABI 241952Z VRB04KT 10SM FEW065 35/18 A3005 RMK AO2 SLP146 T03500183
KABQ 241952Z 18012KT 10SM FEW100 32/07 A3025 RMK AO2 SLP146 T03170067
KABR 241953Z AUTO 13020G30KT 10SM CLR 24/17 A2986 RMK AO2 PK WND 12036/1854 RAE03 SLP105 P0000 T02440172
KABY 241953Z 25007KT 10SM FEW047 SCT060 33/22 A2998 RMK AO2 SLP148 T03330217
KACB 241955Z AUTO 26003KT 10SM CLR 22/07 A3010 RMK AO2 T02160074
KACJ 241935Z AUTO 26008KT 10SM SCT065 32/20 A2998 RMK AO2
KACK 241953Z 02012KT 8SM FEW019 OVC030 22/18 A2981 RMK AO2 SLP096 T02170178 $
KACP 241935Z AUTO 29004KT 10SM SCT032 32/24 A2999 RMK AO2 T03160238
KACQ 241955Z AUTO 16006KT 10SM SCT049 25/12 A3008 RMK AO2 LTG DSNT W AND NW
KACT 241951Z 00000KT 10SM SCT055 33/21 A3000 RMK AO2 SLP150 T03330206
KACV 241953Z AUTO 33017KT 10SM CLR 21/10 A3011 RMK AO2 SLP200 T02110100
KACY 241954Z 34007KT 10SM CLR 27/16 A2985 RMK AO2 SLP108 T02670161
KADC 241952Z AUTO 14017G22KT 10SM SCT013 19/13 A2990 RMK AO2 LTG DSNT S AND SW
KADF 241956Z AUTO VRB03KT 6SM HZ BKN024 27/23 A3005 RMK AO2 T02720233 BKN V SCT SLP189
KADG 241853Z AUTO VRB06G16KT 10SM FEW055 23/08 A3011 RMK AO2 SLP194 T02330083 TSNO
KADH 241955Z AUTO 14005KT 10SM CLR 30/22 A3005 RMK AO2
KADM 241855Z 13004KT 10SM SKC 32/21 A3004
KADS 241947Z 06008KT 30SM SKC 33/16 A3002
KADU 241935Z AUTO 17004KT 10SM CLR 24/18 A3013 RMK AO2
KADW 241958Z AUTO VRB03KT 10SM BKN046 BKN100 BKN190 26/17 A2990 RMK AO2 SLP129 T02570174 $
KAEG 241948Z 22007KT 10SM FEW070 31/07 A3029
KAEJ 241955Z AUTO 36004KT 10SM CLR 28/03 A3033 RMK AO2 T02820033
KAEL 241953Z AUTO 18007KT 150V220 10SM CLR 27/13 A3006 RMK AO2 LTG DSNT SW AND W
KAEX 241953Z VRB05KT 10SM BKN032 32/22 A2998 RMK AO2 SLP154 T03220222
KAFF 241958Z AUTO 16010KT 10SM FEW200 33/08 A3018 RMK AO2 SLP113 T03290077
KAFJ 241955Z AUTO 34006KT 10SM FEW060 22/11 A3001 RMK AO1
KAFK 241955Z AUTO 17014G22KT 10SM CLR 27/15 A3004 RMK AO2 T02700152
KAFN 241952Z AUTO VRB06KT 10SM FEW048 SCT065 24/12 A2988 RMK AO2 SLP116 T02390117
KAFO 241955Z AUTO 30014G20KT 10SM CLR 27/06 A3015 RMK AO2
KAFP 241955Z AUTO 26006KT 10SM CLR 32/20 A2986 RMK AO2 T03150203
KAFW 241953Z VRB03KT 10SM FEW055 33/19 A3001 RMK AO2 SLP145 T03330194
KAGC 241953Z VRB03KT 10SM SCT050 24/11 A2999 RMK AO2 SLP153 T02440111
KAGS 241953Z AUTO 22014G18KT 10SM SCT060 SCT070 33/21 A2989 RMK AO2 SLP119 T03330206
KAHN 241951Z 24003KT 10SM CLR 28/21 A2994 RMK AO2 SLP132 T02780206
KAHQ 241955Z AUTO 16014G20KT 10SM CLR 29/17 A2999 RMK AO2 T02910169
KAIA 241953Z AUTO 26008G16KT 10SM CLR 39/07 A2989 RMK AO2 SLP064 T03890072
KAIB 241955Z AUTO 27008KT 233V293 10SM VCTS SCT085 SCT120 32/07 A3026 RMK AO2 LTG DSNT E AND NW
KAIG 241935Z AUTO 19004KT 10SM SCT050 22/11 A3010 RMK AO2 T02210105
KAIK 241955Z AUTO 25011G18KT 10SM SCT060 SCT070 BKN120 33/22 A2994 RMK AO2 PNO
KAIO 241955Z AUTO 14006G13KT 10SM CLR 24/15 A3009 RMK AO2
KAIT 241954Z AUTO 18004KT 10SM CLR 25/14 A3004 RMK AO2
KAIZ 241955Z AUTO 06009KT 10SM CLR 28/12 A3010 RMK AO1
KAJG 241955Z AUTO 36006KT 10SM SCT044 SCT050 27/14 A3007 RMK AO2
KAJO 241956Z AUTO 10SM CLR 37/11 A2981 RMK AO2 T03720105 SLP084 $
KAJZ 241955Z AUTO 19004KT 10SM CLR 32/10 A3018 RMK AO2 LTG DSNT NE SE AND W T03160097
KAKH 241954Z AUTO 17008KT 10SM SCT034 BKN045 OVC100 28/23 A2988 RMK AO2 LTG DSNT SE AND SW SLP111 T02780228
KAKO 241953Z AUTO 32008KT 300V010 10SM CLR 38/05 A3000 RMK AO2 SLP078 T03780050
KAKQ 241954Z AUTO 00000KT 10SM FEW031 FEW042 28/22 A2986 RMK AO2 SLP110 T02830222 TSNO
KAKR 241954Z AUTO VRB06G16KT 10SM SCT049 SCT055 24/12 A3004 RMK AO2 SLP167 T02440117
KALB 241951Z 03005KT 10SM SCT050 BKN070 BKN270 25/14 A2988 RMK AO2 SLP116 T02500139
KALI 241953Z AUTO 16007KT 10SM CLR 37/19 A2994 RMK AO2 LTG DSNT ALQDS SLP133 T03670189 $
KALK 241956Z AUTO 10014G24KT 10SM CLR 33/04 A3016 RMK AO2 PK WND 14029/1941 SLP108 T03330044 TSNO
KALM 241935Z AUTO 22009G18KT 10SM CLR 35/07 A3016 RMK AO2
KALN 241950Z 04005KT 10SM SCT050 25/12 A3011
KALO 241954Z 19012G15KT 10SM FEW055 27/13 A3006 RMK AO2 SLP174 T02720133
KALS 241952Z AUTO 14006KT 10SM CLR 28/07 A3033 RMK AO2 SLP163 T02830072
KALW 241953Z 24014G26KT 10SM -RA FEW002 BKN065 BKN080 23/05 A3018 RMK AO2 PK WND 25026/1950 RAB52 SLP215 P0000 T02330050
KALX 241955Z AUTO 23006KT 10SM CLR 33/22 A2997 RMK AO2 LTG DSNT NE T03260224
KAMA 241953Z 18009KT 10SM FEW075 34/14 A3015 RMK AO2 SLP147 T03390144
KAMG 241953Z AUTO 21007G19KT 10SM FEW055 SCT070 33/19 A2994 RMK AO2 SLP137 T03330194
KAMN 241955Z AUTO 00000KT 10SM BKN050 22/07 A3010 RMK AO2 T02240072
KAMW 241953Z AUTO 18009KT 10SM CLR 24/15 A3008 RMK AO2 SLP181 T02440150
KANB 241953Z AUTO VRB04KT 10SM TS FEW037 SCT050 29/23 A2996 RMK AO2 LTG DSNT NE AND E RAB1857E17 TSB38 SLP135 P0014 T02890228
KAND 241956Z AUTO 28012KT 10SM -RA FEW044 FEW065 BKN085 29/21 A2991 RMK AO2 PK WND 26026/1930 WSHFT 1925 RAB51 SLP118 P0000 T02940206
KANE 241945Z 19005KT 10SM SCT060 OVC250 27/13 A3006
KANJ 241955Z AUTO 30008KT 10SM CLR 21/10 A3006 RMK AO2 SLP179 T02110100
KANK 241955Z AUTO 26012G17KT 10SM SCT100 A3035 RMK AO1
KANQ 242015Z AUTO 03004KT 10SM CLR 23/09 A3010 RMK
KANW 241955Z AUTO 18025G29KT 10SM CLR 33/18 A2983 RMK AO2 T03300180
KAOH 241953Z AUTO 03009KT 10SM OVC050 22/12 A3009 RMK AO2 SLP185 T02220122
KAOO 241953Z AUTO 35006KT 10SM SCT055 23/11 A2999 RMK AO2 SLP146 T02330106
KAPA 241953Z 34006KT 10SM FEW070 SCT095 SCT150 BKN200 32/08 A3013 RMK AO2 RAB19E29 TSE26 SLP108 OCNL LTGICCG DSNT NW-NE VIRGA DSNT SW-N CB S AND NW-NE MOV SLO E P0000 T03220078
KAPC 241954Z 23007KT 10SM CLR 28/14 A2994 RMK AO2 SLP131 T02780144
KAPF 241953Z 23008KT 10SM FEW024 SCT110 31/26 A3002 RMK AO2 SLP163 T03110261
KAPG 241950Z 30007KT 7SM BKN030 BKN150 28/16 A2990
KAPN 241954Z AUTO VRB05KT 10SM CLR 23/09 A3007 RMK AO2 SLP183 T02330094
KAPY 241815Z AUTO 07003KT 7SM SCT065 SCT080 37/16 A2996 RMK AO2 T03700161
KAQO 241935Z AUTO 03003KT 10SM FEW070 FEW095 34/20 A3004 RMK AO2 PWINO
KAQP 241955Z AUTO 14011G20KT 10SM -VCTSRA SCT016 BKN021 19/17 A2998 RMK AO2 P0017 LTG DSNT S AND SW
KAQR 241935Z AUTO 14004KT 10SM CLR 32/25 A3004 RMK AO2
KAQV 241956Z AUTO 00000KT 10SM CLR 32/22 A2999 RMK AO2 SLP153 T03170222
KAQW 241952Z AUTO VRB06KT 10SM CLR 23/12 A2989 RMK AO2 SLP119 T02330117
KARA 241953Z AUTO 23009KT 9SM TS BKN031 BKN042 OVC065 29/23 A2999 RMK AO2 LTG DSNT SW-NW TSB48 SLP155 T02940233
KARB 241953Z AUTO 04010KT 10SM SCT055 22/08 A3009 RMK AO2 SLP187 T02220083
KARG 241955Z AUTO 04008KT 10SM CLR 27/15 A3006 RMK AO1
KARM 241955Z AUTO 17003KT 10SM CLR 32/22 A2999 RMK AO2 T03200223
KARR 241952Z 04006KT 10SM CLR 24/09 A3012 RMK AO2 SLP198 T02440089
KART 241956Z AUTO 34010G14KT 10SM CLR 23/07 A2998 RMK AO2 SLP149 T02280067
KARV 241930Z AUTO 02004KT 10SM SCT050 25/09 A3009 RMK AO2 T02500091
KARW 241955Z AUTO 21006G16KT 10SM SCT050 SCT070 33/23 A2991 RMK AO2
KASD 241953Z AUTO 21004KT 6SM HZ BKN026 BKN036 OVC050 28/23 A2997 RMK AO2 SLP150 T02830228
KASE 241953Z COR 35011G16KT 10SM SCT055 28/09 A3036 RMK AO2 SLP134 T02780089
KASG 241948Z 16008KT 10SM BKN032 27/20 A3010
KASH 241951Z 34010G15KT 10SM SCT050 BKN070 27/14 A2983 RMK AO2 T02660144 SLP343
KASJ 241935Z AUTO 00000KT 10SM SCT027 28/21 A2987 RMK AO2 T02790205
KASL 241955Z AUTO 02005KT 10SM SCT018 OVC029 28/23 A3006 RMK AO1 T02760226
KASN 241955Z AUTO 12006G10KT 1 1/2SM +RA SCT008 BKN016 OVC039 26/24 A2996 RMK AO2 VIS 3/4V4 LTG DSNT N AND NE P0031 T02640244
KAST 241955Z AUTO 28010G16KT 10SM BKN016 BKN021 OVC028 16/13 A3026 RMK AO2 SLP248 T01610128
KASW 241955Z AUTO 00000KT 10SM SCT049 22/11 A3011 RMK AO2
KASX 241953Z AUTO 20004KT 10SM SCT050 SCT065 23/13 A3006 RMK AO2 SLP178 T02280133
KATL 241952Z 25004KT 10SM FEW050 SCT100 BKN150 BKN250 26/22 A2997 RMK AO2 TSE37RAE37 SLP140 CB DSNT N & E & NW TCU DSNT NE P0020 T02610222
KATP 241955Z AUTO 28009KT 10SM SCT028 BKN033 BKN038 30/24 A3002 RMK A01
KATS 241955Z AUTO 14010G14KT 10SM CLR 34/10 A3014 RMK AO2
KATT 241951Z AUTO 00000KT 10SM FEW050 SCT085 32/20 A3001 RMK AO2 SLP146 T03220200
KATW 241945Z VRB05KT 10SM BKN050 23/09 A3011
KATY 241953Z AUTO 13015G23KT 10SM BKN100 18/16 A2997 RMK AO2 PK WND 02033/1857 WSHFT 1840 LTG DSNT E-SW RAB1859E39 TSE41 PRESFR SLP145 P0046 T01780161
KAUG 241953Z AUTO 34008KT 10SM BKN075 24/13 A2983 RMK AO2 SLP098 T02390133
KAUH 241955Z AUTO 16015G23KT 10SM CLR 30/19 A2997 RMK AO2 T02950190
KAUM 241955Z AUTO 15007KT 10SM SCT050 25/14 A3005 RMK AO2
KAUN 241955Z AUTO 27007KT 10SM CLR 30/10 A2998 RMK AO1
KAUO 241955Z 22008KT 9SM FEW039 SCT048 BKN060 29/19 A3001 RMK AO1
KAUS 241953Z VRB04KT 10SM FEW055 SCT200 33/20 A2999 RMK AO2 SLP145 T03330200
KAUW 241954Z AUTO 29008KT 10SM FEW060 24/09 A3007 RMK AO2 SLP182 T02390089
KAVC 241955Z AUTO 00000KT 10SM SCT024 BKN041 28/23 A2991 RMK AO2 LTG DSNT SE
KAVK 241955Z AUTO 16006KT 10SM CLR 34/21 A3002 RMK AO2
KAVL 241954Z 00000KT 10SM VCTS -RA SCT029 BKN070 BKN110 25/19 A2998 RMK AO2 LTG DSNT E AND SE AND W TSE22 SLP123 P0014 T02500189
KAVP 241954Z AUTO 34009G17KT 10SM SCT050 25/10 A2993 RMK AO2 SLP126 T02500100 TSNO
KAVX 241951Z AUTO 29005KT 10SM CLR 31/12 A2990 RMK AO2 SLP090 T03060122 $
KAWG 241955Z AUTO 14010KT 10SM FEW044 26/16 A3008 RMK AO2
KAWM 241953Z AUTO 01011KT 10SM CLR 28/16 A3003 RMK AO2 SLP165 T02780156
KAWO 241955Z AUTO 00000KT 7SM OVC023 14/13 A3023 RMK AO1 P0001
KAXA 241955Z AUTO 17015G20KT 10SM CLR 24/16 A3004 RMK AO2
KAXH 241830Z AUTO 28005KT 10SM VCTS BKN036 BKN044 BKN050 31/22 A3001 RMK AO2 LTG DSNT SE AND S T03100219
KAXN 241953Z AUTO 15010KT 4SM RA BR BKN085 OVC110 18/16 A3008 RMK AO2 WSHFT 1841 RAB1855 PRESFR SLP185 P0022 T01780161
KAXS 241955Z AUTO 12007KT 10SM CLR 35/20 A3005 RMK AO2 T03530196
KAXV 241952Z AUTO 03009KT 360V060 10SM SCT047 OVC060 22/08 A3010 RMK AO2
KAXX 241955Z AUTO 29007G17KT 10SM CLR 24/07 A3047 RMK AO2 T02400071
KAYS 241955Z AUTO 27007KT 10SM SCT050 BKN070 36/23 A2995 RMK AO2 T03580229
KAZC 241955Z AUTO 16011G20KT 130V190 10SM CLR 36/04 A3015 RMK AO2 T03590039
KAZE 241955Z AUTO 22005KT 10SM SCT050 34/21 A2994 RMK AO2 T03440209
KAZO 241953Z VRB05KT 10SM BKN055 23/09 A3010 RMK AO2 SLP192 T02280089
KBAB 241858Z AUTO 30010KT 8SM CLR 29/12 A2994 RMK AO2 SLP213 T02880117 $
KBAC 241955Z AUTO 16012G21KT 23/17 A2987 RMK AO2 TSNO
KBAD 241958Z 35004KT 10SM FEW020 SCT190 27/21 A3003 RMK AO2A SLP171 T02740211
KBAF 241953Z VRB06KT 10SM FEW055 BKN070 27/13 A2984 RMK AO2 SLP100 T02720128
KBAK 241946Z 04010G15KT 10SM BKN050 23/12 A3008
KBAN 241952Z AUTO 20011G16KT CLR 28/M05 A3020 RMK AO2 SLP121 T02781050 $
KBAX 241957Z AUTO 01007KT 10SM CLR 22/06 A3010 RMK AO2 T02170062
KBAZ 241951Z 08006KT 10SM FEW060 34/18 A2999 RMK AO2 SLP145 T03440178
KBBB 241954Z AUTO 14016G21KT 10SM RA SCT018 BKN023 OVC038 18/17 A2995 RMK AO2 P0026 LTG DSNT SE THRU W
KBBD 241935Z AUTO 03006KT 10SM FEW055 33/19 A3006 RMK
KBBF 241955Z AUTO 00000KT 7SM CLR 30/23 A2999 RMK A01
KBBG 241946Z 11010KT 10SM FEW044 30/15 A3011
KBBP 241955Z AUTO 23004KT 10SM CLR 31/16 A2986 RMK AO2 LTG DSNT E AND W
KBBW 241953Z AUTO 16023G29KT 10SM CLR 32/21 A2992 RMK AO2 PK WND 17035/1940 SLP107 T03170206
KBCB 241955Z AUTO 34003KT 10SM -RA SCT018 SCT070 22/22 RMK AO2 LTG DSNT NE AND S
KBCE 241953Z AUTO 26010KT 10SM BKN100 BKN120 27/02 A3037 RMK AO2 RAB11E25 SLP133 P0000 T02670022
KBCK 241955Z AUTO 23005KT 10SM SCT060 26/08 A3006 RMK AO2 T02640080
KBCT 241850Z 25006KT 10SM SCT025 31/22 A3005
KBDE 241953Z AUTO 08007KT 10SM FEW048 24/15 A2995 RMK AO2 SLP142 T02440150 TSNO
KBDH 241955Z AUTO 35009KT 10SM +RA SCT004 BKN036 OVC043 20/18 A3016 RMK AO2 P0034 LTG DSNT S AND SW
KBDL 241951Z 36007KT 330V030 10SM SCT060 SCT200 SCT220 28/14 A2982 RMK AO2 SLP097 T02780144
KBDN 241955Z AUTO 36008KT 10SM CLR 18/02 A3025 RMK AO2
KBDR 241952Z 34009KT 10SM BKN046 27/16 A2983 RMK AO2 SLP100 T02670156
KBDU 241957Z AUTO 15014G21KT 10SM VCTS SCT110 33/10 A3007 RMK AO2 LTG DSNT E SE AND NW
KBEA 241955Z AUTO 12004KT 10SM BKN120 36/18 A2995 RMK AO2 T03610177
KBED 241956Z 13007KT 10SM BKN030 OVC045 23/18 A2982 RMK AO2 SLP108 T02330183
KBEH 241953Z AUTO 31008G16KT 10SM CLR 19/12 A3013 RMK AO2 SLP201 T01940117
KBFD 241953Z AUTO 36009KT 10SM SCT043 21/09 A3003 RMK AO2 SLP159 T02060094
KBFF 241953Z AUTO 32009KT 10SM CLR 39/11 A2990 RMK AO2 SLP062 T03890106
KBFI 241953Z 18007KT 10SM SCT023 OVC031 19/12 A3018 RMK AO2 SLP221 T01940122 PNO $
KBFL 241954Z 28007KT 10SM CLR 31/09 A2991 RMK AO2 SLP122 T03110089
KBFM 241953Z 04006KT 10SM SCT039 BKN070 OVC090 28/24 A2999 RMK AO2 SLP156 T02830239
KBFW 241954Z AUTO 18008KT 10SM CLR 23/15 A3004 RMK AO2
KBGD 241951Z AUTO 18011G17KT 10SM CLR 37/12 A3008 RMK AO2 SLP132 T03720117
KBGE 241935Z AUTO 19006KT 10SM CLR 31/25 A2999 RMK AO2 LTG DSNT SE
KBGF 241955Z AUTO 30005KT 10SM CLR 28/19 A2998 RMK
KBGM 241953Z 36010G17KT 10SM BKN037 19/11 A2998 RMK AO2 SLP147 T01890106
KBGR 241953Z 33011KT 10SM BKN060 25/13 A2981 RMK AO2 SLP091 T02500128
KBHB 241955Z 11004KT 10SM CLR 20/17 A2980 RMK AO1
KBHC 241955Z AUTO 28008KT 10SM BKN050 BKN065 OVC075 33/21 A2994 RMK AO2
KBHK 241951Z AUTO 14010KT 10SM CLR 31/17 A2977 RMK AO2 SLP052 T03060172
KBHM 241953Z 31011KT 10SM SCT036TCU 32/21 A2997 RMK AO2 SLP141 TCU S T03170206
KBID 241955Z AUTO 11007KT 10SM BKN028 BKN036 OVC070 22/18 A2983 RMK AO1
KBIE 241955Z AUTO 14014G21KT 10SM CLR 29/18 A3000 RMK AO2 T02850183
KBIF 241856Z AUTO 14006G12KT 12SM CLR 33/08 A3019 RMK AO2 SLP149 T03260084
KBIH 241956Z AUTO 11007KT 060V120 10SM CLR 36/M06 A2998 RMK AO2 SLP095 T03611056
KBIJ 241955Z AUTO 20007KT 10SM CLR 33/23 A2997 RMK AO2 LTG DSNT S THRU W
KBIL 241953Z 19008KT 10SM FEW070 35/12 A2977 RMK AO2 SLP034 T03500117
KBIS 241952Z 15018G24KT 10SM OVC033 26/17 A2981 RMK AO2 PK WND 13028/1859 SLP086 T02610172
KBIV 241953Z AUTO 31007KT 10SM CLR 21/12 A3013 RMK AO2 SLP200 T02110117
KBIX 241958Z AUTO 17009KT 10SM CLR 30/23 A2998 RMK AO2 SLP155 T03000226
KBJC 241938Z 14009G30KT 10SM -RA SCT030 BKN080 BKN120TCU 23/13 A3013 RMK TSB10 LTGCG E
KBJI 241950Z AUTO 13013KT 10SM CLR 23/14 A2995 RMK AO2 T02250142
KBJJ 241956Z AUTO 35013KT 10SM FEW050 23/11 A3006 RMK AO2 SLP174 T02330111 TSNO
KBKB 241954Z AUTO 33004KT 10SM FEW034 32/22 A2998 RMK AO2 SLP176 T03170217
KBKD 241955Z AUTO 09005KT 10SM SCT070 36/17 A3002 RMK AO2 T03580170
KBKE 241953Z AUTO VRB05KT 10SM CLR 19/02 A3022 RMK AO2 SLP220 T01890022 TSNO
KBKF 241858Z 07003KT 10SM VCSH SCT040 SCT110 BKN220 32/10 A3012 RMK AO2A LTG DSNT W SLP110 T03150100
KBKL 241953Z 02011KT 10SM CLR 21/11 A3006 RMK AO2 SLP178 T02110106 $
KBKN 241935Z AUTO 15010G18KT 5SM HZ CLR 32/21 A3002 RMK AO2
KBKS 241955Z AUTO 00000KT 10SM SCT055 32/17 A2993 RMK AO1 T03200166
KBKV 241953Z AUTO 00000KT 10SM CLR 31/24 A3002 RMK AO2 SLP164 T03060239
KBKW 241951Z AUTO 35009KT 8SM BKN010 OVC017 21/17 A3001 RMK AO2 SLP132 T02060172 TSNO
KBLF 241952Z AUTO 27008KT 9SM TS SCT007 BKN018 OVC085 22/19 A3002 RMK AO2 LTG DSNT N RAB06E18B22E45 TSB36 SLP132 P0000 T02170189
KBLH 241952Z AUTO 14005KT 10SM CLR 44/08 A2974 RMK AO2 SLP061 T04390078
KBLI 241953Z 16013KT 10SM OVC065 16/12 A3015 RMK AO2 SLP216 P0002 T01610122
KBLM 241955Z AUTO 04008KT 10SM BKN035 BKN065 26/17 A2985 RMK AO1
KBLU 241952Z AUTO 23007KT 10SM CLR 24/01 A3019 RMK AO2 SLP129 T02390011
KBLV 241958Z AUTO 02010KT 10SM FEW050 27/14 A3008 RMK AO2 SLP186 T02680142
KBMG 241953Z 03012G17KT 10SM FEW043 BKN055 24/12 A3008 RMK AO2 SLP181 T02440122
KBMI 241956Z 03008KT 10SM CLR 24/12 A3013 RMK AO2 T02380116 SLP197
KBML 241952Z AUTO VRB05KT 10SM OVC050 21/11 A2989 RMK AO2 SLP119 T02110106
KBMQ 241953Z AUTO VRB03KT 10SM CLR 31/21 A3005 RMK AO2 RAE1855 SLP154 P0000 T03110211
KBMT 241955Z AUTO 02005KT 10SM CLR 32/22 A2999 RMK AO2 T03180223
KBNA 241953Z VRB05KT 10SM FEW026 SCT033 SCT049 28/18 A3001 RMK AO2 SLP155 T02780183
KBNL 241955Z AUTO 23012KT 10SM FEW047 FEW060 34/21 A2990 RMK AO2
KBNO 241953Z AUTO VRB03KT 10SM CLR 18/00 A3024 RMK AO2 SLP222 T01830000
KBNW 241955Z AUTO 22005G11KT 10SM CLR 24/15 A3010 RMK AO2
KBOI 241953Z 31008G15KT 10SM CLR 21/M01 A3020 RMK AO2 SLP204 T02111006
KBOK 241956Z AUTO 31011G17KT 8SM CLR 21/13 A3016 RMK AO2 T02110127 SLP213
KBOS 241954Z 09007KT 10SM FEW030 SCT041 BKN080 BKN230 21/17 A2984 RMK AO2 SLP105 T02060167
KBOW 241947Z 27010KT 10SM FEW030 SCT090 31/21 A3002
KBPC 241955Z AUTO 18009G19KT 10SM CLR 37/11 A3005 RMK AO2
KBPG 241955Z AUTO 03009KT 10SM CLR 38/12 A3009 RMK AO2 T03750123
KBPI 241953Z AUTO 25015G26KT 10SM FEW110 30/02 A3020 RMK AO2 PK WND 25028/1925 SLP109 T03000017
KBPK 241953Z AUTO VRB03KT 10SM CLR 27/15 A3008 RMK AO2 SLP177 T02670150
KBPT 241953Z 00000KT 10SM CLR 33/23 A2998 RMK AO2 SLP152 T03280228
KBQK 241930Z AUTO 00000KT 10SM CLR 35/19 A2996 RMK AO1
KBQP 241955Z AUTO 06004KT 10SM SCT033 SCT039 SCT049 32/24 A3000 RMK AO2 T03200235
KBQX 241955Z AUTO 00000KT 10SM CLR 30/23 A3001 RMK A01
KBRD 241953Z AUTO 21009KT 10SM CLR 23/11 A3006 RMK AO2 SLP180 T02330111
KBRL 241953Z AUTO 10SM CLR 26/14 A3010 RMK AO2 SLP190 T02560139
KBRO 241953Z 15015G22KT 10SM FEW047 SCT055 34/22 A2994 RMK AO2 SLP138 T03440222
KBTA 241955Z AUTO 15008G15KT 10SM SCT120 26/17 A3002 RMK AO2 LTG DSNT N T02600167
KBTL 241953Z 02006KT 10SM FEW050 23/09 A3011 RMK AO2 SLP192 T02280089
KBTM 241953Z AUTO 30017G27KT 10SM CLR 21/04 A3008 RMK AO2 PK WND 34028/1858 SLP139 T02060039
KBTP 241955Z AUTO 35006G14KT 310V010 10SM SCT060 23/12 A3003 RMK AO1
KBTR 241953Z VRB04KT 10SM BKN040 32/23 A2997 RMK AO2 SLP148 T03220228
KBTV 241954Z 04009G14KT 10SM SCT046 22/10 A2993 RMK AO2 SLP133 T02220100
KBUF 241954Z 36006KT 10SM FEW060 FEW250 21/07 A3004 RMK AO2 SLP169 T02110067
KBUR 241953Z 20006KT 10SM CLR 36/12 A2981 RMK AO2 SLP080 T03560117 $
KBUU 241935Z AUTO 10004KT 10SM CLR 22/10 A3012 RMK AO2 T02220098
KBUY 241954Z AUTO 19007KT 10SM FEW039 31/20 A2985 RMK AO2 SLP101 T03110200
KBVE 241951Z AUTO 22009KT 10SM CLR 29/23 A2999 RMK AO2 SLP156 T02890228
KBVI 241947Z 01007KT 10SM SCT041 SCT047 OVC055 22/12 A3003
KBVN 241955Z AUTO 17021G26KT 10SM CLR 28/18 A2995 RMK AO2 T02810180
KBVO 241953Z AUTO 13006G15KT 10SM BKN038 31/21 A3004 RMK AO2 SLP163 T03110211
KBVS 241955Z AUTO 18008G14KT 10SM FEW018 BKN023 OVC055 17/13 A3020 RMK A01 P000
KBVU 241955Z AUTO 14013G22KT 10SM CLR 42/07 A2985 RMK AO2
KBVX 241955Z AUTO 34004KT 10SM CLR 28/17 A3006 RMK AO1
KBVY 241953Z 11004KT 10SM FEW020 SCT045 BKN200 23/16 A2983 RMK AO2 SLP096 T02280161
KBWD 241955Z AUTO 10008KT 10SM FEW060 34/19 A3004 RMK AO2
KBWG 241953Z AUTO 02008KT 10SM BKN055 27/14 A3001 RMK AO2 SLP157 T02720144
KBWI 241954Z 32008KT 10SM FEW040 BKN055 BKN095 BKN150 27/16 A2989 RMK AO2 SLP120 T02670161
KBWP 241930Z AUTO 22020G29KT 10SM SCT017 18/14 A2986 RMK AO1
KBXA 241955Z AUTO 01003KT 10SM SCT040 BKN047 BKN050 32/21 A2998 RMK AO2 T03220209
KBXK 241955Z AUTO 10011G15KT 10SM CLR 43/11 A2980 RMK AO1
KBYG 241953Z AUTO 24022G27KT 10SM CLR 37/01 A2991 RMK AO2 PK WND 23028/1935 SLP045 T03720006
KBYH 241950Z 36010KT 10SM FEW037 26/15 A3005
KBYI 241953Z AUTO 26013G20KT 10SM CLR 22/06 A3017 RMK AO2 SLP178 T02220061
KBYS 241755Z AUTO 10009G13KT 10SM CLR 34/01 A2996 RMK AO2 SLP077 T03430008 10340 20250 57003 $
KBYY 241955Z AUTO 00000KT 10SM CLR 30/24 A3000 RMK AO2 T03030239
KBZN 241956Z 31015G21KT 10SM CLR 28/07 A2993 RMK AO2 SLP094 T02780072
KC09 241935Z AUTO 00000KT 10SM CLR 25/11 A3012 RMK AO2 T02460108
KC29 241935Z AUTO 21003KT 10SM CLR 25/10 A3011 RMK AO1 T02510097
KC35 241955Z AUTO 12003KT 10SM BKN050 23/12 A3008 RMK AO2 T02330124
KC75 241955Z AUTO 04005KT 10SM SCT050 25/12 A3011 RMK AO2 T02480118
KCAD 241955Z AUTO 00000KT 10SM BKN050 21/10 A3010 RMK AO2 T02100097
KCAE 241956Z 26016G20KT 10SM SCT055 36/20 A2987 RMK AO2 SLP109 T03560200
KCAG 241953Z AUTO 26016G22KT 10SM SCT080 BKN110 24/12 A3024 RMK AO2 PK WND 22043/1900 WSHFT 1936 LTG DSNT E RAB1855E14 TSB1857E35 SLP161 P0011 T02440122
KCAK 241951Z 03007G14KT 10SM SCT040 BKN070 23/12 A3004 RMK AO2 SLP168 T02280117
KCAO 241955Z AUTO 21016G27KT 10SM CLR 35/04 A3017 RMK AO2 PK WND 19029/1914 SLP130 T03500039
KCAR 241954Z AUTO 29006KT 10SM CLR 21/08 A2981 RMK AO2 SLP097 T02060083
KCAV 241955Z AUTO 20014KT 10SM SCT043 SCT049 24/15 A3007 RMK AO2
KCBE 241939Z AUTO 02003KT 10SM SCT060 28/11 A2999 RMK AO1
KCBF 241955Z AUTO 15014KT 10SM CLR 26/18 A3003 RMK AO2
KCBG 241956Z AUTO 23006KT 10SM SCT060 28/16 A3006 RMK AO2
KCBK 241955Z AUTO 20018G28KT 10SM CLR 37/12 A2996 RMK AO2
KCBM 241958Z AUTO VRB05KT 10SM FEW038 31/22 A2997 RMK AO2 SLP150 T03110216 $
KCCA 241955Z AUTO 35003KT 7SM CLR 29/19 A3007 RMK AO2
KCCO 241955Z AUTO 30007KT 270V330 10SM BKN034 BKN045 OVC095 30/23 A2997 RMK AO2 T02970232
KCCR 241953Z VRB05KT 10SM CLR 31/10 A2993 RMK AO2 SLP124 T03110100
KCCU 241956Z AUTO 27016G25KT 10SM SCT044 SCT050 SCT120 18/03 A3072 RMK AO2 LTG DSNT NW THRU E
KCCY 241955Z AUTO 18008KT 10SM FEW050 26/14 A3007 RMK AO2
KCDA 241955Z AUTO 34007KT 10SM SCT046 21/09 A2993 RMK AO2 T02060094
KCDC 241953Z AUTO 21016G24KT 10SM CLR 34/M02 A3016 RMK AO2 SLP111 T03391022
KCDD 241954Z AUTO 00000KT 10SM BKN060 22/11 A3004 RMK AO2
KCDH 241955Z AUTO 35004KT 9SM SCT025 30/22 A3003 RMK AO2
KCDJ 241952Z AUTO VRB06KT 26/14 A3009 RMK AO1 SLP181 T02610144
KCDN 241955Z AUTO 24012G17KT 10SM FEW050 34/20 A2987 RMK AO2 TSNO
KCDR 241953Z AUTO 32010G20KT 10SM CLR 42/09 A2978 RMK AO2 SLP045 T04170089
KCDS 241953Z AUTO VRB03KT 10SM FEW080 36/17 A3005 RMK AO2 SLP145 T03560167
KCDW 241953Z 34004KT 10SM BKN070 27/14 A2986 RMK AO2 SLP114 T02720139
KCEC 241956Z AUTO 32021G29KT 10SM CLR 18/13 A3014 RMK AO2 PK WND 32030/1937 SLP205 T01780128
KCEF 241958Z AUTO 03009KT 10SM FEW050 BKN070 27/14 A2983 RMK AO2 DZB1932E1942 SLP106 P0000 T02660140
KCEU 241954Z AUTO 22004KT 10SM CLR 26/21 A2992 RMK AO2 RAE12 SLP122 P0001 T02610206
KCEW 241953Z AUTO 23009KT 10SM CLR 31/22 A2999 RMK AO2 LTG DSNT E RAB18E28 SLP152 P0000 T03060217
KCEY 241955Z AUTO 02010KT 10SM SCT041 BKN048 25/15 A3004 RMK AO1
KCEZ 241953Z AUTO 31007KT 10SM BKN110 31/09 A3024 RMK AO2 LTG DSNT E SLP137 T03110094
KCFD 241955Z AUTO 00000KT 10SM CLR A3000 RMK AO2
KCFE 241955Z AUTO 23003KT 10SM VCTS SCT050 25/14 A3009 RMK AO2 LTG DSNT SW AND W T02500135
KCFS 241955Z AUTO 35008KT 10SM SCT050 22/10 A3010 RMK AO2 T02200099
KCFV 241952Z AUTO 10007KT 10SM CLR 30/18 A3004 RMK AO2 SLP165 T03000183
KCGC 241955Z AUTO 27007KT 10SM CLR 31/22 A3001 RMK AO2 PWINO
KCGE 241939Z AUTO 35005KT 10SM BKN042 BKN060 25/17 A2989 RMK AO1
KCGF 241845Z 01012KT 20SM SCT040 22/12 A3008
KCGI 241953Z 03008KT 10SM FEW040 SCT050 27/17 A3006 RMK AO2 SLP177 T02670167
KCGS 241935Z AUTO 03004KT 10SM BKN039 BKN048 OVC080 26/17 A2990 RMK AO1
KCGZ 241955Z AUTO 18010G16KT 10SM CLR 43/09 A2984 RMK AO1
KCHA 241953Z 30007KT 10SM SCT040 SCT090 30/20 A2994 RMK AO2 SLP130 T03000200
KCHD 241954Z 18013KT 40SM SCT120 44/06 2981
KCHK 241955Z AUTO 20005KT 10SM CLR 35/21 A3003 RMK AO2
KCHO 241953Z 08006KT 7SM -RA SCT014 OVC023 21/18 A2991 RMK AO2 LTG DSNT SW RAB20 SLP123 P0002 T02060183
KCHS 241956Z 23010G19KT 10SM SCT040TCU 34/24 A2990 RMK AO2 SLP125 TCU SE T03390244
KCIC 241952Z 27010G17 80SM SKC 32/08 A2993
KCID 241952Z 15008KT 10SM CLR 25/15 A3007 RMK AO2 SLP179 T02500150
KCIN 241955Z AUTO 34003KT 9SM FEW038 FEW050 FEW075 20/18 A3014 RMK AO2
KCIR 241935Z AUTO 01008KT 10SM SCT040 SCT048 27/17 A3006 RMK AO2 T02680166
KCIU 241955Z AUTO 33006KT 10SM CLR 22/11 A3007 RMK AO1
KCJR 241955Z AUTO 00000KT 10SM -RA SCT009 SCT016 A2992 RMK AO2 P0009
KCKB 241953Z 02007KT 10SM BKN046 BKN055 23/12 A2999 RMK AO2 SLP142 T02280122
KCKC 241953Z AUTO 18009G15KT 10SM CLR 19/09 A3008 RMK AO2
KCKF 241955Z AUTO 26009KT 220V280 10SM SCT065 SCT075 33/21 A2996 RMK AO2 T03310207
KCKI 241955Z AUTO 20009G14KT 10SM SCT050 SCT070 34/22 A2987 RMK AO2
KCKM 241955Z AUTO 35007G15KT 10SM BKN060 28/19 A3004 RMK AO1
KCKN 241955Z AUTO 17017G26KT 10SM CLR 24/16 A2989 RMK AO2
KCKP 241935Z AUTO 17013G23KT 10SM -RA SCT031 SCT050 BKN110 18/17 A2997 RMK AO2 LTG DSNT N NE AND S P0001 T01810166
KCKV 241952Z AUTO 34008G15KT 10SM SCT041 28/16 A3002 RMK AO2 SLP161 T02780156
KCLE 241951Z 02010KT 10SM FEW045 22/10 A3010 RMK AO2 SLP187 T02170100
KCLI 241955Z AUTO 23005KT 10SM SCT060 25/07 A3008 RMK AO2
KCLK 241955Z AUTO 15004KT 10SM CLR 35/16 A3004 RMK AO2
KCLL 241953Z 01008KT 10SM FEW050 33/21 A3000 RMK AO2 SLP153 T03280206
KCLM 241953Z AUTO 30019G30KT 10SM CLR 18/10 A3017 RMK AO2 PK WND 31033/1930 SLP216 T01780100
KCLS 241955Z AUTO 25009KT 10SM FEW022 BKN046 OVC050 19/14 A3024 RMK AO2
KCLT 241952Z 19007KT 10SM SCT038TCU SCT110 BKN250 28/20 A2989 RMK AO2 SLP111 TCU E-S-W T02830200
KCMA 241955Z 23009KT 10SM CLR 29/16 A2982 RMK AO2 SLP106 T02940156
KCMD 241955Z AUTO 30005KT SCT035 28/21 A3001 RMK AO2 T02810211 PWINO
KCMH 241951Z 02005KT 10SM SCT048 SCT060 24/13 A3003 RMK AO2 SLP165 T02440128
KCMI 241953Z 01006KT 10SM SCT047 25/14 A3011 RMK AO2 SLP193 T02500139
KCMR 241955Z AUTO 00000KT 10SM FEW065 BKN095 27/09 A3037 RMK AO1
KCMX 241953Z AUTO 30011G18KT 10SM CLR 23/09 A3005 RMK AO2 SLP177 T02280094
KCMY 241955Z AUTO 08003KT 10SM BKN060 25/08 A3007 RMK AO2 T02480084
KCNB 241954Z AUTO 14005KT 7SM TSRA SCT026 BKN038 OVC075 19/18 A3009 RMK AO2 LTG DSNT ALQS P0025 T01910177
KCNC 241955Z AUTO 16012KT 10SM FEW045 26/15 A3009 RMK AO2
KCNI 241935Z AUTO 00000KT 10SM SCT100 SCT120 26/19 A2998 RMK AO2
KCNK 241955Z AUTO 15019G27KT 10SM CLR 31/19 A3000 RMK AO2 PK WND 16027/1947 SLP144 T03060194
KCNM 241953Z AUTO VRB06KT 10SM CLR 36/10 A3010 RMK AO2 SLP126 T03610100 $
KCNO 241953Z 22005KT 10SM FEW200 38/13 A2982 RMK AO2 SLP089 T03830128
KCNU 241952Z AUTO 12008KT 10SM CLR 29/18 A3007 RMK AO2 SLP172 T02940183
KCNW 241951Z 11005KT 10SM SCT060 34/19 A2999
KCNY 241953Z AUTO 22011G16KT 10SM CLR 34/08 A3008 RMK AO2 WSHFT 1853 SLP113 T03390083
KCOE 241955Z AUTO 27009G19KT 10SM FEW047 BKN060 OVC070 18/07 A3011 RMK AO1
KCOF 241958Z AUTO 16010KT 10SM CLR 30/24 A2999 RMK AO2 SLP160 T03020238
KCOM 241955Z AUTO 10007KT 10SM SCT060 BKN065 34/18 A3006 RMK AO2 T03410178
KCON 241951Z AUTO 32010KT 10SM CLR 26/13 A2984 RMK AO2 SLP102 T02610128
KCOQ 241957Z AUTO 21008G15KT 10SM SCT050 25/10 A3005 RMK AO2
KCOS 241954Z 16006KT 10SM SCT110 SCT200 33/07 A3016 RMK AO2 SLP101 CCSL SW-NW T03330072
KCOT 241953Z AUTO 08009KT 10SM SCT055 SCT070 34/20 A2996 RMK AO2 SLP136 T03440200 $
KCOU 241954Z 06008KT 10SM CLR 27/14 A3012 RMK AO2 SLP191 T02720139
KCPC 241935Z AUTO 23008G14KT 10SM SCT060 SCT080 34/22 A2985 RMK AO2 T03350219
KCPK 241955Z AUTO 09004KT 7SM BKN022 28/23 A2987 RMK AO2 LTG DSNT S
KCPR 241953Z 24020G31KT 10SM FEW120 32/01 A3002 RMK AO2 PK WND 24031/1951 SLP074 T03220011
KCPS 241953Z 03006KT 10SM SCT055 27/13 A3009 RMK AO2 SLP186 T02720128 $
KCPT 241955Z AUTO 05008KT 010V130 9SM CLR 34/19 A3002 RMK AO2
KCQB 241955Z AUTO 00000KT 10SM SCT041 33/24 A3004 RMK AO2
KCQC 241953Z AUTO 22006G20KT 10SM CLR 28/04 A3037 RMK AO2 SLP175 T02830044
KCQF 241955Z AUTO 24008KT 200V260 10SM BKN026 29/23 A2998 RMK AO2
KCQM 241955Z AUTO 27004KT 10SM SCT050 SCT065 24/11 A3002 RMK AO2
KCQT 241947Z AUTO 21005KT 10SM CLR 32/15 A2980 RMK AO2 SLP088 T03170150
KCQW 241955Z AUTO 00000KT 10SM SCT020 24/23 A2987 RMK AO2 LTG DSNT E AND SW AND W P0004
KCQX 241952Z AUTO 03008KT 10SM BKN010 BKN055 21/18 A2983 RMK AO2 SLP100 T02060178
KCRE 241953Z 21019G23KT 10SM FEW050 SCT065 32/25 A2987 RMK AO2 SLP114 T03170250
KCRG 241953Z 25010KT 10SM SCT055 34/20 A2996 RMK AO2 SLP145 T03440200
KCRH 241755Z AUTO VRB05G10KT 3SM BR FEW004 BKN036 OVC042 25/23 A3006 RMK A01
KCRP 241951Z COR 17017KT 10SM VCTS FEW027CB SCT038 SCT050 BKN150 BKN250 32/20 A2997 RMK AO2 PK WND 16030/1931 WSHFT 1913 SLP147 OCNL LTGIC VC S-W TS VC S-W MOV NW TCU DSNT W NW VCSH S-W T03170200 $
KCRQ 241953Z AUTO VRB05KT 10SM CLR 26/17 A2982 RMK AO2 SLP094 T02560172 TSNO
KCRS 241953Z AUTO 00000KT 10SM CLR 34/19 A3001 RMK AO2 SLP157 T03390189
KCRW 241854Z 01004KT 7SM -RA FEW001 BKN007 OVC012 19/18 A3000 RMK AO2 SLP151 VLY FG P0002 T01890183
KCRX 241955Z AUTO 30008KT 10SM CLR 27/15 A3001 RMK AO2
KCSG 241951Z 26011KT 10SM SCT047 BKN060 31/21 A2995 RMK AO2 SLP135 T03110206
KCSM 241953Z AUTO 18007G16KT 160V220 10SM CLR 37/18 A3005 RMK AO2 SLP146 T03670183
KCSQ 241955Z AUTO 16010G18KT 10SM CLR 24/16 A3010 RMK AO2
KCSV 241953Z AUTO 34008KT 10SM SCT032 SCT042 25/19 A3002 RMK AO2 SLP143 T02500194
KCTB 241956Z AUTO 25031G40KT 10SM CLR 19/02 A2993 RMK AO2 PK WND 25044/1857 SLP113 T01890017
KCTJ 241935Z AUTO 25004KT 10SM SCT038 SCT043 SCT050 31/20 A2997 RMK AO2
KCTY 241953Z AUTO 27010KT 33/23 A2999 RMK AO1 SLP155 T03280228
KCTZ 241935Z AUTO 24009KT 10SM SCT047 BKN055 33/24 A2984 RMK AO2 T03280240
KCUB 241953Z AUTO 26012G19KT 10SM CLR 35/19 A2988 RMK AO2 SLP115 T03500194
KCUH 241955Z AUTO 00000KT 10SM CLR 33/23 A3003 RMK AO2
KCUL 241935Z AUTO 03006KT 10SM SCT047 SCT050 27/17 A3006 RMK AO2
KCUT 241953Z AUTO 28014G21KT 10SM CLR 34/07 A2999 RMK AO2 SLP065 T03390067
KCVB 241935Z AUTO 17004KT 7SM SCT050 33/19 A3002 RMK AO2 T03280186
KCVC 241955Z AUTO 29012G20KT 10SM -TSRA SCT044 SCT060 OVC085 23/17 A2997 RMK AO2 LTG DSNT ALQS
KCVG 241952Z 01011KT 10SM FEW046 BKN055 24/12 A3006 RMK AO2 SLP170 T02390117
KCVH 241950Z AUTO 29003KT 10SM CLR 31/11 A2993 RMK AO1
KCVN 241755Z AUTO 26010KT 10SM CLR 32/14 A3025 RMK AO1 57014
KCVO 241955Z AUTO 17007KT 10SM FEW034 22/12 A3028 RMK AO1
KCVS 241958Z AUTO 26007KT 10SM CLR 33/13 A3019 RMK AO2 SLP157 T03290126 $
KCVW 241955Z AUTO 22008KT 10SM FEW026 SCT045 29/24 A2999 RMK A01
KCVX 241954Z AUTO 26010KT 10SM CLR 21/10 A3014 RMK AO2 T02090095
KCWA 241945Z 25008G14KT 10SM BKN050 25/09 A3010
KCWC 241955Z AUTO 00000KT 10SM CLR 34/20 A3003 RMK AO2 T03400195
KCWF 241950Z 01004KT 10SM SCT034 SCT040 31/22 A2999
KCWI 241955Z AUTO 21006KT 10SM CLR 25/13 A3013 RMK AO1
KCWN 241956Z AUTO VRB02KT 12SM SCT100 30/06 A3021 RMK AO2 SLP118 T03030064
KCWV 241955Z AUTO 25007KT 220V290 10SM SCT050 SCT065 SCT080 34/22 A2993 RMK AO2
KCXO 241953Z 30004KT 10SM CLR 33/22 A3000 RMK AO2 SLP155 T03280222
KCXP 241955Z AUTO 09005KT 10SM CLR 27/00 A3014 RMK AO2
KCXY 241956Z 34009KT 10SM FEW055 26/11 A2992 RMK AO2 SLP130 T02560106
KCYS 241953Z 26022G33KT 10SM CLR 32/08 A3013 RMK AO2 PK WND 28033/1944 LTG DSNT S AND SW SLP099 T03220083
KCZT 241955Z AUTO 11009KT 10SM SCT060 SCT070 BKN110 35/20 A2995 RMK AO2
KCZZ 241952Z AUTO 23011KT 39/04 A2987 RMK AO1 SLP073 T03940044
KD07 241956Z AUTO 14008G16KT 31/19 A2976 RMK AO1 SLP059 T03110189
KD25 241955Z AUTO 00000KT 10SM BKN050 22/10 A3008 RMK AO2 T02180097
KD39 241952Z AUTO 24007KT 10SM -RA SCT060 OVC095 20/15 A3012 RMK AO2 LTG DSNT S AND SW T01960151
KD50 241955Z AUTO 16010KT CLR 26/21 A2978 RMK AO2 LTG DSNT S
KD55 241955Z AUTO 15011KT 10SM BKN030 22/17 A2992 RMK AO2
KD57 241955Z AUTO 13012G21KT 10SM BKN030 26/19 A2977 RMK AO2 LTG DSNT W
KD60 241955Z AUTO 13010KT 10SM CLR 22/22 A2984 RMK AO2 LTG DSNT S
KD95 241953Z AUTO 36005KT 10SM OVC060 21/08 A3011 RMK AO2 T02140082
KDAA 241958Z AUTO 31005KT 10SM -DZ SCT060 SCT080 26/17 A2991 RMK AO2 SLP131 P0000 T02610170
KDAB 241953Z 09007KT 10SM SCT035TCU SCT140 32/24 A2998 RMK AO2 SLP153 TCU OHD SE W T03220239
KDAG 241950Z AUTO VRB03KT 10SM CLR 38/M03 A2988 RMK AO2 SLP085 T03831028
KDAL 241953Z VRB06KT 10SM CLR 33/18 A3000 RMK AO2 SLP152 T03330178
KDAN 241953Z AUTO 21007KT 10SM CLR 29/22 A2985 RMK AO2 LTG DSNT N AND NW SLP097 T02940217
KDAW 241951Z AUTO 00000KT 10SM FEW032 BKN043 OVC050 24/17 A2982 RMK AO2 SLP095 T02440172
KDAY 241956Z 04011KT 10SM BKN060 22/12 A3009 RMK AO2 SLP183 T02220122
KDBN 241955Z AUTO 25008KT 205V295 10SM SCT046 BKN065 31/22 A2996 RMK AO2
KDBQ 241953Z AUTO 20006KT 10SM SCT046 24/14 A3009 RMK AO2 SLP186 T02390144
KDCA 241952Z VRB06KT 10SM SCT049 BKN060 BKN250 28/16 A2990 RMK AO2 SLP126 T02830161
KDCM 241935Z AUTO 23004KT 10SM SCT042 SCT047 33/23 A2989 RMK AO2 LTG DSNT E SE AND NW
KDCU 241953Z AUTO 28007KT 9SM CLR 29/20 A2998 RMK AO2 SLP146 T02940200
KDCY 241935Z AUTO 03008KT 10SM SCT042 BKN050 24/15 A3007 RMK AO2 T02380151
KDDC 241952Z AUTO 16017G22KT 9SM CLR 34/19 A3002 RMK AO2 SLP129 T03440194
KDDH 241954Z AUTO 35006KT 10SM FEW050 24/12 A2990 RMK AO2 SLP119 T02390117
KDEC 241954Z 03006KT 10SM CLR 25/13 A3011 RMK AO2 SLPNO T02500133
KDED 241955Z AUTO 00000KT 10SM FEW045 33/23 A3000 RMK AO1
KDEH 241955Z AUTO VRB06KT 10SM FEW050 FEW055 25/14 A3007 RMK AO2
KDEN 241956Z 20013KT 10SM TS SCT090CB BKN120 BKN200 33/07 A3008 RMK AO2 TSB55 OCNL LTGICCG VC W TS VC W MOV NE T03280067 $
KDEQ 241953Z AUTO 12005KT 9SM BKN029 29/22 A3003 RMK AO2 SLP162 T02940222
KDET 241953Z 02009KT 10SM BKN060 25/08 A3008 RMK AO2 SLP184 T02500083
KDEW 241953Z AUTO 21016G26KT 10SM OVC065 17/07 A3011 RMK AO2 PK WND 19027/1925 SLP191 T01720067
KDFI 241953Z AUTO 05008KT 10SM BKN060 25/10 A3009 RMK AO2 SLP188 T02500100
KDFW 241953Z VRB05KT 10SM FEW050 FEW250 34/17 A3000 RMK AO2 SLP149 T03440172 $
KDGW 241953Z AUTO 28022G31KT 10SM CLR 36/06 A2997 RMK AO2 PK WND 26035/1859 SLP073 T03560056
KDHN 241953Z 18008KT 10SM FEW045 BKN060 31/23 A3000 RMK AO2 LTG DSNT SW AND W SLP152 T03060228
KDHT 241953Z AUTO 20016G20KT 10SM CLR 37/07 A3013 RMK AO2 SLP134 T03670072
KDIJ 241956Z AUTO 21013G20KT 10SM CLR 26/02 A3020 RMK AO2 T02610016 SLP128
KDIK 241956Z AUTO 11010KT 10SM BKN026 26/19 A2979 RMK AO2 SLP071 T02610189
KDKB 241955Z AUTO 00000KT 10SM SCT050 23/11 A3012 RMK AO2 T02300110
KDKK 241953Z AUTO 35009KT 10SM CLR 21/08 A3005 RMK AO2 SLP174 T02060078
KDKR 241935Z AUTO 33004KT 10SM CLR 33/22 A3004 RMK AO2
KDLF 241945Z AUTO 00000KT 10SM TS FEW110 BKN150 BKN190 35/19 A2998 RMK AO2 LTG DSNT NE-E TSB1945 $
KDLH 241955Z 22009KT 10SM FEW049 BKN065 24/12 A3005 RMK AO2 SLP174 T02440122
KDLL 241940Z AUTO 18003KT 10SM CLR 26/08 A3009 RMK AO2 T02590084
KDLN 241953Z AUTO 25022G32KT 10SM CLR 24/01 A3002 RMK AO2 PK WND 27043/1914 SLP114 T02440011
KDLP 241955Z AUTO VRB06KT 10SM SCT085 33/23 A2999 RMK A01
KDLS 241953Z AUTO 31012G20KT 10SM SCT045 23/11 A3020 RMK AO2 SLP224 T02280106 TSNO
KDLZ 241956Z AUTO 34009KT 10SM SCT043 SCT050 23/12 A3006 RMK AO2
KDMA 241958Z AUTO 13012G21KT 10SM CLR 40/06 A2994 RMK AO2 SLP085 T03970057 $
KDMH 241954Z AUTO 27/13 A2990 RMK AO1 SLP123 T02720133
KDMN 241953Z AUTO 15008G20KT 100V170 10SM FEW095 33/08 A3016 RMK AO2 SLP128 T03330078
KDMO 241953Z AUTO 09009KT 7SM CLR 28/14 A3012 RMK AO2 SLP190 T02780139
KDMW 241940Z AUTO 34006KT 10SM SCT050 26/16 A2993 RMK AO2
KDNL 241953Z AUTO 24008G14KT 10SM SCT050 BKN070 33/20 A2991 RMK AO2 SLP122 T03280200
KDNN 241935Z AUTO 31008KT 10SM CLR 29/22 A2995 RMK AO2
KDNS 241955Z AUTO 16012KT 1 3/4SM +RA SCT029 SCT040 BKN060 20/17 A3004 RMK AO2 P0006
KDNV 241955Z AUTO 02007KT 7SM SCT042 SCT048 23/15 A3008 RMK AO2 T02330148
KDOV 241958Z AUTO 34010KT 10SM BKN047 26/18 A2986 RMK AO2 SLP115 T02580184
KDPA 241952Z 05005KT 10SM CLR 24/08 A3012 RMK AO2 SLP198 T02390083
KDPL 241935Z AUTO 01005KT 10SM CLR 28/22 A2986 RMK AO2 T02760219
KDQH 241955Z AUTO 23009G16KT 10SM SCT050 BKN070 34/20 A2997 RMK AO2 LTG DSNT SW
KDRA 241952Z AUTO 16012G24KT 10SM CLR 39/M06 A2995 RMK AO2 SLP079 T03941056
KDRI 241955Z AUTO 00000KT 10SM BKN031 BKN039 30/22 A3002 RMK AO2 T02980222
KDRM 241954Z AUTO 28006KT 10SM CLR 22/13 A3006 RMK AO2 T02170127
KDRO 241953Z AUTO VRB04KT 10SM FEW120 29/08 A3030 RMK AO2 LTG DSNT NW SLP161 T02890078
KDRT 241953Z AUTO 11006KT 10SM FEW070 36/18 A2996 RMK AO2 SLP127 T03610183
KDSM 241954Z 20009KT 10SM FEW048 FEW200 BKN250 OVC300 27/14 A3008 RMK AO2 SLP179 T02670144
KDSV 241954Z AUTO A3002 RMK AO2 SLPNO PWINO FZRANO $
KDTL 241954Z AUTO 13011G20KT 10SM CLR 21/13 A2992 RMK AO2
KDTN 241953Z 00000KT 10SM FEW018 28/21 A3003 RMK AO2 SLP167 T02780206
KDTO 241953Z 09007KT 10SM CLR 33/20 A3001 RMK AO2 SLP152 T03330200
KDTS 241953Z AUTO VRB06KT 10SM CLR 30/23 A2999 RMK AO2 SLP153 T03000233 TSNO
KDTW 241953Z 04007G16KT 10SM SCT060 24/08 A3008 RMK AO2 SLP185 T02390083
KDUA 241955Z AUTO 18003KT 10SM CLR 34/20 A3004 RMK AO2
KDUB 241955Z AUTO 29023G32KT 7SM CLR 27/M02 A3017 RMK AO2
KDUC 241955Z AUTO 00000KT 10SM CLR 33/21 A3004 RMK AO2 PWINO TSNO
KDUG 241956Z AUTO 13012G20KT 10SM FEW110 36/08 A3011 RMK AO2 SLP112 T03560078
KDUH 241955Z AUTO 13004KT 10SM BKN060 23/09 A3009 RMK AO2
KDUJ 241956Z AUTO 34007KT 10SM BKN050 22/11 A3000 RMK AO2 SLP150 T02220106
KDUX 241955Z AUTO 23010G20KT 10SM CLR 35/12 A3012 RMK AO2 T03480118
KDVK 241955Z AUTO 03008KT 10SM SCT031 SCT038 OVC044 22/15 A3006 RMK AO2
KDVL 241955Z AUTO 16013G20KT 10SM CLR 24/16 A2986 RMK AO1
KDVN 241952Z AUTO 14004KT 10SM FEW050 24/12 A3011 RMK AO2 SLP192 T02440122
KDVO 241955Z AUTO 09004KT 10SM CLR 29/13 A2995 RMK AO2
KDVP 241954Z AUTO 15005KT 10SM -TSRA SCT043 SCT055 BKN070 18/16 A3001 RMK AO2 LTG DSNT ALQS P0004 T01800164
KDVT 241953Z 15007G16KT 10SM CLR 42/06 A2983 RMK AO2 SLP068 T04220061
KDWH 241953Z 00000KT 9SM FEW040 33/24 A2999 RMK AO2 SLP152 T03280239
KDWX 241955Z AUTO 26017G22KT 10SM SCT090 29/06 A3026 RMK AO2 T02880060
KDXR 241953Z 01010KT 10SM FEW048 25/13 A2987 RMK AO2 SLP112 T02500128
KDXX 241954Z AUTO 14009KT 10SM -RA SCT046 SCT060 21/19 A3006 RMK AO2 P0014 LTG DSNT S AND NW
KDYA 241935Z AUTO 21004KT 10SM CLR 32/21 A2995 RMK AO2 T03210207
KDYB 241955Z AUTO 21004KT 10SM SCT050 34/23 A2990 RMK AO1 LTG DSNT N
KDYL 241954Z AUTO 36007KT 10SM CLR 28/13 A2987 RMK AO2 SLP111 T02780133
KDYR 241955Z 03007G14KT 10SM SCT037 BKN044 26/14 A3005 RMK AO1
KDYS 241858Z AUTO 08005KT 10SM FEW065 SCT120 BKN140 BKN160 BKN200 34/19 A3006 RMK AO2 SLP127 T03430193 $
KDYT 241953Z AUTO 04006KT 10SM SCT065 19/16 A3004 RMK AO2
KDZB 241955Z AUTO 12004KT 10SM CLR 28/23 A3003 RMK AO2 P0001 T02830225
KE11 241955Z AUTO 11008KT 10SM CLR 36/10 A3012 RMK AO2 T03560095
KE16 241955Z AUTO 36007KT 10SM CLR 30/10 A2994 RMK AO2
KE38 241955Z AUTO 15009G16KT 10SM SCT075 SCT090 31/11 A3024 RMK AO2 T03130111
KE80 241955Z AUTO 21003KT 10SM SCT095 32/05 A3023 RMK AO2 T03170050
KEAR 241955Z AUTO 14020G26KT 32/21 A2996 RMK AO1
KEAT 241955Z AUTO 29013G20KT 10SM CLR 23/07 A3008 RMK AO2 SLP181 T02280067
KEAU 241956Z 22009KT 10SM BKN060 26/11 A3005 RMK AO2 SLP172 T02610106
KEBG 241955Z AUTO 13007KT 10SM CLR 39/16 A2993 RMK AO2 T03850155
KEBS 241955Z AUTO 21010KT 10SM SCT043 24/16 A3010 RMK AO2
KECG 241954Z AUTO 00000KT 10SM CLR 27/21 A2988 RMK AO2 SLP119 T02670206 TSNO
KECP 241953Z 18010G22KT 10SM SCT029 31/23 A2998 RMK AO2 SLP163 P0001 T03060233
KECS 241955Z AUTO 26018G24KT 10SM CLR 37/00 A2986 RMK AO2
KECU 241930Z AUTO 02005KT 10SM FEW065 33/17 A3008 RMK AO2
KEDC 241955Z AUTO 00000KT 10SM SCT050 BKN060 32/20 A3001 RMK AO2
KEDE 241955Z AUTO 11005KT 10SM CLR 25/22 A2989 RMK AO2 T02510215
KEDU 241955Z AUTO 36009KT 10SM CLR 31/12 A2993 RMK AO1
KEDW 241858Z 23007KT 90SM FEW120 FEW250 35/02 A2991 RMK AO2A SLP100 T03490021
KEED 241956Z AUTO 17010G15KT 10SM CLR 46/07 A2976 RMK AO2 SLP035 T04560067
KEEN 241955Z AUTO 32005KT 10SM FEW055 SCT070 24/10 A2986 RMK AO1
KEEO 241953Z AUTO VRB03KT 10SM SCT100 27/09 A3026 RMK AO2 LTG DSNT SW AND W SLP147 T02720094
KEET 241953Z AUTO 21007KT 10SM BKN039 31/23 A2995 RMK AO2 SLP134 T03060233
KEFD 241850Z 36003KT 5SM HZ BKN025 33/23 A3002
KEFK 241955Z AUTO 33009KT 10SM CLR A2994 RMK AO2
KEFT 241935Z AUTO 00000KT 10SM BKN050 23/11 A3012 RMK AO2
KEGE 241950Z 22010G17KT 10SM FEW120 BKN150 27/08 A3030
KEGI 241958Z AUTO 20010KT 10SM FEW190 31/26 A2998 RMK AO2 SLP153 T03090256 $
KEGV 241955Z AUTO 25003G18KT 10SM BKN055 23/07 A3008 RMK AO2 T02250072
KEHA 241948Z AUTO 17010KT 36/12 RMK AO1 PK WND 22 000 T03610123
KEHC 241955Z AUTO 30015KT 9SM CLR 27/23 A2999 RMK A01
KEHO 241955Z AUTO 22009KT 10SM SCT041 SCT048 SCT050 30/21 A2989 RMK AO2 T03020206
KEHR 241955Z AUTO 02010KT 10SM BKN050 26/13 A3004 RMK AO1
KEHY 241955Z AUTO 23024G36KT 10SM OVC006 25/02 A3024 RMK AO2
KEIK 241955Z AUTO 16022G31KT 10SM TS SCT046 SCT070 BKN120 29/08 A3007 RMK AO2 LTG DSNT ALQS T02880080
KEIR 241955Z AUTO 28011KT 10SM CLR 28/23 A3001 RMK A01
KEKM 241850Z 00000KT 10SM SCT049 23/09 A3013 RMK AO2
KEKN 241951Z AUTO 32005KT 9SM OVC019 19/16 A3002 RMK AO2 RAB16E28 SLP158 P0000 T01890156 TSNO
KEKO 241956Z AUTO 27009G18KT 170V330 10SM CLR 29/M02 A3015 RMK AO2 SLP152 T02891022
KEKQ 241956Z AUTO 00000KT 10SM BKN032 BKN042 24/20 A3004 RMK AO2 T02440200 BKN V OVC SLP168
KELD 241953Z AUTO 02007KT 10SM CLR 31/23 A3003 RMK AO2 SLP165 T03110228
KELM 241953Z AUTO 32008KT 10SM FEW047 23/10 A2998 RMK AO2 SLP147 T02280100
KELN 241953Z AUTO 32015G22KT 10SM SCT055 22/10 A3013 RMK AO2 SLP198 T02170100
KELO 241953Z AUTO 24009KT 190V260 10SM SCT060 24/11 A3004 RMK AO2
KELP 241951Z 19007KT 10SM FEW100 33/09 A3013 RMK AO2 SLP122 T03330094
KELY 241953Z AUTO 20019G26KT 10SM CLR 33/M10 A3017 RMK AO2 PK WND 19028/1936 SLP089 T03331100
KELZ 241956Z AUTO 01007G15KT 330V060 10SM FEW038 20/09 A3005 RMK AO2 SLP168 T02000089
KEMK 241955Z AUTO 34008KT 10SM CLR 28/23 A2999 RMK A01
KEMM 241955Z AUTO 23018G31KT 10SM SCT110 29/M03 A3023 RMK AO2
KEMP 241953Z AUTO 13011KT 10SM CLR 29/18 A3006 RMK AO2 SLP171 T02940183
KEMT 241945Z 22006KT 10SM SKC 35/11 A2982
KEMV 241955Z AUTO 06003KT 10SM SCT027 SCT032 28/22 A2988 RMK AO2 LTG DSNT SE
KEND 241955Z 14008KT 10SM FEW045 33/25 A3002 RMK AO2A SLP153
KENL 241935Z AUTO 01006KT 10SM BKN046 27/12 A3009 RMK AO2 T02650123 TSNO
KENV 241955Z 11011G15KT 10SM CLR 33/00 A3005 RMK AO1
KENW 241953Z 07006KT 10SM CLR 22/07 A3013 RMK AO2 SLP203 T02170072
KEOE 241935Z AUTO 24013G18KT 10SM SCT047 SCT060 SCT070 32/21 A2992 RMK AO2 LTG DSNT E AND SE
KEOK 241955Z AUTO 14009KT 10SM CLR 24/14 A3010 RMK AO2
KEPH 241953Z AUTO 24014G21KT 10SM SCT075 23/06 A3009 RMK AO2 PK WND 24028/1916 SLP185 T02280061
KEQY 241953Z AUTO 00000KT 10SM CLR 27/22 A2988 RMK AO2 LTG DSNT SE AND SW RAE20 TSE01 SLP117 P0007 T02670217
KERI 241951Z 36008KT 10SM CLR 21/09 A3006 RMK AO2 SLP175 T02110089
KERV 241935Z AUTO 17004KT 10SM BKN060 BKN075 33/18 A3004 RMK AO2 T03310181
KERY 241954Z AUTO 00000KT 10SM SCT055 22/11 A3006 RMK AO2 T02180109
KESC 241955Z AUTO 17013KT 10SM CLR 21/09 A3007 RMK AO1
KESF 241953Z AUTO VRB03KT 10SM BKN034 32/22 A2999 RMK AO2 SLP155 T03170222
KESN 241948Z 03004KT 10SM SCT030 BKN045 27/19 A2993
KEST 241952Z AUTO 16010KT 10SM CLR 22/15 A3003 RMK AO2 WSHFT 1844 LTG DSNT SW AND W PRESRR SLP166 T02170150
KETB 241935Z AUTO 04005KT 10SM BKN050 22/08 A3012 RMK AO2
KETC 241955Z AUTO 08004KT 10SM SCT030 SCT046 30/22 A2987 RMK AO2 T02990215
KETH 241956Z AUTO 13020G25KT 10SM CLR 17/16 A2990 RMK AO2 LTG DSNT SE AND S
KEUF 241858Z AUTO 23006KT 10SM FEW042 SCT060 32/21 A2997 RMK AO2 SLP144 T03220211 $
KEUG 241954Z 00000KT 10SM SCT038 BKN050 21/10 A3027 RMK AO2 SLP249 T02110100
KEUL 241955Z AUTO 35005KT 10SM CLR 21/02 A3022 RMK AO1
KEVB 241947Z 12010KT 7SM SCT065 33/25 A3000
KEVM 241952Z AUTO 22005KT 10SM SCT050 SCT065 25/12 A3005 RMK AO2
KEVV 241954Z 01011KT 10SM CLR 27/13 A3006 RMK AO2 SLP177 T02670128
KEVW 241953Z AUTO 24020G30KT 10SM FEW100 30/03 A3023 RMK AO2 PK WND 23038/1857 SLP118 T03000028
KEWB 241953Z 05006KT 10SM FEW080 24/18 A2981 RMK AO2 SLP095 T02390178
KEWK 241955Z AUTO 16012G20KT 10SM CLR 32/18 A3007 RMK AO1
KEWN 241954Z 24003KT 10SM SCT070 BKN100 BKN120 24/22 A2989 RMK AO2 LTG DSNT E-SW TSE46RAE29 SLP121 P0008 T02440222
KEWR 241951Z VRB03KT 10SM SCT045 SCT065 BKN250 27/14 A2984 RMK AO2 SLP105 T02670139
KEXX 241935Z AUTO 00000KT 10SM SCT038 SCT080 SCT110 29/22 A2987 RMK AO2 T02930216
KEYE 241953Z AUTO 02007KT 10SM SCT050 24/10 A3009 RMK AO2 SLP185 T02390100
KEYF 241955Z AUTO 22008G15KT 10SM SCT043 BKN050 BKN090 33/22 A2985 RMK AO2 T03280218
KEYW 241953Z 16005KT 10SM CLR 31/24 A3002 RMK AO2 SLP165 T03110239
KEZF 241955Z AUTO 00000KT 10SM -DZ SCT033 BKN048 OVC095 23/23 A2990 RMK AO2 P0006 T02260225
KEZM 241955Z AUTO 24007KT 10SM SCT048 SCT050 33/23 A2997 RMK AO2 T03300227
KEZS 241955Z AUTO 18005KT 10SM SCT060 25/11 A3008 RMK AO2 T02450107
KF05 241955Z AUTO 15004KT 10SM CLR 36/19 A3003 RMK AO1 T03570192
KF44 241955Z AUTO 00000KT 10SM CLR 30/19 A3001 RMK AO2
KF46 241955Z AUTO 03004KT 10SM CLR 32/19 A3000 RMK AO2 T03230190
KF70 241955Z AUTO 19005KT 10SM CLR 39/06 A2984 RMK AO1
KFAF 241958Z AUTO 34004KT 10SM CLR 28/22 A2985 RMK AO2 SLP111 T02810220 $
KFAM 241955Z AUTO 03009KT 10SM CLR 25/12 A3012 RMK AO1
KFAR 241953Z 14011KT 10SM CLR 23/16 A2990 RMK AO2 PRESRR SLP124 T02280156
KFAT 241953Z 31007KT 10SM CLR 33/13 A2991 RMK AO2 SLP123 MTNS OBSC HZ DSNT SE-S T03280128
KFAY 241953Z AUTO 25010KT 10SM FEW050 SCT060 SCT080 33/21 A2984 RMK AO2 LTG DSNT S AND SW SLP098 T03280206
KFBG 241958Z AUTO 27006KT 10SM CLR 33/22 A2984 RMK AO2 LTG DSNT SW SLP105 T03340218 $
KFBL 241954Z AUTO 14005KT 10SM SCT050 28/09 A3007 RMK AO2 LTG DSNT SW THRU NW
KFBR 241955Z AUTO 25020G25KT SCT100 31/01 A3025 RMK AO2 T03060012 PWINO
KFCI 241955Z AUTO 11005KT 10SM SCT050 BKN070 OVC090 27/18 A2986 RMK AO1 LTG DSNT W
KFCM 241953Z 21003KT 10SM SCT055 26/14 A3005 RMK AO2 SLP173 T02610139
KFCS 241958Z AUTO VRB06G15KT 10SM CLR 35/09 A3012 RMK AO2 SLP125 T03450091
KFDK 241945Z 01004KT 10SM SCT060 26/17 A2994
KFDR 241953Z AUTO 09009G14KT 10SM CLR 36/21 A3000 RMK AO2 SLP137 T03560206
KFDW 241955Z AUTO 23008KT 10SM CLR 33/19 A2988 RMK AO1
KFDY 241953Z AUTO 04010KT 10SM FEW050 23/09 A3008 RMK AO2 SLP180 T02330094
KFEP 241955Z AUTO 00000KT 10SM BKN049 22/12 A3014 RMK AO2 T02220116
KFET 241955Z AUTO 14014G23KT 10SM CLR 29/17 A3001 RMK AO2 LTG DSNT N T02910167
KFEW 241855Z AUTO 28018G24KT 10SM CLR 32/06 A3010 RMK AO2 PK WND 29030/1817 SLP008 T03230062
KFFA 241935Z AUTO 00000KT 4SM -DZ SCT004 23/23 A2988 RMK AO2 P0001 T02320225
KFFC 241953Z AUTO 31009G18KT 8SM SCT037 BKN048 OVC080 27/21 A2997 RMK AO2 SLP142 T02670206
KFFL 241955Z AUTO 14010G16KT 10SM CLR 25/15 A3008 RMK AO2
KFFM 241954Z AUTO 14021G31KT 10SM CLR 18/14 A2979 RMK AO2 P0003 LTG DSNT S
KFFO 241958Z AUTO 36008KT 10SM FEW042 BKN060 23/13 A3007 RMK AO2 SLP183 T02330129
KFFT 241953Z AUTO VRB06KT 10SM SCT045 24/12 A3004 RMK AO2 SLP165 T02440122
KFFX 241954Z AUTO 00000KT 10SM CLR 24/06 A3010 RMK AO2 T02350063
KFFZ 241850Z 13005KT 40SM SCT180 43/07 A2984
KFGN 241954Z AUTO 11004KT 10SM CLR 22/13 A2992 RMK AO2
KFGX 241955Z AUTO 35007KT 10SM BKN050 23/13 A3004 RMK AO2 T02250132
KFHB 241935Z AUTO 22005KT 10SM SCT055 BKN075 33/20 A2996 RMK AO1
KFHR 241953Z AUTO 22011G18KT 10SM FEW075 19/12 A3016 RMK AO2 SLP212 T01890122
KFHU 241955Z 12010G18KT 10SM FEW100 BKN280 34/05 A3016 RMK SLP136
KFIG 241954Z AUTO 32006KT 10SM FEW050 23/11 A3000 RMK AO2 SLP152 T02280106
KFIT 241952Z AUTO 01005KT 10SM SCT060 BKN075 26/13 A2984 RMK AO2 SLP104 T02610133
KFKA 241951Z AUTO 20007KT 10SM SCT050 25/16 A3008 RMK AO2 LTG DSNT W AND NW T02510155
KFKL 241955Z 34006KT 10SM BKN048 21/09 A3004 RMK AO1
KFKN 241935Z AUTO 35004KT 10SM SCT021 27/22 A2987 RMK AO1
KFKS 241956Z AUTO 29008KT 10SM CLR 22/08 A3012 RMK AO2 T02170081
KFLD 241953Z AUTO 18007KT 10SM BKN055 24/11 A3010 RMK AO2 SLP191 T02440106
KFLG 241957Z 17007KT 130V240 10SM FEW100 27/09 A3034 RMK AO2 SLP148 T02670094
KFLL 241953Z 00000KT 10SM SCT034 SCT180 SCT250 32/23 A3002 RMK AO2 SLP166 T03170228
KFLO 241953Z 16003KT 10SM FEW016 SCT120 29/22 A2987 RMK AO2 RAB01E26 TSB11E34 SLP111 P0000 T02940217
KFLP 241955Z AUTO 05003KT 10SM CLR 28/16 A3009 RMK AO1
KFLY 241955Z AUTO 15009G14KT 10SM CLR 32/07 A3023 RMK AO2 T03150068
KFME 241939Z AUTO 35007KT 10SM SCT042 BKN048 OVC060 25/16 A2992 RMK AO1
KFMH 241955Z AUTO 03009G14KT 10SM FEW009 OVC065 20/18 A2984 RMK AO2
KFMM 241955Z AUTO 20004KT 10SM CLR 38/04 A2998 RMK AO2 T03820036 PWINO
KFMN 241953Z 24007KT 10SM FEW090 32/07 A3020 RMK AO2 SLP149 T03220072
KFMY 241953Z AUTO 24010G14KT 10SM FEW042 33/23 A3001 RMK AO2 SLP162 T03280228 $
KFNB 241953Z AUTO 16015KT 10SM CLR 28/17 A3003 RMK AO2 SLP162 T02780167
KFNL 241955Z AUTO 24005KT 10SM CLR 36/09 A3001 RMK AO1 LTG DSNT N
KFNT 241953Z 33009KT 10SM BKN055 23/09 A3010 RMK AO2 SLP191 T02280089
KFOA 241955Z AUTO 02008KT 10SM CLR 25/12 A3009 RMK AO2 T02460123
KFOD 241955Z AUTO 21009KT 10SM CLR 23/15 A3010 RMK AO1
KFOE 241953Z 11011G20KT 10SM CLR 30/16 A3006 RMK AO2 SLP168 T03000156
KFOK 241953Z 34007KT 10SM CLR 27/16 A2984 RMK AO2 SLP103 T02670156
KFOT 241955Z AUTO 32014G18KT 10SM CLR 21/10 A3013 RMK AO1
KFOZ 241942Z AUTO 22002KT 10SM SCT048 SCT060 24/13 A3001 RMK AO2
KFPK 241955Z AUTO 03004KT 10SM BKN050 23/09 A3009 RMK AO2 T02260089
KFPR 241953Z 12013KT 10SM VCTS CLR 31/23 A3002 RMK AO2 SLP164 T03110233
KFQD 241955Z AUTO 23004KT 10SM CLR 28/22 A2991 RMK AO2 LTG DSNT W T02820219
KFRG 241953Z VRB06KT 10SM CLR 26/14 A2985 RMK AO2 SLP106 T02560144
KFRI 241958Z AUTO 16010G18KT 10SM CLR 32/18 A3002 RMK AO2 SLP154 T03170176
KFRM 241955Z AUTO 18011G17KT 10SM CLR 24/13 A3005 RMK AO1
KFSD 241956Z 15018G25KT 10SM SCT080 BKN120 BKN180 24/17 A2996 RMK AO2 PK WND 17033/1859 SLP140 ACC OHD T02390172
KFSE 241955Z AUTO 14011KT 10SM CLR 23/16 A2992 RMK AO2
KFSI 241958Z AUTO VRB04KT 10SM CLR 35/22 A3001 RMK AO2 SLP151 T03520216
KFSM 241953Z VRB03KT 10SM BKN029 29/22 A3005 RMK AO2 SLP170 T02890217
KFSO 241955Z AUTO 34005KT 10SM SCT042 21/11 A2993 RMK AO2 T02110105
KFST 241953Z AUTO 11013KT 10SM CLR 34/11 A3010 RMK AO2 SLP138 T03440106
KFSW 241955Z AUTO 12005KT 10SM SCT046 25/14 A3011 RMK AO2
KFTG 241948Z 19008KT 30SM SCT080 BKN120 34/05 A3011
KFTK 241958Z AUTO 34009G15KT 10SM FEW050 26/14 A3004 RMK AO2 SLP170 T02580135
KFTN 242055Z AUTO 10010G14KT 10SM CLR 37/18 A2996 RMK AO1
KFTW 241953Z 04006KT 10SM CLR 35/19 A3000 RMK AO2 SLP149 T03500189
KFTY 241953Z 19004KT 10SM FEW085 28/24 A2995 RMK AO2 SLP133 T02830239
KFUL 241953Z 20007KT 170V240 10SM CLR 33/16 A2980 RMK AO2 SLP088 T03330161
KFVE 241953Z AUTO 32004KT 10SM CLR 20/07 A2981 RMK AO2 SLP094 T02000072
KFVX 241955Z AUTO 00000KT 10SM VCTS BKN037 BKN050 OVC055 30/19 A2984 RMK AO2 LTG DSNT ALQDS
KFWA 241954Z 35005KT 10SM SCT060 24/10 A3009 RMK AO2 SLP184 T02440100
KFWB 241955Z AUTO 05005KT 10SM CLR 28/14 A3010 RMK AO2
KFWC 241955Z AUTO 02007KT 10SM SCT044 SCT050 26/17 A3008 RMK AO2
KFWN 241953Z AUTO 34006KT 10SM CLR 27/13 A2987 RMK AO1 SLP111 T02720128
KFWS 241949Z 33005KT 10SM CLR 35/17 A3002
KFWZ 241955Z AUTO 24016G23KT 10SM SCT007 OVC019 25/M01 A3024 RMK AO2
KFXE 241953Z VRB06KT 10SM CLR 31/24 A3003 RMK AO2 SLP171 T03110239
KFXY 241935Z AUTO 17012KT 10SM SCT044 25/15 A3004 RMK AO2
KFYG 241955Z AUTO 06005KT 10SM CLR 26/ A3010 RMK AO2
KFYJ 241955Z AUTO 06005KT 10SM SCT017 SCT024 SCT095 27/21 A2988 RMK AO2 T02710214
KFYM 241955Z AUTO 30009KT 250V340 10SM CLR 27/18 A2998 RMK
KFYV 241953Z VRB04KT 10SM OVC031 28/21 A3009 RMK AO2 SLP175 T02780206
KFZG 241935Z AUTO 25008KT 10SM BKN046 BKN050 33/20 A2999 RMK AO2 T03270199
KFZY 241954Z AUTO 33011G16KT 10SM CLR 21/09 A3000 RMK AO2 SLP157 T02110094
KGAD 241955Z AUTO 31008KT 10SM SCT038 BKN048 31/21 A2995 RMK AO1 LTG DSNT E
KGAF 241955Z AUTO 17014G20KT 10SM SCT034 25/17 A2990 RMK AO2
KGAG 241953Z AUTO 18011G18KT 10SM CLR 37/17 A3003 RMK AO2 SLP133 T03720167
KGAI 241955Z AUTO 00000KT 10SM FEW046 OVC065 24/17 A2995 RMK AO1
KGBD 241955Z AUTO 17017G23KT 10SM CLR 33/21 A2998 RMK AO1
KGBG 241955Z AUTO 13005KT 10SM SCT050 27/14 A3011 RMK AO2 T02690137
KGBK 241955Z AUTO 28011KT 10SM CLR 29/23 A3002 RMK A01
KGCC 241953Z AUTO 26017G25KT 10SM CLR 38/05 A2984 RMK AO2 PK WND 26027/1914 SLP036 T03780050
KGCD 241955Z AUTO 26003KT 10SM CLR 19/02 A3024 RMK AO2 T01890020
KGCK 241954Z 20015KT 10SM CLR 36/14 A3000 RMK AO2 SLP116 T03560144
KGCM 241955Z AUTO 15005KT 10SM SCT033 30/22 A3007 RMK AO2
KGCN 241954Z 17007KT 10SM OVC085 28/08 A3031 RMK AO2 SLP136 T02830083 $
KGDB 241954Z AUTO 32007KT 5SM +VCTSRA SCT032 BKN060 OVC090 20/17 A3016 RMK AO2 LTG DSNT ALQS P0010 T02010172
KGDJ 241955Z AUTO 01003KT 10SM SCT050 35/19 A3002 RMK AO2 T03460190
KGDP 241951Z AUTO 07014G19KT 8SM CLR 31/06 A3028 RMK AO2 SLP157 T03060056
KGDV 241955Z AUTO 12012G16KT 10SM CLR 31/18 A2973 RMK AO1
KGED 241954Z AUTO VRB04KT 10SM FEW047 BKN060 OVC090 24/18 A2988 RMK AO2 SLP118 T02440178
KGEG 241953Z 22018G25KT 10SM BKN065 OVC100 18/05 A3011 RMK AO2 PK WND 23029/1932 SLP192 T01780050
KGEU 241947Z 10011KT 20SM FEW180 FEW250 44/10 A2981 RMK TCU DSNT NW
KGEV 241955Z AUTO 29014KT 10SM SCT085 BKN110 26/15 A3001 RMK AO2 T02620148
KGEY 241953Z AUTO 00000KT 10SM CLR 37/03 A2980 RMK AO2 SLP038 T03720028
KGEZ 241953Z AUTO 02005KT 10SM SCT050 26/13 A3008 RMK AO2 SLP181 T02560128
KGFA 241910Z 26023G37KT 12SM FEW075 SCT100 22/04 A2993 RMK AO2 LTG DSNT N
KGFK 241953Z 17015G20KT 10SM FEW028 SCT100 BKN170 25/16 A2988 RMK AO2 PK WND 16031/1902 SLP118 T02500161
KGFL 241953Z AUTO VRB04KT 10SM BKN065 24/13 A2988 RMK AO2 SLP117 T02440133
KGGE 241955Z AUTO 19011G16KT 10SM SCT047 32/25 A2990 RMK AO2 LTG DSNT N
KGGG 241953Z VRB03KT 10SM BKN032 29/21 A3002 RMK AO2 SLP160 T02940211
KGGI 241955Z AUTO 15007KT 10SM SCT047 SCT050 25/14 A3009 RMK AO2 T02520143
KGGP 241955Z AUTO 04003KT 10SM BKN049 22/10 A3011 RMK AO2
KGGW 241953Z AUTO 17011G19KT 10SM CLR 33/14 A2968 RMK AO2 SLP031 T03280144
KGHB 241955Z AUTO 30010KT 10SM FEW020 FEW037 SCT050 32/24 A3000 RMK A01
KGHG 241955Z AUTO 02007KT 350V360 10SM CLR 21/17 A2985 RMK AO2
KGHW 241954Z AUTO 09007KT 5SM +RA OVC022 18/17 A3009 RMK AO2 P0014 LTG DSNT SE THRU SW
KGIC 241955Z AUTO 24007G15KT 10SM CLR 19/01 A3021 RMK AO1 T01910012
KGIF 241953Z AUTO 31008KT 10SM CLR 32/24 A3002 RMK AO2 SLP164 T03170239 TSNO
KGJT 241953Z 33006KT 10SM FEW036 FEW070 SCT090 31/11 A3013 RMK AO2 RAB32E47 SLP117 P0000 T03060111
KGKJ 241953Z AUTO 01008G17KT 10SM SCT044 22/10 A3005 RMK AO2 SLP171 T02170100 TSNO
KGKY 241953Z 03005KT 10SM CLR 34/16 A3001 RMK AO2 SLP150 T03440161
KGLD 241953Z AUTO 20019G30KT 10SM CLR 37/07 A2997 RMK AO2 PK WND 20031/1915 SLP094 T03720072
KGLE 241955Z AUTO 11004KT 10SM CLR 33/20 A3004 RMK AO2 T03290196
KGLH 241953Z AUTO A3000 RMK AO2 SLPNO PWINO FZRANO $
KGLR 241953Z AUTO 33004KT 10SM CLR 21/08 A3011 RMK AO2 SLP198 T02060078
KGLS 241952Z 17007KT 8SM FEW022 SCT030 31/24 A3000 RMK AO2 LTG DSNT W AND NW SLP159 T03060244
KGLW 241955Z AUTO 36009KT 10SM SCT050 27/14 A3001 RMK AO2 T02740141
KGLY 241955Z AUTO 11003KT 10SM CLR 28/14 A3011 RMK AO2
KGMJ 241955Z AUTO 19006KT 10SM BKN042 32/20 A3006 RMK AO2
KGMU 241953Z AUTO 25009KT 10SM CLR 29/20 A2992 RMK AO2 LTG DSNT N SLP119 T02940200
KGNA 241956Z AUTO 24004KT 13/10 A3004 RMK AO1 SLP174 T01330100
KGNC 241955Z AUTO 08008KT 040V100 10SM CLR 35/09 A3013 RMK AO2 T03540089
KGNF 241955Z AUTO 34008KT 10SM SCT033 SCT039 SCT045 29/21 A3000 RMK AO2
KGNR 241956Z AUTO 33010KT 21/09 A2984 RMK AO1 SLP102 T02060094
KGNT 241955Z AUTO 13007G16KT 10SM SCT090 31/05 A3032 RMK AO2 T03100050
KGNV 241953Z 26012G20KT 10SM FEW050 33/21 A2998 RMK AO2 SLP147 T03330211
KGOK 241953Z AUTO 19005KT 8SM FEW039 33/23 A3003 RMK AO2 SLP157 T03280228
KGON 241956Z 35006KT 10SM SCT070 26/18 A2981 RMK AO2 SLP092 T02610178
KGOO 241955Z AUTO 28006KT 10SM CLR 28/04 A3007 RMK AO1
KGOP 241935Z AUTO 11003KT 6SM HZ FEW050 33/19 A3004 RMK AO2
KGOV 241955Z AUTO 00000KT 10SM SCT050 22/08 A3011 RMK AO2 T02160082
KGPH 241955Z AUTO 13007G14KT 100V160 10SM CLR 26/13 A3008 RMK AO2
KGPI 241955Z 23017G22KT 10SM SCT080 18/03 A3006 RMK AO2 SLP167 T01830028
KGPM 241950Z 06010KT 10SM SKC 34/15 A3002
KGPT 241953Z 15010KT 6SM HZ FEW002 32/22 A2997 RMK AO2 SLP147 T03170222
KGPZ 241955Z AUTO 20009KT 10SM CLR 23/11 A3003 RMK AO1
KGRB 241953Z VRB03KT 10SM SCT055 24/09 A3009 RMK AO2 SLP189 T02440094
KGRD 241956Z AUTO 26005KT 9SM -TSRA FEW035 SCT060 BKN090 29/23 A2992 RMK AO2 LTG DSNT SE RAB33 TSB45 SLP124 P0002 T02890228
KGRF 241855Z 14009G18KT 10SM SCT021 19/13 A3019 RMK AO2A SLP224
KGRI 241953Z 15019G27KT 10SM CLR 29/19 A2996 RMK AO2 PK WND 15028/1935 SLP131 T02940194
KGRK 241955Z 10004KT 7SM BKN060 32/20 A3001 RMK SLP157
KGRR 241953Z VRB04KT 10SM BKN050 23/11 A3011 RMK AO2 SLP194 T02280106
KGRY 241955Z AUTO 00000KT 10SM CLR 32/23 A3002 RMK A01
KGSB 241958Z AUTO VRB01KT 9SM -RA BKN038 OVC075 24/24 A2986 RMK AO2 LTG DSNT NE AND SE-SW TSE1906B1912E1927 SLP114 P0013 T02390237 $
KGSH 241953Z AUTO 32008KT 10SM SCT050 24/11 A3010 RMK AO2 SLP190 T02390106
KGSO 241954Z 24007G16KT 10SM SCT039TCU SCT110 BKN250 31/20 A2986 RMK AO2 SLP097 TCU ALQDS T03110200 $
KGSP 241953Z 24006KT 10SM FEW070 FEW100 29/21 A2989 RMK AO2 LTG DSNT N SLP108 T02890211
KGTB 241958Z AUTO 31011KT 10SM CLR 21/09 A2998 RMK AO2 SLP151 T02090088
KGTF 241953Z 26022G36KT 10SM BKN110 21/05 A2994 RMK AO2 PK WND 24042/1941 SLP118 T02110050
KGTR 241950Z 33006KT 10SM BKN037 32/22 A2997
KGTU 241951Z VRB05KT 10SM CLR 29/23 A3001
KGUC 241955Z 01013KT 10SM FEW090 27/08 A3036 RMK AO1
KGUL 241955Z AUTO 9SM FEW026 FEW034 FEW042 31/22 A3000 RMK A01
KGUP 241953Z AUTO VRB05G18KT 10SM CLR 30/06 A3030 RMK AO2 SLP073 T03000056
KGUS 241958Z AUTO VRB04KT 10SM SCT050 24/13 A3010 RMK AO2 SLP193 T02380125
KGUY 241953Z AUTO 20014G24KT 10SM CLR 38/12 A3003 RMK AO2 SLP110 T03780117
KGVL 241953Z AUTO 25010KT 10SM FEW045 29/21 A2997 RMK AO2 SLP133 T02890211
KGVT 241935Z AUTO 04005KT 10SM CLR 32/18 A3002 RMK AO2
KGVX 241955Z AUTO 03003KT 7SM CLR 27/25 A3001 RMK A01
KGWB 241955Z AUTO 03008KT 10SM SCT050 25/07 A3010 RMK AO2
KGWO 241953Z AUTO 01007KT 10SM CLR 31/23 A2999 RMK AO2 SLP153 T03060228 TSNO
KGWR 241955Z AUTO 15022G31KT 10SM CLR 23/17 A2988 RMK A01 P000
KGWW 241955Z AUTO 20009KT 1 1/4SM +RA SCT008 BKN014 OVC022 24/23 A2989 RMK AO2 VIS 3/4V2 1/2 P0039 T02390234
KGXF 241955Z VRB04KT 10SM SCT130 SCT160 44/10 A2977 RMK SLP054
KGXY 241955Z AUTO 08005KT 10SM CLR 36/11 A3002 RMK AO1 LTG DSNT SW
KGYB 241935Z AUTO 00000KT 10SM SCT044 SCT075 32/21 A3004 RMK AO2 T03150210
KGYH 241947Z 26005KTS 10SM BKN041 29/22 A2991
KGYI 241955Z AUTO 00000KT 10SM CLR 33/18 A3003 RMK AO2 T03300183
KGYL 241954Z AUTO 23003KT 10SM TS CLR 26/13 A3008 RMK AO2 LTG DSNT SW THRU NW T02590131
KGYR 241947Z 13010KT 10SM FEW110 FEW180 SCT250 44/12 A2981 RMK CB DSNT N
KGYY 241945Z 03012KT 20SM FEW014 22/13 A3014
KGZH 241953Z AUTO 26006KT 10SM FEW070 BKN095 32/22 A2997 RMK AO2 SLP145 T03170222
KGZL 241935Z AUTO 25004KT 10SM FEW030 29/19 A3006 RMK AO2
KH21 241935Z AUTO 08007KT 10SM CLR 28/12 A3011 RMK AO2
KH78 241803Z 21010KT 12SM SCT008 BKN010 27/23 3004 RMK VCSH S AND SW SEAS 2-4
KHAE 241955Z AUTO 03004KT 10SM SCT048 26/10 A3013 RMK AO2
KHAF 241955Z AUTO 31008KT 5SM HZ CLR 20/15 A2998 RMK AO2
KHAI 241955Z AUTO 03003KT 10SM BKN050 23/12 A3010 RMK AO2 T02310118
KHAO 241953Z AUTO VRB06KT 10SM SCT055 25/13 A3007 RMK AO2 SLP177 T02500133
KHBG 241953Z AUTO 25005KT 10SM FEW045 32/21 A2998 RMK AO2 SLP147 T03220206
KHBI 241955Z AUTO 22005KT 10SM SCT038 30/21 A2989 RMK AO2 T02980207
KHBR 241953Z AUTO 19008KT 160V220 9SM FEW060 36/21 A3004 RMK AO2 SLPNO T03560206 $
KHBV 241935Z AUTO 34003KT 10SM CLR 35/17 A2996 RMK AO2 T03510166
KHCD 241952Z AUTO 26004KT 10SM BKN050 BKN120 25/16 A3012 RMK AO2 LTG DSNT S THRU W T02540159
KHCO 241953Z AUTO 13006KT 10SM CLR 24/17 A2991 RMK AO2
KHDC 241955Z AUTO 00000KT 10SM SCT043 33/19 A2999 RMK AO2
KHDE 241955Z AUTO 15020G25KT 10SM CLR 33/19 A2994 RMK AO2 T03260190
KHDN 241955Z AUTO 01005KT 10SM TS SCT070 SCT095 24/10 A3028 RMK AO1 LTG DSNT SE TSB15E30B32E51B52
KHDO 241951Z AUTO 07008KT 10SM FEW046 33/21 A3002 RMK AO2 SLP149 T03280211 $
KHEF 241945Z 34005KT 10SM OVC045 24/17 A2992
KHEI 241953Z AUTO 15012G19KT 10SM CLR 29/19 A2978 RMK AO2 SLP063 T02890189
KHEQ 241955Z AUTO 19011G16KT 10SM CLR 37/16 A2992 RMK AO2
KHEY 241953Z AUTO 26005KT 10SM VCTS SCT045 SCT060 32/20 A2996 RMK AO2 SLP032 T03170200
KHEZ 241955Z AUTO 29007KT 10SM FEW026 31/23 A3000 RMK AO1
KHFD 241953Z 01008KT 10SM CLR 27/13 A2982 RMK AO2 SLP099 T02720133
KHFF 241956Z AUTO 25005KT 12SM FEW044 FEW060 31/22 A2988 RMK AO2 LTG DSNT E-SE AND SW SLP117 T03050219
KHFJ 241935Z AUTO 17006KT 10SM SCT039 27/17 A3009 RMK AO2
KHGR 241953Z 32011KT 10SM CLR 25/12 A2994 RMK AO2 SLP141 T02500117
KHHF 241955Z AUTO 17012G15KT 160V240 10SM SCT085 38/16 A3002 RMK AO2 T03750159
KHHG 241935Z AUTO 05006KT 10SM CLR 24/10 A3009 RMK AO2 T02350102
KHHR 241953Z 25009KT 10SM CLR 28/17 A2982 RMK AO2 SLP097 T02780167
KHHV 241955Z AUTO 02005KT 10SM CLR 30/24 A3001 RMK A01
KHHW 241955Z AUTO 10003KT 10SM CLR 32/20 A3003 RMK AO2 T03150202
KHIB 241953Z AUTO 25005KT 10SM FEW055 25/11 A3003 RMK AO2 SLP172 T02500106
KHIE 241952Z AUTO 31008KT 10SM BKN055 23/11 A2989 RMK AO2 SLP120 T02280106
KHIF 241958Z AUTO 29008KT 10SM CLR 32/05 A3009 RMK AO2 SLP112 T03160052
KHII 241930Z AUTO 00000KT 10SM CLR 43/10 A2976 RMK AO2
KHIO 241953Z 00000KT 10SM OVC049 19/11 A3026 RMK AO2 SLP244 T01940111
KHJH 241955Z AUTO 16015G21KT 10SM CLR 30/17 A2999 RMK AO2 T03010166
KHJO 241953Z AUTO 28009KT 10SM FEW110 32/11 A2991 RMK AO2 SLP126 T03170111
KHKA 241953Z AUTO 01013KT 10SM FEW035 26/18 A3005 RMK AO2 SLP174 T02610178
KHKS 241953Z 29004KT 10SM SCT075 32/22 A2998 RMK AO2 SLP143 T03220222
KHKY 241953Z 01005KT 10SM FEW042 BKN060 29/21 A2989 RMK AO2 TSE01 SLP098 T02940211
KHLC 241954Z AUTO 17015G23KT 10SM 37/19 A2993 RMK AO2 SLP107 T03720194 $
KHLG 241953Z 01008KT 10SM FEW049 BKN060 23/11 A3001 RMK AO2 SLP157 T02280111
KHLN 241953Z 27027G35KT 10SM CLR 21/06 A3000 RMK AO2 PK WND 28039/1900 SLP149 T02110061
KHLR 241956Z 00000KT 10SM SCT050 BKN065 34/21 A3001 RMK AO2 SLPNO T03390206 $
KHLX 241955Z AUTO 18008KT 4SM +VCTSRA SCT042 SCT060 BKN070 24/20 A2997 RMK AO2 LTG DSNT NE THRU S P0004 T02350203
KHMN 241958Z AUTO 20003G14KT 10SM CLR 36/07 A3013 RMK AO2 SLP124 T03570069 $
KHNB 241955Z AUTO 05013KT 10SM BKN050 26/15 A3006 RMK AO1
KHND 241956Z 26011G19KT 10SM CLR 42/01 A2988 RMK AO2 T04220005 SLP082
KHNR 241955Z AUTO 09010KT 9SM BKN120 24/16 A3014 RMK AO2
KHNZ 241955Z AUTO 00000KT 10SM SCT028 SCT035 SCT043 29/20 A2987 RMK AO2 T02850203
KHOB 241950Z 05005G10KT 10SM SKC 35/09 A3015
KHOE 241955Z AUTO 27008KT 10SM SCT048 SCT050 BKN075 34/22 A2996 RMK AO2
KHON 241955Z AUTO 11017G24KT 10SM BKN047 26/19 A2989 RMK AO2 PK WND 13028/1924 SLP114 T02560189
KHOP 241958Z AUTO 01009KT 10SM FEW042 27/16 A3003 RMK AO2 SLP166 T02710160
KHOT 241953Z AUTO 20005KT 3SM HZ FEW022 BKN027 28/22 A3006 RMK AO2 SLP173 T02780217
KHOU 241953Z 00000KT 10SM SCT040 33/22 A2997 RMK AO2 SLP153 CB S-SW T03280217
KHPN 241956Z 01009KT 10SM SCT048 26/13 A2986 RMK AO2 SLP104 T02560133
KHQI 241955Z AUTO 32013KT M1/4SM HZ VV000 28/23 A3001 RMK A01
KHQM 241953Z AUTO 26013G18KT 7SM FEW018 BKN023 OVC041 17/12 A3025 RMK AO2 SLP246 T01670122
KHQU 241935Z AUTO 21007KT 10SM SCT046 SCT060 34/25 A2996 RMK AO1 T03360247
KHQZ 241950Z 06005KT 10SM CLR 33/16 A3001
KHRI 241953Z AUTO 26012G21KT 10SM CLR 24/06 A3015 RMK AO2 SLP206 T02440061
KHRJ 241955Z AUTO 31003KT 10SM SCT065 SCT090 32/21 A2985 RMK AO2 T03200214
KHRL 241952Z 09010G16KT 10SM FEW055 SCT095 37/22 A2992 RMK AO2 SLP131 T03670222
KHRO 241953Z AUTO 21004KT 10SM CLR 27/17 A3011 RMK AO2 SLP180 T02670172
KHRT 241958Z AUTO 20009KT 10SM CLR 30/21 A2998 RMK AO2 SLP154 T03010206 $
KHRX 241955Z AUTO 14009KT 10SM CLR 34/15 A3017 RMK AO2 T03420150
KHSA 241954Z 12004KT 7SM SCT030 A2998
KHSB 241955Z AUTO 04006KT 010V070 10SM SCT048 25/15 A3009 RMK AO2 T02510146
KHSE 241951Z AUTO 24005KT 7SM -RA FEW055 SCT110 24/23 A2989 RMK AO2 SLP120 P0010 T02390228 TSNO
KHSI 241953Z AUTO 16014G25KT 10SM CLR 31/18 A2997 RMK AO2 PK WND 16026/1922 SLP132 T03060178
KHSP 241955Z AUTO 36007KT 10SM SCT006 SCT025 SCT100 18/16 A3004 RMK AO2 LTG DSNT S AND SW P0001 T01800164
KHST 241958Z AUTO 25007KT 10SM -DZ FEW034 29/23 A3004 RMK AO2 LTG DSNT SW DZB1902E1903B1954 SLP176 P0000 $
KHSV 241953Z 25004KT 10SM SCT033 28/20 A2998 RMK AO2 SLP143 T02830200
KHTL 241953Z AUTO 24007KT 10SM FEW055 22/08 A3010 RMK AO2 SLP195 T02170083
KHTO 241950Z VRB04KT 10SM FEW070 25/18 A2984
KHTS 241951Z VRB03KT 10SM SCT026 BKN050 22/17 A3000 RMK AO2 SLP151 T02220167
KHUA 241950Z 28004KT 7SM SCT032 29/21 A2999 RMK LAST
KHUF 241953Z 01008KT 10SM FEW045 25/14 A3008 RMK AO2 SLP183 T02500139
KHUL 241953Z AUTO 33007KT 10SM CLR 23/08 A2979 RMK AO2 SLP088 T02280083
KHUM 241950Z 28005KT 7SM SCT045 33/18 A2997 RMK ATIS N VA/RY30 ST RMK: RY18/36 CLSD
KHUT 241952Z 14013G23KT 10SM CLR 33/19 A3002 RMK AO2 SLP140 T03330189
KHVN 241953Z VRB05KT 10SM BKN045 27/16 A2982 RMK AO2 SLP099 T02720161
KHVR 241953Z AUTO 30017G25KT 10SM SCT070 BKN100 28/11 A2980 RMK AO2 PK WND 29026/1859 LTG DSNT SW SLP072 T02780106
KHVS 241955Z AUTO 00000KT 10SM VCTS CLR 31/11 A2988 RMK AO2 LTG DSNT W AND NW
KHWD 241954Z 28009KT 10SM CLR 26/14 A2995 RMK AO2 SLP150 T02610144
KHWO 241953Z 25003KT 10SM VCTS CLR 30/23 A3004 RMK AO2 TSB1856E12 SLP173 T03000228
KHWV 241956Z AUTO 35008KT 10SM CLR 27/16 A2984 RMK AO2 SLP103 T02670156 TSNO
KHWY 241955Z AUTO 00000KT 7SM -RA SCT030 BKN037 OVC080 22/22 A2992 RMK AO2 P0003 T02190219
KHXD 241950Z 17006KT 10SM SCT045 33/26 A2994
KHYA 241956Z 01009KT 10SM BKN007 OVC060 21/18 A2982 RMK AO2 RAB34E44 SLP098 P0000 T02060178
KHYI 241953Z 02003KT 10SM SCT055 BKN065 33/20 A3000
KHYR 241953Z AUTO 19008KT 10SM BKN060 24/10 A3007 RMK AO2 SLP181 T02440100
KHYS 241955Z AUTO 18019G24KT 10SM CLR 23/20 A2997 RMK AO1
KHYW 241955Z AUTO 22008KT 190V250 CLR 33/21 A2987 RMK AO2 PWINO
KHYX 241954Z AUTO 02004KT 10SM SCT050 22/08 A3009 RMK AO2
KHZE 241955Z AUTO 15013G20KT 10SM FEW029 25/18 A2980 RMK AO2 LTG DSNT W
KHZL 241955Z AUTO 34010KT 10SM BKN048 22/11 A2998 RMK AO2
KHZR 241955Z AUTO 35006KT 10SM CLR 31/22 A2998 RMK AO2 T03110221
KHZX 241945Z AUTO 23007KT 10SM CLR 24/12 A3006 RMK AO2
KHZY 241953Z AUTO 34007KT 10SM CLR 21/09 A3007 RMK AO2 SLP180 T02060094
KI16 241935Z AUTO 10SM BKN017 BKN021 OVC040 25/21 A3002 RMK AO2 T02520213
KI35 241955Z AUTO 10SM OVC013 22/19 A3001 RMK AO1
KI39 241955Z AUTO 02007KT 315V045 10SM BKN041 22/15 A3004 RMK AO2
KI69 241954Z AUTO 02006KT 10SM BKN050 23/12 A3005 RMK AO1
KI75 241955Z AUTO 17008KT 10SM BKN044 27/15 A3009 RMK AO2 T02680148
KIAB 241958Z AUTO 12009KT 10SM CLR 31/20 A3004 RMK AO2 SLP161 T03130196 PNO
KIAD 241952Z VRB06KT 10SM SCT034 BKN045 OVC200 24/16 A2991 RMK AO2 SLP127 T02440161
KIAG 241953Z 03008KT 10SM FEW050 22/08 A3003 RMK AO2 SLP169 T02170078
KIAH 241953Z 36005KT 10SM SCT040 34/23 A2998 RMK AO2 SLP150 T03390228
KIBM 241955Z AUTO 16008G16KT 10SM -VCTSRA BKN120 30/08 A3000 RMK AO2 LTG DSNT E THRU SW T03010076
KICL 241955Z AUTO 19013G19KT 10SM CLR 26/17 A3005 RMK AO2
KICR 241953Z AUTO 17019G29KT 10SM CLR 36/19 A2977 RMK AO2 PK WND 16031/1943 SLP057 T03610194
KICT 241953Z 13012G17KT 10SM FEW120 31/20 A3003 RMK AO2 SLP152 T03110200
KIDA 241953Z 21024G32KT 10SM FU CLR 27/03 A3011 RMK AO2 PK WND 22034/1922 SLP146 T02720033
KIDI 241955Z AUTO 36007KT 330V030 10SM FEW044 BKN060 23/12 A3004 RMK A01
KIDP 241955Z AUTO 13008KT 10SM CLR 30/18 A3005 RMK AO2
KIEN 241952Z AUTO 23008KT 10SM CLR 37/14 A2981 RMK AO2 SLP051 T03670139
KIER 241955Z AUTO 27006KT 10SM CLR 31/23 A3001 RMK AO2 T03100225
KIFA 241955Z AUTO 17008KT 10SM CLR 24/15 A3010 RMK AO2 T02370152
KIFP 241955Z AUTO 21012G27KT 10SM CLR 44/08 A2975 RMK AO2
KIGM 241951Z AUTO 25009G17KT 200V310 10SM CLR 39/05 A3000 RMK AO2 SLP075 T03890050
KIGQ 241955Z AUTO 04005KT 10SM CLR 22/11 A3013 RMK AO2 T02160108
KIGX 241956Z AUTO 00000KT 10SM SCT041 BKN050 OVC060 30/21 A2986 RMK AO2 SLP103 T03000206
KIIB 241955Z AUTO 18006KT 10SM SCT050 25/13 A3007 RMK AO2
KIIY 241955Z AUTO 26006KT 10SM CLR 33/24 A2992 RMK AO2
KIJD 241952Z AUTO 33007KT 10SM FEW060 27/15 A2983 RMK AO2 SLP097 T02670150
KIJX 241935Z AUTO 36005G15KT 10SM CLR 26/13 A3014 RMK AO2 T02570130
KIKK 241935Z AUTO 05007KT 10SM CLR 23/13 A3012 RMK AO2 T02340125
KIKT 241955Z AUTO VRB07KT 10SM CLR 32/23 A2999 RMK A01
KIKV 241955Z AUTO 17008G13KT 10SM FEW046 26/15 A3008 RMK AO2
KIKW 241954Z AUTO 33004KT 10SM SCT060 23/08 A3010 RMK AO2 T02310075
KILE 241955Z AUTO 05006KT 10SM FEW048 SCT055 SCT070 32/20 A3000 RMK AO1
KILG 241951Z 31009KT 10SM SCT055 28/16 A2988 RMK AO2 SLP116 T02780156
KILM 241953Z AUTO 21008KT 10SM FEW039 SCT049 33/24 A2985 RMK AO2 SLP107 T03280244
KILN 241954Z AUTO 01011G17KT 10SM BKN050 24/12 A3005 RMK AO2 SLP171 T02390122
KIML 241953Z AUTO 22013G19KT 10SM CLR 40/07 A2990 RMK AO2 SLP078 T04000072
KIMM 241955Z AUTO 00000KT 9SM CLR 30/27 A3003 RMK A01 P000
KIMT 241954Z AUTO 29006KT 10SM FEW055 24/09 A3005 RMK AO2 SLP179 T02390089
KIND 241954Z 02009G15KT 10SM SCT055 24/11 A3009 RMK AO2 SLP185 T02440106
KINF 241955Z AUTO 00000KT 7SM SCT044 31/22 A3001 RMK AO2
KINJ 241955Z AUTO 09006KT 10SM CLR 35/17 A3001 RMK AO2 T03460174
KINK 241953Z AUTO 12008KT 10SM CLR 37/09 A3006 RMK AO2 SLP124 T03720094
KINL 241955Z AUTO 14005KT 10SM CLR 24/12 A2998 RMK AO2 SLP153 T02390117
KINS 241858Z AUTO 13007KT 10SM CLR 38/M05 A2996 RMK AO2 SLP085 T03791052 $
KINT 241954Z AUTO 26009KT 210V300 10SM FEW036 FEW046 31/18 A2988 RMK AO2 SLP104 T03060183
KINW 241956Z AUTO VRB04KT 10SM CLR 35/06 A3016 RMK AO2 SLP121 T03500056
KIOB 241955Z AUTO 05008KT 10SM SCT027 OVC048 22/16 A3005 RMK AO2
KIOW 241952Z AUTO 14007KT 10SM SCT045 SCT050 24/16 A3009 RMK AO2 PRESFR SLP186 T02440156
KIPJ 241955Z AUTO 26006KT 10SM CLR 31/19 A2988 RMK AO2 T03110194
KIPL 241953Z AUTO 12007KT 090V150 10SM CLR 44/08 A2969 RMK AO2 SLP055 T04390078
KIPN 241955Z AUTO 22006KT 10SM CLR 29/23 A3002 RMK A01
KIPT 241954Z 32008KT 10SM BKN060 25/09 A2994 RMK AO2 SLP135 T02500094
KIRK 241955Z AUTO 15007KT 10SM FEW042 24/16 A3011 RMK AO2 SLP197 T02440156
KIRS 241955Z AUTO 04005KT 10SM SCT050 22/12 A3010 RMK AO2
KISM 241850Z 12005KT 10SM BKN040 33/25 A3002
KISN 241952Z AUTO 14016G27KT 10SM CLR 28/18 A2969 RMK AO2 PK WND 15028/1941 SLP039 T02830178
KISO 241856Z AUTO 00000KT 7SM -RA SCT006 SCT013 26/24 A2988 RMK AO2
KISP 241956Z 35008KT 10SM FEW045 BKN250 27/15 A2982 RMK AO2 SLP097 T02670150
KISQ 241954Z AUTO 21010G16KT 10SM CLR 20/12 A3007 RMK AO2 T02020117
KISW 241954Z AUTO VRB04KT 10SM CLR 26/09 A3009 RMK AO2 SLP186 T02560094
KITH 241956Z 32012KT 10SM SCT040 20/10 A3002 RMK AO2 T02000100 SLP161
KITR 241953Z AUTO 20019G24KT 10SM CLR 37/04 A3001 RMK AO2 PK WND 18029/1903 SLP090 T03720044
KIWA 241850Z 17006KT 35SM FEW120 SCT250 42/06 A2986
KIWD 241715Z AUTO 28005KT 10SM FEW049 22/11 A3009 RMK AO1
KIWI 241953Z AUTO 00000KT 10SM SCT049 OVC070 24/14 A2982 RMK AO2 SLP096 T02440144
KIXA 241955Z AUTO 02003KT 10SM SCT035 31/21 A2986 RMK AO2
KIXD 241953Z 13009KT 10SM CLR 28/14 A3009 RMK AO2 SLP179 T02780144
KIYA 241935Z AUTO 27012G16KT 10SM OVC044 27/23 A3000 RMK AO2 T02650227
KIZG 241954Z AUTO 33006KT 10SM SCT055 BKN070 24/13 A2984 RMK AO2 SLP104 T02390128
KJAC 241951Z 22010KT 10SM CLR 27/M01 A3016
KJAN 241954Z VRB04KT 10SM SCT035 BKN080 33/23 A2997 RMK AO2 SLP144 T03330228
KJAS 241955Z AUTO 30003KT 10SM CLR 31/20 A3003 RMK AO2 T03090196
KJAX 241956Z 24008KT 10SM BKN040 BKN250 34/21 A2995 RMK AO2 SLP143 T03390211 $
KJBR 241953Z AUTO 05010KT 10SM CLR 27/14 A3005 RMK AO2 SLP174 T02670139
KJCT 241951Z AUTO 13007KT 10SM CLR 34/16 A3003 RMK AO2 SLP128 T03440156
KJDD 241955Z AUTO 04003KT 10SM SCT034 31/22 A3003 RMK AO2
KJDN 241948Z AUTO 20010G14KT 170V230 34/13 A2969 RMK AO1 SLP027 T03440133
KJEF 241953Z VRB03KT 10SM FEW055 26/13 A3010 RMK AO2 SLP180 T02610128
KJER 241953Z AUTO 25016KT 10SM CLR 22/04 A3019 RMK AO2 PK WND 25026/1927 SLP186 T02220044
KJFK 241951Z 35012G16KT 10SM SCT046 SCT065 BKN260 28/14 A2985 RMK AO2 SLP108 T02780139
KJFX 241955Z AUTO 31009KT 8SM FEW036 32/22 A2997 RMK A02 P-128
KJFZ 241955Z AUTO 20003KT 10SM -VCTSRA BKN010 BKN021 OVC040 21/19 A3003 RMK AO2 LTG DSNT ALQS T02100189
KJGG 241955Z AUTO 00000KT 7SM SCT017 SCT032 SCT060 26/24 A2987 RMK AO1 P0007
KJHW 241955Z AUTO 36010KT 10SM SCT037 18/11 A3005 RMK AO1
KJKA 241955Z AUTO 21006KT 10SM CLR 30/24 A2998 RMK AO2 T03020235
KJKJ 241955Z AUTO 16007KT 10SM CLR 22/17 A2991 RMK AO2
KJKL 241953Z AUTO 00000KT 8SM BKN011 BKN019 OVC030 20/17 A3003 RMK AO2 SLP159 T02000167
KJLN 241953Z VRB04KT 10SM CLR 30/17 A3007 RMK AO2 SLP171 T03000167
KJMR 241953Z AUTO 26006KT 10SM SCT050 24/12 A3008 RMK AO2
KJMS 241956Z AUTO 15016G24KT 10SM CLR 24/17 A2985 RMK AO2 PK WND 15027/1905 SLP103 T02440167
KJNX 241954Z AUTO 00000KT 10SM VCTS SCT035 SCT065 BKN110 31/25 A2985 RMK AO2 LTG DSNT E AND SE
KJOT 241935Z AUTO 09003KT 10SM CLR 23/08 A3013 RMK AO2 T02330077
KJQF 241951Z 20008KT 10SM SCT048 BKN075 31/21 A2991
KJSO 241955Z AUTO 02004KT 10SM CLR 30/20 A3005 RMK AO2 T03040199
KJST 241954Z AUTO 36009KT 10SM BKN055 19/10 A3002 RMK AO2 SLP156 T01940100
KJSV 241955Z AUTO 14003KT 10SM BKN029 29/21 A3006 RMK AO2
KJTC 241955Z AUTO 12004KT 110V200 10SM CLR 28/04 A3037 RMK AO2
KJVL 241945Z 11005KT 10SM BKN050 24/09 A3011
KJVW 241935Z AUTO 31007KT 10SM CLR 32/29 A2999 RMK AO2
KJWG 241955Z AUTO 21004KT 10SM CLR 34/23 A3004 RMK AO2 T03400225
KJWY 241955Z AUTO 00000KT 10SM CLR 34/15 A3002 RMK AO2 T03350146
KJXI 241935Z AUTO 08007KT 10SM SCT028 29/23 A3005 RMK AO2
KJXN 241956Z VRB05KT 10SM SCT050 23/11 A3010 RMK AO2 SLP191 T02330106
KJYG 241954Z AUTO 20005KT 10SM CLR 24/14 A3009 RMK AO2 LTG DSNT SW THRU N
KJYL 241955Z AUTO 27007G15KT 10SM SCT055 33/23 A2993 RMK AO2 T03300231
KJYM 241955Z AUTO 36006KT 10SM SCT050 22/09 A3011 RMK AO2 T02240090
KJYO 241955Z AUTO 36006KT 10SM BKN055 25/18 A2993 RMK AO2
KJYR 241955Z AUTO 15018G25KT 10SM CLR 29/19 A2998 RMK AO2
KJZI 242015Z AUTO 20013G17KT 10SM CLR 32/22 A2992 RMK A02 P000
KKLS 241955Z AUTO 15005KT 10SM SCT042 BKN049 OVC070 19/13 A3028 RMK AO1
KL18 241955Z AUTO 21007KT 10SM CLR 33/16 A2983 RMK AO2
KL35 241955Z AUTO 25011G17KT 10SM CLR 27/03 A3028 RMK AO2
KL38 241955Z AUTO 00000KT 10SM SCT065 32/22 A2997 RMK AO2 T03170216
KLAA 241953Z AUTO 23016G22KT 9SM CLR 38/05 A2997 RMK AO2 SLP084 T03830050
KLAF 241954Z VRB06KT 10SM FEW050 24/11 A3009 RMK AO2 SLP188 T02390111
KLAL 241950Z 00000KT 15SM FEW026 32/22 A3002
KLAM 241955Z AUTO 17017G21KT 10SM SCT090 27/06 A3037 RMK AO2 T02700059
KLAN 241953Z 11004KT 10SM SCT055 22/09 A3011 RMK AO2 SLP193 T02220094
KLAR 241953Z AUTO 25017G25KT 10SM CLR 26/06 A3026 RMK AO2 PK WND 24031/1940 SLP118 T02560061
KLAS 241956Z 19015G21KT 10SM FEW150 43/M01 A2981 RMK AO2 SLP060 T04281006
KLAW 241953Z VRB03KT 10SM FEW055 35/20 A3002 RMK AO2 SLP150 T03500200
KLAX 241953Z 26010KT 10SM FEW250 27/16 A2983 RMK AO2 SLP099 T02670161
KLBB 241953Z VRB05KT 10SM FEW080 35/14 A3013 RMK AO2 SLP145 T03500144
KLBE 241950Z 36007KT 20SM SCT060 24/17 A3000
KLBF 241953Z AUTO 15012G20KT 10SM CLR 36/21 A2988 RMK AO2 SLP087 T03560206
KLBL 241955Z AUTO 19015G22KT 10SM CLR 38/13 A3004 RMK AO1 WSHFT 04
KLBR 241955Z AUTO 06004KT 7SM SCT032 31/21 A3003 RMK AO1 T03090206
KLBT 241954Z AUTO 32017G21KT 10SM TS SCT049 30/23 A2986 RMK AO2 LTG DSNT ALQDS TSB28 SLP109 T03000228
KLBX 241953Z AUTO 02007KT 10SM VCTS -RA FEW060 25/22 A3001 RMK AO2 LTG DSNT NW-NE RAB07 TSE1855 SLP161 P0000 T02500222
KLCG 241955Z AUTO 14019G23KT 10SM CLR 29/18 A2998 RMK AO2 LTG DSNT NE T02880184
KLCH 241953Z 31006KT 7SM SCT036 BKN110 33/23 A2998 RMK AO2 LTG DSNT SE SLP158 T03280228
KLCI 241955Z AUTO 29010KT 10SM CLR 25/12 A2983 RMK AO1
KLCK 241955Z AUTO 05008G14KT 10SM SCT050 BKN065 25/09 A3002 RMK AO2 T02470088
KLDJ 241955Z AUTO 36008KT 10SM BKN050 28/15 A2987 RMK AO2 T02810154
KLDM 241955Z AUTO 30007KT 10SM CLR 21/07 A3012 RMK AO2 T02080073
KLEB 241953Z 32011G16KT 10SM BKN050 BKN055 24/10 A2987 RMK AO2 SLP106 T02440100 $
KLEE 241953Z 22006KT 10SM CLR 33/22 A3001 RMK AO2 LTG DSNT SE AND S SLP160 T03280217
KLEW 241955Z AUTO 32010KT 10SM FEW050 SCT070 24/13 A2983 RMK AO1
KLEX 241954Z 05008KT 10SM SCT041 26/14 A3004 RMK AO2 SLP165 T02560139
KLFI 241958Z AUTO 09009KT 10SM SCT019 BKN028 27/23 A2986 RMK AO2 BKN V SCT CIG 023 RWY26 SLP118 T02690230 $
KLFK 241953Z AUTO VRB03KT 10SM FEW045 33/20 A3001 RMK AO2 SLP158 T03330200
KLFT 241953Z 26008KT 10SM VCTS FEW050 30/23 A2998 RMK AO2 LTG DSNT S AND SW SLP150 T03000233
KLGA 241851Z 03007KT 10SM SCT070 BKN250 26/15 A2985 RMK AO2 SLP107 T02610150
KLGB 241953Z 18009KT 10SM CLR 29/17 A2981 RMK AO2 SLP095 T02890167 $
KLGC 241955Z AUTO 26006KT 10SM SCT038 SCT043 SCT050 33/24 A2996 RMK AO2 T03260237
KLGD 241955Z AUTO 34005KT 10SM CLR 19/02 A3020 RMK AO1
KLGU 241951Z AUTO 34003KT 10SM CLR 32/03 A3006 RMK AO2 SLPNO T03170028
KLHB 241935Z AUTO 03004KT 5SM HZ SCT046 BKN060 43/34 A3000 RMK AO2 T04330342
KLHM 241955Z AUTO 32010KT 10SM CLR 32/08 A2991 RMK AO1
KLHQ 241953Z AUTO 01007KT 10SM BKN060 24/13 A3003 RMK AO2 SLP163 T02440128
KLHW 241958Z AUTO 22012KT 10SM SCT050 34/21 A2992 RMK AO2 SLP134 T03380213
KLHX 241953Z AUTO 17009G17KT 10SM CLR 37/07 A3002 RMK AO2 PK WND 17027/1917 SLP086 T03670072
KLHZ 241935Z AUTO 00000KT 10SM SCT032 SCT040 SCT046 29/22 A2988 RMK AO2
KLIC 241955Z AUTO 18015G23KT 10SM CLR 35/08 A3007 RMK AO2 SLP087 T03500083
KLIT 241953Z 06007KT 10SM SCT032 29/19 A3005 RMK AO2 SLP175 T02890189
KLJF 241953Z AUTO 30005KT 10SM BKN050 BKN070 BKN100 25/15 A3013 RMK AO2 LTG DSNT SW AND W
KLKR 241955Z AUTO 00000KT 10SM VCTS FEW038 SCT044 31/24 A2988 RMK AO2 LTG DSNT NE-SE
KLKU 241955Z AUTO 02004KT 7SM RA BKN022 OVC028 20/18 A2992 RMK AO2 P0016
KLKV 241955Z AUTO 36013KT 10SM CLR 21/M04 A3024 RMK AO1
KLLJ 241955Z AUTO 28009KT 10SM CLR 25/M12 A3009 RMK AO2 WSHFT 1933 SLP124 T02501122
KLLQ 241953Z AUTO VRB06KT 10SM SCT025 BKN033 29/22 A3002 RMK AO2 SLP163 T02940222
KLMO 241954Z AUTO 15004KT 10SM -RA SCT120 36/05 A3005 RMK AO2 T03600054
KLMT 241953Z 00000KT 10SM CLR 20/M01 A3023 RMK AO2 SLP209 T02001011
KLNC 241955Z AUTO 08004KT 10SM CLR 33/17 A3002 RMK AO2 T03340165
KLND 241953Z AUTO 21020G28KT 10SM CLR 35/02 A3002 RMK AO2 PK WND 20029/1907 SLP069 T03500017 TSNO
KLNK 241954Z AUTO 16021KT 10SM CLR 31/17 A2999 RMK AO2 PK WND 17028/1858 SLP142 T03060167
KLNL 241935Z AUTO 24005KT 10SM CLR 23/08 A3010 RMK AO2 T02310084
KLNP 241955Z AUTO 33007KT 10SM OVC007 20/19 A3005 RMK AO2
KLNR 241956Z AUTO VRB03KT 10SM FEW060 28/13 A3007 RMK AO2 SLP175 T02780128
KLNS 241953Z 34011KT 10SM SCT060 26/14 A2990 RMK AO2 SLP123 T02610144
KLOL 241953Z AUTO 10006KT 10SM CLR 28/01 A3010 RMK AO2 SLP154 T02780011
KLOM 241955Z AUTO 36003KT 10SM BKN050 27/15 A2986 RMK AO1
KLOR 241953Z AUTO 29009KT 10SM FEW042 SCT070 SCT090 33/21 A2995 RMK AO2 SLP138 T03280211 TSNO $
KLOT 241935Z AUTO 03006KT 10SM CLR 24/08 A3012 RMK AO2 T02400078 TSNO
KLOU 241953Z AUTO 01008KT 10SM BKN049 25/12 A3005 RMK AO2 SLP173 T02500117
KLOZ 241953Z AUTO 01008KT 10SM BKN015 OVC022 22/17 A3003 RMK AO2 SLP158 T02170172
KLPC 241955Z AUTO 25016G21KT 10SM 22/14 A2990 RMK AO1
KLPR 241953Z AUTO 03011G19KT 10SM CLR 23/09 A3008 RMK AO2 SLP183 T02330089 TSNO
KLQK 241955Z AUTO 21014G17KT 10SM CLR 29/29 A2992 RMK AO2 T02930293
KLRD 241956Z 07007KT 050V110 10SM CLR 38/18 A2996 RMK AO2 T03830183 SLP130
KLRF 241858Z VRB01KT 10SM CLR 28/19 A3007 RMK AO2A SLP183 $
KLRJ 241955Z AUTO 17020G29KT 10SM CLR 23/17 A2995 RMK AO2
KLRO 241955Z AUTO 20012G16KT 7SM CLR 32/24 A2990 RMK AO2
KLRU 241955Z AUTO 10009KT 10SM CLR 34/06 A3019 RMK AO2 T03440061
KLSB 241955Z AUTO 10012G23KT 070V130 10SM CLR 34/07 A3015 RMK AO2
KLSE 241953Z 21007KT 10SM CLR 27/12 A3005 RMK AO2 SLPNO T02720117
KLSF 241958Z AUTO VRB06KT 10SM CLR 32/20 A2994 RMK AO2 SLP139 T03180201
KLSV 241958Z AUTO 24012G15KT 10SM FEW150 43/00 A2982 RMK AO2 SLP065 T04250003 $
KLTS 241858Z AUTO 18006KT 10SM CLR 33/22 A3005 RMK AO2 SLP158 T03340223 $
KLUA 241955Z AUTO 00000KT 7SM RA SCT005 SCT012 OVC036 20/20 A2995 RMK AO2 P0007
KLUD 241955Z AUTO 05007KT 10SM CLR 33/20 A3004 RMK AO2 T03260199
KLUF 241858Z AUTO 13009G16KT 10SM CLR 43/12 A2981 RMK AO2 SLP076 T04270123 $
KLUK 241953Z 05008KT 10SM SCT050 BKN060 25/14 A3005 RMK AO2 SLP173 T02500139
KLUM 241955Z AUTO 13004KT 10SM SCT050 27/09 A3005 RMK AO2 LTG DSNT W T02650094
KLUX 241935Z AUTO 23011G19KT 10SM SCT043 SCT055 SCT070 32/19 A2991 RMK AO2 LTG DSNT N
KLVJ 241953Z AUTO 19008KT 6SM -TSRA FEW016 BKN033 OVC070 26/23 A3000 RMK AO2 LTG DSNT SE-W RAB30 TSB24 SLP158 P0002 T02610233
KLVK 241953Z VRB04KT 10SM CLR 31/12 A2993 RMK AO2 SLP130 T03110117
KLVM 241953Z AUTO 29019G27KT 10SM CLR 30/06 A2987 RMK AO2 PK WND 27032/1901 SLP062 T03000056
KLVN 241953Z AUTO 18008KT 10SM SCT060 26/14 A3006 RMK AO2 LTG DSNT W
KLVS 241953Z AUTO 23016G22KT 10SM CLR 30/05 A3033 RMK AO2 SLP149 T03000050
KLWA 241955Z AUTO 34012G18KT 10SM CLR 20/12 A3012 RMK AO2 T01970123
KLWB 241935Z AUTO 03003KT 10SM SCT033 SCT039 BKN085 24/19 A2997 RMK AO2 T02350185
KLWC 241952Z AUTO 14011G15KT 10SM CLR 30/17 A3007 RMK AO2 SLP173 T03000167
KLWD 241953Z AUTO 18011G20KT 10SM CLR 24/14 A3009 RMK AO2 SLP184 T02440144
KLWM 241954Z AUTO VRB04KT 10SM CLR 24/18 A2985 RMK AO2 SLP106 T02390178
KLWS 241956Z 29007KT 10SM FEW075 23/04 A3013 RMK AO2 SLP194 T02280044
KLWT 241954Z AUTO 33008G16KT 10SM CLR 28/12 A2988 RMK AO2 SLP074 T02780122
KLWV 241953Z AUTO 04007KT 9SM FEW043 FEW060 25/14 A3007 RMK AO2 SLP182 T02500144
KLXL 241958Z AUTO 24006KT 10SM SCT055 23/12 A3011 RMK AO2
KLXN 241955Z AUTO 16021G26KT 10SM CLR 33/21 A2992 RMK AO2 T03270211
KLXT 241953Z AUTO 14007KT 10SM CLR 27/15 A3010 RMK AO2 SLP186 T02720150
KLXV 241953Z AUTO 32009G18KT 10SM FEW065 22/04 A3052 RMK AO2 SLP153 T02170044
KLXY 241955Z AUTO 00000KT 10SM CLR 33/21 A3000 RMK AO2 T03270208
KLYH 241954Z 35005KT 7SM R04/3500VP6000FT +TSRA BKN020 22/20 A2992 RMK AO2 TSB26RAB05 SLP122 P0118 T02170200
KLYV 241955Z AUTO 11012KT 10SM TS OVC110 20/15 A3002 RMK AO2 LTG DSNT N THRU SE
KLZU 241945Z 22013KT 10SM BKN039 27/19 A2996 RMK ATIS B, RWY 25 JW
KLZZ 241955Z AUTO 04006KT 10SM CLR 34/21 A3001 RMK AO2 T03400213
KM19 241956Z AUTO 03008KT 10SM CLR 27/17 A3007 RMK AO2 T02660166 SLP181
KM25 241955Z AUTO 03004KT 10SM SCT039 SCT045 BKN050 25/16 A3006 RMK AO2
KM30 241935Z AUTO 03006KT 10SM SCT039 BKN048 26/14 A3006 RMK AO2 T02580143
KM40 242015Z AUTO 32007KT 7SM FEW034 33/23 A2999 RMK AO2
KM63 241956Z AUTO VRB05G14KT 4SM FEW100 33/06 A3015 RMK AO2 SLP129 T03330057
KMAE 241953Z AUTO 30006KT 10SM CLR 31/13 A2992 RMK AO2 SLP129 T03060133
KMAF 241953Z 19005KT 10SM CLR 36/12 A3009 RMK AO2 SLP134 T03560122
KMAI 241953Z AUTO 22006KT 10SM CLR 29/24 A2997 RMK AO2 LTG DSNT NW SLP147 T02890244
KMAN 241935Z AUTO 02008KT 10SM CLR 20/00 A3020 RMK AO1
KMAO 241955Z AUTO 29009KT 7SM -RA SCT035 SCT042 BKN070 31/22 A2987 RMK AO2 LTG DSNT N P0003
KMBG 241952Z AUTO 16017G23KT 10SM BKN039 28/19 A2976 RMK AO2 PK WND 16026/1902 SLP065 T02780194
KMBL 241955Z AUTO 30009KT 10SM CLR 20/06 A3013 RMK AO1
KMBS 241953Z 00000KT 10SM SCT060 22/09 A3010 RMK AO2 SLP193 T02220089
KMCB 241953Z AUTO 00000KT 10SM BKN042 31/20 A2998 RMK AO2 SLP147 T03110200
KMCC 241950Z AUTO 29009G15KT 10SM CLR 30/12 A2994 RMK AO2
KMCD 241958Z AUTO 23007KT 190V270 10SM CLR 19/12 A3008 RMK AO2 T01940120
KMCE 241953Z AUTO 33011G17KT 300V360 10SM CLR 32/12 A2991 RMK AO2 SLP125 T03220122
KMCF 241958Z AUTO VRB02KT 8SM CLR 33/25 A3002 RMK AO2 SLP169 T03280254
KMCI 241953Z 16011KT 10SM FEW080 FEW150 BKN250 28/16 A3008 RMK AO2 SLP175 T02780156
KMCJ 241955Z AUTO 00000KT 4SM BKN040 36/22 A2995 RMK AO1
KMCK 241953Z AUTO 17017G23KT 10SM CLR 38/18 A2989 RMK AO2 SLP091 T03780178
KMCN 241953Z 23008KT 10SM FEW050 32/21 A2994 RMK AO2 SLP133 T03170206
KMCO 241953Z VRB03KT 10SM SCT041CB SCT100 BKN250 33/22 A2999 RMK AO2 SLP153 CB SW-W MOV NE T03280222
KMCW 241953Z AUTO 19012KT 10SM SCT045 27/16 A3006 RMK AO2 SLP170 T02670156 TSNO
KMCX 241955Z AUTO 01006KT 10SM SCT049 23/14 A3011 RMK AO2 T02340139
KMDD 241955Z AUTO 10009G15KT 10SM CLR 36/12 A3010 RMK AO2 T03600116
KMDH 241952Z 01008KT 10SM FEW046 27/16 A3007 RMK AO2 SLP181 T02670156
KMDJ 241955Z AUTO 29008KT 9SM FEW004 FEW027 SCT090 27/23 A3003 RMK A01
KMDQ 241955Z AUTO 25004KT 10SM SCT037 SCT044 29/16 A2998 RMK AO2
KMDS 241950Z AUTO 17014G22KT 140V200 10SM VCTS SCT070 22/18 A2996 RMK AO2 LTG DSNT N-SE
KMDT 241956Z 34009KT 10SM BKN060 BKN250 27/12 A2991 RMK AO2 SLP126 T02670117
KMDW 241951Z 04009KT 10SM FEW045 23/09 A3012 RMK AO2 SLP193 T02330094
KMDZ 241955Z AUTO 30003KT 10SM SCT060 22/11 A3008 RMK AO2 T02170112
KMEB 241952Z AUTO 23009KT 10SM FEW047 30/21 A2987 RMK AO2 WSHFT 1930 SLP111 T03000211 TSNO
KMEH 241956Z AUTO VRB05KT 10SM OVC050 16/04 A3023 RMK AO2 SLP234 T01560044
KMEI 241858Z 19009KT 10SM SCT035 BKN044 BKN070 29/22 A2998 RMK AO2 SLP148 T02940222
KMEM 241954Z 34009KT 10SM CLR 28/16 A3003 RMK AO2 SLP166 T02780156 $
KMER 241945Z 32010KT 10SM SKC 32/12 A2992
KMEZ 241955Z AUTO 00000KT 10SM SCT027 SCT034 30/23 A3008 RMK AO2
KMFD 241952Z 36012KT 10SM CLR 22/12 A3008 RMK AO2 SLP181 T02170117
KMFE 241953Z 16010KT 10SM FEW070 38/19 A2992 RMK AO2 SLP131 T03780189
KMFI 241954Z AUTO 10SM SCT055 25/11 A3008 RMK AO2 SLP184 T02500111
KMFR 241953Z VRB06KT 10SM CLR 23/03 A3020 RMK AO2 SLP220 T02280033
KMFV 241955Z AUTO 00000KT 10SM 25/21 A2987 RMK AO2
KMGC 241935Z AUTO 01008G16KT 10SM CLR 20/11 A3014 RMK AO2
KMGE 241858Z 22010KT 10SM SCT040CB BKN250 28/23 A2997 RMK AO2A CB 21SE-19S AND 25NW MOV E SLP137 T02840227 $
KMGG 241959Z AUTO 23004KT 10SM VCTS CLR 25/15 A3010 RMK AO2 LTG DSNT SW AND W T02530154
KMGJ 241954Z AUTO 05006KT 10SM SCT044 BKN070 26/15 A2987 RMK AO2 SLP111 T02610150 TSNO
KMGM 241953Z 25008KT 10SM FEW045 33/21 A2995 RMK AO2 SLP139 T03330211
KMGN 241954Z AUTO 24008KT 210V270 10SM CLR 19/10 A3010 RMK AO2 T01950100
KMGR 241935Z AUTO 23007KT 10SM CLR 32/22 A2998 RMK AO2 LTG DSNT SW
KMGW 241953Z 01009KT 10SM SCT048 24/12 A3000 RMK AO2 SLP150 T02440122
KMGY 241953Z AUTO 02010G14KT 10SM BKN055 22/13 A3006 RMK AO2 SLP175 T02220128
KMHE 241953Z AUTO 16017G26KT 10SM CLR 29/19 A2987 RMK AO2 PK WND 14029/1854 SLP106 T02940194
KMHK 241952Z 15011G18KT 10SM CLR 32/17 A3002 RMK AO2 SLP156 T03220167
KMHR 241856Z 33009G15KT 10SM SKC 29/12 A2994
KMHS 241956Z AUTO 29007KT 10SM CLR 22/04 A3017 RMK AO2 SLP210 T02170044
KMHT 241953Z 32009KT 10SM SCT050 SCT075 BKN250 27/13 A2982 RMK AO2 SLP106 T02720128
KMHV 241955Z AUTO 09003KT 10SM CLR 37/00 A2994 RMK AO1
KMIA 241953Z 30006KT 10SM FEW033CB SCT048 BKN065 BKN250 29/24 A3003 RMK AO2 RAB43E52 SLP169 CB NW-N MOV N P0000 T02940239
KMIB 241958Z AUTO 15012KT 10SM FEW034 27/20 A2978 RMK AO2 SLP083 T02660199 $
KMIC 241953Z 22007KT 10SM BKN060 27/13 A3005 RMK AO2 SLP173 T02720133 $
KMIE 241953Z 04010KT 10SM SCT050 24/11 A3009 RMK AO2 SLP183 T02440106
KMIS 241955Z AUTO 00000KT 10SM FEW085 31/23 A3000 RMK A01
KMIV 241954Z AUTO 35007KT 10SM BKN045 27/16 A2987 RMK AO2 SLP112 T02720161
KMIW 241953Z AUTO 19007KT 10SM BKN047 25/16 A3007 RMK AO2 SLP179 T02500156
KMJQ 241954Z AUTO 25005KT 10SM TS CLR 21/14 A3012 RMK AO2
KMJX 241955Z AUTO 34005KT 10SM FEW041 SCT050 26/16 A2985 RMK AO1
KMKC 241954Z 13009G15KT 10SM CLR 28/15 A3006 RMK AO2 SLP173 T02830150
KMKE 241952Z 13008KT 10SM FEW035 FEW250 22/09 A3013 RMK AO2 SLP200 T02170089
KMKG 241955Z 27011KT 10SM SCT050 22/08 A3012 RMK AO2 SLP198 T02220083
KMKJ 241955Z AUTO 24010KT 10SM VCTSRA SCT033 BKN040 OVC110 21/19 A3003 RMK AO2 LTG DSNT NE E AND W P0004 T02080190
KMKL 241953Z 33011KT 10SM CLR 27/14 A3003 RMK AO2 SLP164 T02720144
KMKN 241955Z AUTO 12006KT 10SM SCT060 35/19 A3004 RMK AO2 T03450186
KMKO 241953Z AUTO 12006KT 10SM SCT026 29/22 A3006 RMK AO2 SLP172 T02890222
KMKS 241955Z AUTO 25007KT 7SM 34/24 A2989 RMK AO2
KMKT 241955Z AUTO 19007KT 10SM FEW047 26/14 A3005 RMK AO1
KMKY 241955Z AUTO 27007KT 10SM CLR 33/24 A3002 RMK AO1 LTG DSNT E
KMLB 241953Z 17004KT 10SM -RA FEW048 SCT075 BKN100 28/24 A2999 RMK AO2 RAB19 TSE1857 SLP155 P0006 T02780244
KMLC 241953Z AUTO VRB04KT 10SM CLR 32/20 A3004 RMK AO2 SLP163 T03170200
KMLE 241955Z AUTO 14013G18KT 10SM CLR 28/18 A3000 RMK AO2 T02770177
KMLF 241952Z AUTO 20013G28KT 10SM CLR 36/M03 A3007 RMK AO2 PK WND 21028/1945 SLP094 T03561033
KMLI 241952Z 13007KT 100V170 10SM FEW055 25/13 A3010 RMK AO2 SLP191 T02500133
KMLJ 241935Z AUTO 00000KT 10SM SCT046 SCT055 SCT080 24/14 A2993 RMK AO2 LTG DSNT NW
KMLP 241953Z AUTO 21007KT 170V250 10SM BKN010 OVC017 05/02 A3019 RMK AO2 SLP174 T00500022
KMLS 241953Z AUTO 16006KT 10SM CLR 34/16 A2971 RMK AO2 SLP031 T03440156
KMLT 241953Z AUTO 29005KT 10SM CLR 23/10 A2983 RMK AO2 SLP103 T02330100
KMLU 241953Z 00000KT 10SM HZ CLR 32/23 A3000 RMK AO2 SLP157 T03170228
KMMH 241955Z AUTO 26010G16KT 10SM CLR 29/M13 A3024 RMK AO1
KMMI 241955Z AUTO VRB04KT 10SM CLR 29/21 A2996 RMK
KMMK 241953Z AUTO 36009KT 10SM SCT047 27/16 A2983 RMK AO2 SLP100 T02720156 TSNO
KMML 241955Z AUTO 36011G15KT 10SM TS BKN060 BKN120 19/16 A3014 RMK AO1 WSHFT 03 LTG DSNT SW TSE14B45 P0005
KMMT 241858Z 24010G19KT 10SM SCT055 SCT300 33/22 A2989 RMK AO2A SLP121 T03330218
KMMU 241945Z 36005KT 10SM SCT049 BKN060 26/14 A2986
KMMV 241953Z AUTO 00000KT 10SM FEW035 FEW042 BKN055 20/11 A3027 RMK AO2 SLP248 T02000111
KMNE 241955Z AUTO 29004KT 10SM 31/22 A3002 RMK AO2
KMNH 241954Z AUTO 34005KT 10SM SCT110 30/03 A3022 RMK AO2 LTG DSNT NW
KMNI 241955Z AUTO 22010G15KT 10SM SCT050 SCT060 SCT085 34/23 A2988 RMK AO2
KMNM 241955Z AUTO 20008G15KT 10SM CLR 23/10 A3007 RMK AO1
KMNN 241953Z AUTO 01016G20KT 10SM CLR 23/11 A3007 RMK AO2 PK WND 03027/1900 SLP182 T02280106 TSNO
KMNZ 241955Z AUTO 06004KT 10SM SCT047 SCT060 33/19 A3004 RMK AO2 T03330192
KMOB 241956Z 13009KT 3SM -RA BR BKN014CB OVC025 24/24 A2999 RMK AO2 PK WND 26027/1923 RAB23 SLP154 CB ALQDS MOV NE P0066 T02440239
KMOD 241953Z 34009G19KT 10SM CLR 31/11 A2991 RMK AO2 SLP127 T03060111
KMOP 241955Z AUTO 02005KT 10SM BKN060 24/09 A3009 RMK AO2 T02350091
KMOT 241954Z 14012KT 10SM CLR 27/18 A2978 RMK AO2 PK WND 16030/1856 SLP078 T02670178
KMOX 241948Z AUTO 05011KT 10SM -RA CLR 18/17 A3001 RMK AO2 P0015 LTG DSNT SE AND S
KMPO 241953Z AUTO 34008KT 10SM SCT047 21/10 A2994 RMK AO2 SLP131 T02110100
KMPV 241951Z AUTO 34010KT 10SM CLR 20/10 A2996 RMK AO2 SLP143 T02000100
KMPZ 241955Z AUTO 16006KT 10SM CLR 25/13 A3010 RMK AO2 T02520128
KMQB 241955Z AUTO 06005KT 10SM CLR 24/14 A3014 RMK AO2 T02430140
KMQE 241954Z AUTO 08009KT 21/16 A2985 RMK AO1 SLP113 T02110161
KMQJ 241956Z AUTO 02012G15KT 10SM SCT050 24/13 A3010 RMK AO1
KMQS 241955Z AUTO 36009G16KT 10SM SCT049 25/13 A2991 RMK AO2
KMQY 241956Z 35007KT 10SM FEW027 30/20 A3001 RMK AO2 T03000200 SLP166
KMRB 241953Z 01006KT 10SM CLR 26/13 A2994 RMK AO2 SLP133 T02560128
KMRC 241955Z AUTO 35005KT 10SM FEW055 29/19 A2999 RMK
KMRF 241955Z AUTO 00000KT 10SM BKN090 BKN110 31/11 A3024 RMK AO1
KMRH 241949Z AUTO 02008KT 1/4SM +RA FG BKN011 BKN025 OVC046 23/22 A2992 RMK AO2 P0062 T02280217 TSNO
KMRJ 241955Z AUTO 19006KT 10SM BKN050 25/11 A3009 RMK AO2
KMRN 241935Z AUTO 01003KT 10SM -RA SCT041 SCT050 BKN060 A2995 RMK AO2
KMRT 241953Z AUTO 04010G16KT 10SM SCT047 SCT050 22/10 A3007 RMK AO2 T02190100
KMRY 241954Z 31010KT 10SM CLR 19/14 A2998 RMK AO2 SLP161 T01890139
KMSL 241953Z AUTO 31007KT 10SM CLR 31/17 A3000 RMK AO2 SLP151 T03060172
KMSN 241953Z VRB04KT 10SM BKN050 BKN250 26/11 A3010 RMK AO2 SLP190 T02560111
KMSO 241953Z 27016G22KT 10SM CLR 20/02 A3013 RMK AO2 SLP187 T02000022
KMSP 241953Z 20008KT 10SM BKN060 BKN200 BKN250 27/12 A3006 RMK AO2 SLP174 T02720122
KMSS 241953Z AUTO 27008KT 10SM CLR 22/10 A2996 RMK AO2 SLP146 T02170100
KMSV 241955Z AUTO 32008G17KT 10SM BKN050 22/12 A2994 RMK AO1
KMSY 241953Z 32003KT 10SM SCT035CB SCT150 BKN250 32/22 A2997 RMK AO2 SLP153 CB SW DSNT NE AND SE STNRY T03170222
KMTC 241955Z 04007KT 12SM BKN060 22/10 A3007 RMK SLP190 T02230099
KMTH 241953Z AUTO 16003KT 10SM CLR 33/26 A3002 RMK AO2 SLP164 T03280256
KMTJ 241953Z AUTO 12006KT 10SM SCT110 28/11 A3024 RMK AO2 LTG DSNT NW SLP142 T02780111
KMTN 241955Z 31007KT 10SM SCT040 BKN050 26/17 A2990
KMTO 241953Z AUTO 01010KT 10SM FEW045 25/13 A3010 RMK AO2 SLP189 T02500133
KMTP 241954Z AUTO VRB03KT 25/18 A2983 RMK AO1 SLP101 T02500183
KMTV 241935Z AUTO 30004KT 10SM CLR 30/22 A2989 RMK AO2 LTG DSNT NE S AND NW T02950215
KMTW 241956Z AUTO 14010KT 10SM CLR 20/08 A3011 RMK AO2 SLP218 T02000083
KMUI 241958Z AUTO 01008KT 10SM BKN060 25/12 A2993 RMK AO2 SLP135 T02540122 $
KMUO 241958Z AUTO 32018G24KT 10SM CLR 24/M01 A3017 RMK AO2 SLP194 T02361014 $
KMUT 241955Z AUTO 15008KT 10SM BKN050 BKN055 26/14 A3009 RMK AO2
KMVE 241954Z AUTO 09010KT 10SM VCTSRA SCT026 BKN035 OVC050 19/19 A3009 RMK AO2 P0027 LTG DSNT ALQDS
KMVL 241954Z AUTO 01009G14KT 10SM FEW043 A2994 RMK AO2 SLPNO $
KMVN 241955Z AUTO 01005KT 10SM SCT048 BKN050 24/14 A3010 RMK AO1
KMVY 241953Z 03009KT 10SM -RA SCT044 BKN055 OVC070 21/18 A2982 RMK AO2 RAB40 SLP097 P0000 T02060183
KMWA 241854Z 02010KT 20SM SCT038 BKN050 26/16 A3009
KMWC 241945Z 08008KT 10SM SKC 22/05 A3013
KMWH 241952Z 21015G22KT 10SM FEW055 24/06 A3010 RMK AO2 SLP189 T02390056
KMWK 241955Z AUTO 25003KT 10SM CLR 29/24 A2988 RMK AO2 T02900235
KMWL 241953Z AUTO 08005KT 10SM SCT050 34/21 A3000 RMK AO2 SLP144 T03440206
KMWM 241953Z AUTO 21005KT 10SM -TSRA SCT029 21/16 A3012 RMK AO2 LTG DSNT ALQDS
KMWN 241949Z 29019G25KT 1/8SM FG VV002 08/08 RMK SUN DMLY VSBL
KMWO 241955Z AUTO 01008KT 10SM SCT049 BKN060 24/13 A3008 RMK AO2 T02430125
KMWS 241945Z 22005G07KT 32/05 RMK SNOW DEPTH M
KMWT 241953Z AUTO 09003KT 10SM FEW026 28/21 A3005 RMK AO2 SLP167 T02780211
KMXF 241958Z AUTO 25008KT 210V280 10SM FEW042 SCT060 32/22 A2995 RMK AO2 SLP143 T03210222
KMXO 241955Z AUTO 15008KT 10SM BKN042 OVC050 25/16 A3009 RMK AO2
KMYF 241953Z 23007KT 10SM CLR 29/18 A2982 RMK AO2 SLP093 T02890178
KMYL 241951Z AUTO VRB03KT 10SM CLR 17/M04 A3021 RMK AO2 SLP200 T01671044
KMYP 242003Z AUTO 22011G27KT 190V250 10SM CLR 18/02 A3081 RMK AO2
KMYR 241945Z 24010KT 10SM SCT050 34/21 A2987
KMYV 241953Z AUTO 10SM CLR 32/11 A2991 RMK AO2 SLP133 T03220106 PWINO PNO $
KMYZ 241935Z AUTO 15013G20KT 10SM CLR 30/17 A3003 RMK AO2
KMZG 241955Z AUTO VRB05KT 10SM CLR 30/25 A2999 RMK A01
KMZH 241955Z AUTO 23008KT 10SM SCT050 SCT060 25/12 A3004 RMK AO2
KMZZ 241935Z AUTO 01006KT 10SM SCT050 23/10 A3011 RMK AO2 T02280098
KN03 241955Z AUTO 33006KT 10SM BKN041 20/10 A3001 RMK AO2
KN38 241955Z AUTO 35012KT 10SM FEW042 20/10 A3002 RMK AO2
KN60 241952Z AUTO 17012G21KT 23/18 A2982 RMK AO1 PRESRR SLP090 T02330178
KNAK 241954Z AUTO 04005KT 10SM BKN041 OVC048 25/18 A2989 RMK AO2 SLP124 T02500178
KNBC 241956Z 29010G17KT 10SM BKN045 34/22 A2991 RMK AO2 SLP129 T03440222
KNBG 241955Z 31008G18KT 4SM -TSRA BR BKN035CB BKN080 BKN250 24/22 A2997 RMK AO2 RAB52 TSB36 SLP147 OCNL LTGICCCCG OHD TS OHD MOV NE P0011 T02440217 $
KNBT 241956Z AUTO 21005KT 1 3/4SM RA SCT050 BKN080 OVC110 23/ A2987 RMK AO2 PRESFR SLP120 T0233 PNO $
KNCA 241956Z 28006KT 8SM -TSRA FEW008 BKN040 BKN060 24/23 A2986 RMK AO2 RAB30 TSB31 SLP115 P0001 T02440228
KNDZ 241956Z 21008KT 10SM SCT043TCU SCT120 SCT250 32/22 A2998 RMK AO2 SLP136 TCU DSNT SW T2 SET T03170222 $
KNEW 241953Z 34005KT 10SM SCT030 31/23 A2998 RMK AO2 SLP146 T03110228
KNFE 241956Z AUTO 13007KT 10SM FEW013 FEW018 BKN028 29/22 A2987 RMK AO2 SLP115 T02890222
KNFG 241954Z 22008KT 7SM FEW200 29/14 A2980 RMK AO2 SLP089 T02940144 $
KNFL 241956Z 04007KT 10SM CLR 30/01 A3009 RMK AO2 SLP158 T03000011
KNFW 241952Z 09005KT 10SM FEW050 36/18 A3004 RMK AO2 SLP155 T03560178 VISNO N $
KNGP 241956Z 12013KT 10SM FEW028 FEW035CB SCT080 SCT140 BKN250 33/22 A2997 RMK AO2 SLP147 CB DSNT N AND W TCU DSNT N T03280222
KNGU 241859Z 34008KT 6SM BR FEW014 SCT027 OVC075 28/23 A2988 RMK AO2 SLP118 T2 SET T02830228
KNHK 241952Z 35009KT 10SM FEW027 BKN039 OVC060 24/19 A2989 RMK AO2 RAB15E40 SLP122 P0000 T02440194
KNID 241956Z 10SM CLR 38/04 A2988 RMK AO2 SLP091 T03780039
KNIP 241953Z 21007KT 10SM SCT055 SCT250 36/20 A2997 RMK AO2 SLP144 T03560200
KNJK 241956Z 10008KT 10SM FEW070 FEW120 BKN250 44/08 A2969 RMK AO2 SLP069 T04390078
KNJM 241957Z AUTO VRB05KT 1/2SM +TSRA FG BKN007 OVC025 23/22 A2987 RMK AO2 RAB12 TSB05E20B39B41 SLP119 P0078 T02330217
KNKT 241854Z 13006KT 6SM TS BR FEW010 BKN015CB OVC035 24/22 A2991 RMK RAB13B38E30 SLP123 VIS E 1 P0037 T02440222
KNKX 241955Z 24007KT 10SM FEW200 31/14 A2982 RMK AO2 SLP091 T03060144 $
KNLC 241956Z 33010KT 10SM FEW220 32/11 A2990 RMK AO2 SLP124 RH/27 T03170111
KNMM 241956Z 24006KT 10SM SCT041 BKN060 31/21 A2996 RMK AO2 SLP151 T2 SET T03110211 $
KNOG 241956Z AUTO FEW022 FEW070 36/21 A2995 RMK AO2 RAB42E56 SLP122 P0000 T03610206 $
KNPA 241956Z 20011KT 10SM SCT030 BKN250 30/24 A2998 RMK AO2 SLP153 T2 SET T03000239
KNQA 241950Z 33009KT 10SM FEW050 SCT250 27/14 A3004
KNQI 241953Z 10019KT 8SM -TSRA SCT030CB BKN060 BKN160 BKN250 31/24 A2996 RMK AO2 RAB36 TSB51 OCNL LTGICCG N TS N MOV W CB DSNT S P0000
KNQX 241953Z VRB06KT 10SM FEW024 SCT250 32/24 A3002 RMK AO2 SLP163 TCU DSNT W T2 SET T03220239 $
KNRB 241952Z 28003KT 10SM SCT050 SCT250 33/19 A2996 RMK AO2 SLP146 T2 SET T03330194 $
KNRS 241956Z 27009KT 10SM FEW007 FEW060 SCT220 24/19 A2983 RMK AO2 SLP101 T02390189 $
KNSE 241956Z 19007KT 10SM SCT035CB SCT100 BKN250 31/22 A2998 RMK AO2 SLP135 CB DSNT W T2 SET T03110222
KNSI 241957Z 29014KT 10SM FEW250 21/13 A2986 RMK AO2 SLP109 T02110128 $
KNTD 241956Z 25010KT 10SM CLR 27/18 A2984 RMK AO2 SLP105 T02670178 $
KNTU 241956Z 09007KT 10SM FEW020 SCT045 SCT055 BKN250 26/22 A2986 RMK AO2 SLP115 TCU OVHD SHRA W-NW SVR T2 SET T02560217
KNUC 241856Z VRB05KT 10SM CLR 24/18 A2987 RMK SLP113 T02390183
KNUI 241953Z AUTO VRB05KT 10SM SCT036 BKN060 24/19 A2989 RMK AO2 RAB18E27 SLP119 P0000 T02440189
KNUQ 241956Z 35007KT 10SM CLR 26/14 A2995 RMK AO2 SLP144 T02610144
KNUW 241956Z 24014G19KT 10SM FEW028 SCT055 BKN075 18/12 A3019 RMK AO2 SLP227 T01780117 $
KNXF 241956Z AUTO 26007KT 8SM FEW003 23/18 A2982 RMK AO2 SLP181 T02330178 $
KNXP 241956Z COR VRB05KT 10SM SCT250 41/00 A2992 RMK AO2 SLP088 T04110000
KNYC 241951Z AUTO 07007KT 10SM FEW065 26/15 A2987 RMK AO2 SLP106 T02610150 $
KNYG 241956Z 32005KT 10SM -RA SCT039 BKN070 OVC110 24/17 A2992 RMK AO2 RAB47 SLP131 P0001 T02390172
KNYL 241857Z 22005KT 10SM SCT180 BKN300 43/06 A2974 RMK AO2 SLP068 T04280061
KNZY 241952Z 28009KT 10SM FEW010 FEW090 SCT220 27/18 A2981 RMK AO2 SLP095 T02720183 $
KO22 241555Z AUTO 18004KT 10SM CLR 27/08 A3003 RMK AO1
KO54 241955Z AUTO 00000KT 10SM CLR 28/M06 A3007 RMK AO1
KO69 241955Z AUTO 00000KT 9SM CLR 30/14 A2996 RMK AO1
KO86 241955Z AUTO 13004KT 10SM CLR 27/M03 A3008 RMK AO1
KOAJ 241955Z AUTO 11005KT 10SM TS FEW013 SCT046 BKN065 25/22 A2988 RMK AO1 LTG DSNT E TSB11 P0066
KOAK 241953Z 31006KT 10SM CLR 26/14 A2996 RMK AO2 SLP144 T02560144 $
KOBE 241955Z AUTO 10SM CLR 31/23 A3001 RMK AO2 LTG DSNT W
KOCF 241950Z 24005KT 10SM SCT030 33/19 A3000
KOCH 241955Z AUTO 26004KT 10SM CLR 32/20 A3002 RMK AO1
KOCQ 241935Z AUTO 17008KT 10SM CLR 23/11 A3009 RMK AO1 T02330106
KOCW 241955Z AUTO 00000KT 10SM SCT060 24/23 A2989 RMK AO2 T02410225
KODO 241953Z AUTO 10008G18KT 050V150 10SM CLR 36/09 A3010 RMK AO2 SLP137 T03560089
KODX 241953Z AUTO 17017G27KT 10SM CLR 30/20 A2991 RMK AO2 PK WND 18030/1937 SLP115 T03000200
KOEB 241955Z AUTO 08006KT 10SM SCT050 23/10 A3010 RMK AO2 T02250099
KOEO 241935Z AUTO 18006KT 10SM SCT055 26/12 A3007 RMK AO2 T02620121
KOFF 241958Z AUTO 16014G20KT 10SM CLR 28/18 A3000 RMK AO2 PK WND 17026/13 SLP156 T02820177
KOFK 241956Z AUTO 15021G26KT 10SM CLR 29/17 A2995 RMK AO2 PK WND 16029/1917 SLP130 T02890172
KOFP 241954Z AUTO VRB06KT 2SM RA BR SCT047 BKN070 OVC085 24/22 A2988 RMK AO2 LTG DSNT SW AND W RAE1859B23 SLP117 P0006 T02390222
KOGA 241955Z AUTO 19013KT 10SM CLR 37/12 A2988 RMK AO2 T03740121
KOGB 241953Z AUTO 23012KT 10SM FEW065 33/20 A2989 RMK AO2 SLP118 T03280200
KOGD 241953Z 10SM CLR 32/03 A3006 RMK AO2 SLP103 T03220028
KOJA 241955Z AUTO 21005KT 10SM CLR 35/21 A3004 RMK AO2
KOJC 241953Z 15007G14KT 10SM CLR 27/14 A3008 RMK AO2 SLP176 T02670144
KOKB 241952Z AUTO 25008KT 10SM CLR 27/17 A2981 RMK AO2 SLP093 T02670172
KOKC 241952Z VRB04KT 10SM FEW048 33/21 A3004 RMK AO2 SLP154 T03330211
KOKK 241955Z AUTO 02009KT 10SM BKN050 BKN060 25/12 A3010 RMK AO1
KOKM 241935Z AUTO 14005KT 10SM SCT029 BKN035 BKN042 30/23 A3004 RMK AO2 T02990233
KOKV 241955Z AUTO 32003KT 10SM OVC060 23/16 A2994 RMK AO2
KOKZ 241955Z AUTO 25010G14KT 10SM CLR 32/22 A2996 RMK AO2 T03150221
KOLE 241955Z AUTO 32006KT 10SM BKN038 17/10 A3004 RMK AO2
KOLF 241953Z AUTO 16007G14KT 10SM CLR 33/16 A2969 RMK AO2 SLP038 T03280156
KOLM 241954Z 25015KT 10SM SCT025 BKN030 BKN060 18/12 A3022 RMK AO2 SLP234 T01830117
KOLU 241955Z AUTO 16017G25KT 10SM CLR 28/18 A2996 RMK AO1
KOLV 241950Z 34008KT 10SM FEW045 27/16 A3003
KOLY 241955Z AUTO 04004KT 10SM SCT046 25/16 A3009 RMK AO2
KOLZ 241955Z AUTO 19009KT 150V220 10SM FEW045 FEW055 25/15 A3008 RMK AO2
KOMA 241952Z 15016G22KT 10SM FEW120 FEW150 SCT250 28/16 A3001 RMK AO2 PK WND 17026/1853 SLP155 ACC OHD T02830156
KOMH 241955Z AUTO 01005KT 5SM -RA SCT022 BKN035 OVC070 19/17 A2994 RMK AO2 LTG DSNT S P0004
KOMK 241953Z AUTO 15014G20KT 10SM OVC070 20/07 A3004 RMK AO2 SLP170 T02000072
KOMN 241950Z 12006KT 10SM SCT045 31/23 A2999
KONA 241956Z AUTO 00000KT 10SM BKN060 25/13 A3005 RMK AO2
KONL 241955Z AUTO 17023G32KT 10SM CLR 30/18 A2988 RMK AO2 T03000177
KONM 241935Z AUTO 15010G16KT 10SM CLR 33/06 A3022 RMK AO2 T03340057
KONO 241953Z AUTO 23008KT 10SM CLR 23/M01 A3018 RMK AO2 SLP210 T02331006
KONP 241955Z AUTO 25005KT 7SM CLR 17/14 A3031 RMK AO2
KONT 241953Z 29006KT 10SM FEW095 FEW250 38/03 A2983 RMK AO2 SLP076 T03780028
KONX 241935Z AUTO 00000KT 10SM CLR 28/23 A2988 RMK AO2 T02800225
KONZ 241954Z AUTO 04007G14KT 010V070 10SM SCT060 23/09 A3007 RMK AO2
KOOA 241935Z AUTO 16011G14KT 10SM SCT045 26/16 A3007 RMK AO2 T02580161
KOPF 241953Z 25007KT 10SM TS FEW035 SCT045 SCT055 27/22 A3004 RMK AO2 TSB39 SLP172 T02720222
KOPL 241935Z AUTO 00000KT 10SM SCT080 31/24 A2998 RMK AO2 T03110239
KOPM 241955Z AUTO 06008KT 10SM CLR 29/24 A2997 RMK A01
KOPN 241955Z AUTO 25010KT 10SM SCT047 SCT055 SCT070 32/21 A2997 RMK AO2
KOQT 241953Z AUTO 25007KT 210V280 10SM CLR 31/19 A2994 RMK AO2 SLP121 T03110194
KOQU 241950Z 09010KT 12SM FEW060 BKN080 OVC250 25/18 A2983
KORB 241953Z AUTO 25004KT 10SM SCT060 24/09 A3000 RMK AO2
KORC 241935Z AUTO 17016G20KT 10SM CLR 22/17 A2996 RMK AO2
KORD 241951Z 05010KT 10SM FEW045 24/07 A3012 RMK AO2 SLP197 T02390067
KORE 241952Z AUTO A2985 RMK AO2 SLPNO PWINO $
KORF 241951Z 03007KT 10SM FEW045 SCT060 27/22 A2986 RMK AO2 SLP111 T02720222
KORG 241955Z AUTO 00000KT 10SM SCT036 31/21 A3000 RMK AO2 T03120212
KORH 241954Z 34008KT 300V020 10SM FEW038 24/14 A2986 RMK AO2 SLP106 T02440144
KORL 241953Z AUTO 22006KT 10SM BKN055 33/23 A2998 RMK AO2 LTG DSNT SW SLP155 T03280228
KORS 241955Z AUTO 19008KT 10SM SCT023 18/13 A3013 RMK AO2
KOSA 241955Z AUTO 05004KT 10SM SCT030 30/21 A3005 RMK AO1 T02960208
KOSC 241953Z AUTO 13007KT 10SM SCT050 21/08 A3009 RMK AO2 T02190089
KOSH 241953Z 12009KT 10SM BKN055 23/12 A3009 RMK AO2 SLP184 T02280117
KOSU 241953Z 03014G19KT 10SM SCT055 24/14 A3004 RMK AO2 SLP168 T02440139
KOTG 241955Z AUTO 14008KT 9SM TS FEW037 BKN047 OVC070 18/14 A3008 RMK AO1 LTG DSNT ALQDS TSB1858 P0005
KOTH 241955Z 35007KT 10SM BKN050 19/14 A3028 RMK AO1
KOTM 241953Z AUTO 17010KT 10SM SCT043 25/16 A3005 RMK AO2 SLP171 T02500161 TSNO
KOUN 241935Z AUTO 10006KT 10SM CLR 32/22 A3005 RMK AO2
KOVE 241953Z AUTO 30012G18KT 10SM CLR 31/12 A2993 RMK AO2 SLP136 T03060117
KOVL 241954Z AUTO 29004KT 5SM -RA SCT041 BKN050 OVC075 22/17 A3011 RMK AO2 LTG DSNT ALQS P0004
KOVS 241953Z AUTO VRB04KT 10SM SCT060 26/12 A3007 RMK AO2 SLP181 T02610117
KOWA 241955Z AUTO 19007KT 10SM SCT050 27/13 A3007 RMK AO2 LTG DSNT SW AND W
KOWB 241956Z 03010KT 10SM BKN050 27/13 A3004 RMK AO2 T02720133 SLP169
KOWD 241953Z 02007KT 10SM FEW038 24/17 A2983 RMK AO2 SLP102 T02390172
KOWP 241955Z AUTO 15005KT 10SM CLR 33/21 A3004 RMK AO2 T03270209
KOXB 241953Z AUTO 35005KT 10SM SCT023 OVC050 26/20 A2987 RMK AO2 SLP115 T02560200 TSNO
KOXC 241955Z 33007KT 10SM SCT040 23/14 A2988
KOXI 241955Z AUTO 34003KT 10SM SCT049 23/11 A3011 RMK AO1 T02260109
KOXR 241951Z 26009KT 10SM CLR 24/17 A2983 RMK AO2 SLP101 T02440172 $
KOXV 241935Z AUTO 17009G15KT 10SM CLR 25/15 A3007 RMK AO2
KOZA 241935Z AUTO 00000KT 10SM CLR 35/14 A3009 RMK AO2
KOZR 241958Z AUTO 26007KT 10SM TS SCT044 SCT060 31/22 A2997 RMK AO2 LTG DSNT N AND S-SW TSB1952 SLP148 T03140216 RVRNO
KOZW 241955Z AUTO 04005KT 10SM BKN050 23/08 A3010 RMK AO2 T02270075
KP28 241956Z AUTO 17013G16KT 33/22 A3001 RMK AO1 SLP145 T03280217
KP53 241956Z AUTO 05009KT 21/11 A3006 RMK AO1 SLP180 T02110111
KP58 241951Z AUTO 00000KT 19/13 A3010 RMK AO1 SLP188 T01940128
KP59 241951Z AUTO 36012KT 19/11 A3004 RMK AO1 SLP168 T01890111
KP60 241956Z AUTO VRB06G16KT 21/M01 A3027 RMK AO1 PK WND 29026/1902 SLP165 T02111006
KP68 241953Z AUTO VRB03KT 28/M03 A3017 RMK AO1 SLP133 T02831033
KP69 241952Z AUTO 00000KT 23/06 A3015 RMK AO1 SLP188 T02330056
KP92 241953Z AUTO VRB05KT 32/26 A2998 RMK AO1 SLP151 T03220256
KPAE 241953Z 00000KT 10SM OVC009 15/12 A3021 RMK AO2 SLP231 T01500122
KPAH 241953Z 03010KT 10SM SCT047 28/17 A3004 RMK AO2 SLP170 T02780167
KPAM 241958Z AUTO 24009KT 10SM CLR 30/25 A3001 RMK AO2 SLP165 T03040252 $
KPAN 241955Z AUTO 21009G16KT 170V260 10SM CLR 33/07 A3020 RMK AO2
KPAO 241947Z 36010KT 30SM SKC 26/18 A2994
KPBF 241953Z AUTO 01008KT 10SM BKN022 OVC028 26/22 A3005 RMK AO2 SLP173 T02610217
KPBG 241953Z AUTO 34012G16KT 10SM FEW050 23/11 A2992 RMK AO2 SLP130 T02280111
KPBH 241955Z AUTO 21007KT 10SM OVC055 23/11 A3007 RMK AO2 T02320109
KPBI 241953Z COR 14012KT 10SM SCT024TCU SCT080 BKN120 32/24 A3001 RMK AO2 SLP162 TCU S CB TCU DSNT SW-NW T03170239 $
KPCM 241955Z AUTO 27004KT 10SM SCT025 SCT030 32/24 A3003 RMK AO2
KPCW 241953Z AUTO 05005KT 10SM CLR 22/12 A3008 RMK AO2 T02160116 $
KPCZ 241955Z AUTO 18004KT 10SM BKN060 27/09 A3009 RMK AO2 T02650085
KPDC 241954Z AUTO 20008KT 10SM SCT050 26/11 A3006 RMK AO2
KPDK 241953Z 22009KT 8SM CLR 29/22 A2996 RMK AO2 SLP128 T02890222
KPDT 241953Z 26020G27KT 10SM SCT065 22/04 A3017 RMK AO2 PK WND 26029/1913 SLP208 T02220044
KPDX 241953Z 31010KT 10SM SCT029 BKN040 BKN060 19/12 A3026 RMK AO2 SLP245 T01940122
KPEA 241935Z AUTO 16010KT 7SM SCT046 26/16 A3008 RMK AO2 T02640159
KPEO 241953Z AUTO 35009G15KT 10SM CLR 21/08 A3001 RMK AO2 SLP158 T02110083
KPEQ 241935Z AUTO 10012G18KT 10SM CLR 37/11 A3006 RMK AO2 T03650105
KPEX 241954Z AUTO 24008KT 10SM -RA BKN049 BKN055 OVC095 20/16 A3014 RMK AO2 T01950156
KPEZ 241955Z AUTO 04005KT 10SM SCT045 BKN050 BKN075 33/20 A2998 RMK AO2 T03260196
KPGA 241953Z AUTO VRB04KT 10SM CLR 36/08 A3008 RMK AO2 SLP104 T03560078
KPGD 241953Z 24007KT 10SM CLR 33/23 A3002 RMK AO2 LTG DSNT E RAB1855E07 SLP167 P0000 T03280228
KPGV 241935Z AUTO 00000KT 10SM -DZ SCT041 SCT050 SCT060 25/23 A2990 RMK AO2 LTG DSNT SE THRU W
KPHD 241953Z AUTO 34007KT 10SM SCT065 24/13 A3003 RMK AO2 SLP164 T02390133
KPHF 241954Z AUTO 08006KT 10SM SCT021 SCT090 31/23 A2987 RMK AO2 SLP113 T03060228 TSNO
KPHL 241954Z 32010KT 10SM SCT050 BKN270 28/13 A2986 RMK AO2 SLP111 T02830128
KPHN 241957Z AUTO 04009G14KT 330V060 10SM CLR 21/11 A3010 RMK AO2
KPHP 241955Z AUTO 10006KT 10SM CLR 38/17 A2971 RMK AO2 SLP033 T03780172
KPHT 241955Z AUTO 33007KT 10SM FEW040 SCT046 25/17 A3004 RMK
KPHX 241951Z 14009G18KT 10SM FEW120 FEW190 SCT250 44/09 A2979 RMK AO2 SLP063 CB DSNT NW-N T04440094
KPIA 241954Z 07009KT 10SM CLR 27/12 A3011 RMK AO2 SLP194 T02670117
KPIB 241955Z AUTO 19003KT 10SM SCT044 BKN050 32/21 A3000 RMK AO1
KPIE 241953Z 04005KT 10SM CLR 30/24 A3001 RMK AO2 SLP162 T03000239 $
KPIH 241953Z 25018G28KT 10SM CLR 26/04 A3016 RMK AO2 PK WND 24029/1937 SLP161 T02610039
KPIL 241953Z AUTO 11018G22KT 6SM HZ CLR 33/24 A2995 RMK AO2 SLP140 T03330239
KPIR 241953Z AUTO 15018KT 10SM CLR 35/19 A2971 RMK AO2 PK WND 15026/1934 SLP044 T03500194
KPIT 241951Z 01008KT 10SM SCT055 23/11 A3001 RMK AO2 SLP161 T02330106
KPKB 241653Z 22/15 A3004 RMK AO2 SLP165 T02170150 RVRNO $
KPKD 241953Z AUTO 14010KT 10SM CLR 23/13 A2996 RMK AO2 WSHFT 1911 SLP144 T02280128 TSNO
KPKV 241940Z AUTO 01005KT 10SM CLR 30/23 A2999 RMK AO2 T02970225
KPLN 241954Z AUTO 33005KT 10SM CLR 23/09 A3009 RMK AO2 SLP190 T02280089
KPLU 241955Z AUTO 23012G18KT 170V250 10SM BKN024 OVC034 19/14 A3022 RMK AO2
KPMD 241953Z VRB06KT 10SM CLR 37/01 A2992 RMK AO2 SLP099 T03720011
KPMP 241953Z 14011KT 10SM FEW040 SCT080 30/22 A3003 RMK AO2 LTG DSNT SW SLP169 T03000222 $
KPMV 241955Z AUTO 17013G18KT 10SM CLR 28/16 A3003 RMK AO2 T02750159
KPNA 241935Z AUTO 23018G26KT 10SM CLR 28/00 A3021 RMK AO2
KPNC 241953Z AUTO 14009KT 10SM CLR 32/21 A3003 RMK AO2 SLP154 T03170206
KPNE 241954Z 01007G17KT 10SM FEW055 28/12 A2988 RMK AO2 SLP116 T02780122
KPNM 241955Z AUTO 22005KT 10SM SCT060 26/13 A3008 RMK AO2 LTG DSNT SW
KPNS 241953Z 19012KT 10SM CLR 29/23 A2998 RMK AO2 SLP152 T02940228
KPNT 241955Z AUTO 05006KT 10SM CLR 24/12 A3011 RMK AO2
KPOB 241958Z AUTO VRB05KT 10SM FEW200 33/23 A2984 RMK AO2 SLP105 T03320225
KPOC 241947Z 26008KT 10SM SKC 36/05 A2986
KPOE 241955Z AUTO 04003KT 10SM SCT037 30/22 A3000 RMK AO2 SLP160 T03000217
KPOF 241953Z AUTO 02007KT 10SM CLR 28/10 A3006 RMK AO2 SLP173 T02780100
KPOU 241953Z 03011KT 10SM SCT050 26/14 A2986 RMK AO2 SLP106 T02560144
KPOV 241956Z AUTO 31008KT 7SM SCT048 22/10 A3006 RMK AO2 T02220103
KPPA 241935Z AUTO 21009G14KT 180V240 10SM CLR 35/13 A3012 RMK AO2 T03510125
KPPF 241952Z AUTO 16007KT 10SM CLR 31/19 A3007 RMK AO2 SLP171 T03060194
KPPO 241935Z AUTO 36011G14KT 10SM BKN040 21/12 A3013 RMK AO2 T02120117
KPPQ 241935Z AUTO 05006KT 10SM CLR 25/11 A3015 RMK AO2 T02490111
KPQI 241955Z AUTO 30005KT 10SM CLR 21/07 A2982 RMK AO1
KPQL 241953Z 20007KT 10SM CLR 31/22 A2998 RMK AO2 SLP153 T03060222
KPQN 241954Z AUTO 18016G20KT 10SM VCTS SCT010 SCT100 17/16 A2996 RMK AO2 LTG DSNT N THRU SE
KPRB 241953Z AUTO VRB03KT 10SM CLR 33/12 A2991 RMK AO2 SLP118 T03280117
KPRC 241953Z 17009KT 10SM FEW060 BKN090TCU 25/14 A3018 RMK AO2 RAE52 TSB1854E1857B20E48 SLP127 FRQT LTGCG DSNT NW SHRA ALQDS TCU ALQDS P0004 T02500144
KPRG 241935Z AUTO 35005KT 10SM SCT041 SCT050 25/16 A3010 RMK AO2 T02520157
KPRN 241956Z AUTO 23006KT 6SM HZ CLR 32/20 A2996 RMK AO2 SLP139 T03220200
KPRO 241955Z AUTO 19005KT 10SM CLR 23/16 A3010 RMK AO2 T02310156
KPRS 241935Z AUTO 10SM SCT090 36/12 A3006 RMK AO2 T03560116
KPRX 241955Z 11004KT 7SM CLR 31/21 A3004 RMK AO1
KPSC 241953Z 23017G24KT 10SM CLR 24/08 A3014 RMK AO2 PK WND 21028/1919 SLP204 T02440078
KPSF 241954Z AUTO 36009KT 10SM CLR 23/11 A2989 RMK AO2 SLP099 T02280111
KPSK 241955Z AUTO 00000KT 10SM -VCTSRA 24/22 A2997 RMK AO2 LTG DSNT SE AND S
KPSM 241858Z 11007KT 10SM SCT040 BKN080 BKN200 22/17 A2982 RMK AO2A SLP101 T02210171
KPSO 241955Z AUTO 23006G14KT 10SM CLR 27/05 A3040 RMK AO2 T02650045
KPSP 241953Z 00000KT 10SM CLR 44/M03 A2974 RMK AO2 SLP066 T04441028
KPSX 241953Z AUTO 12006KT 10SM BKN031 BKN039 31/22 A2999 RMK AO2 LTG DSNT E AND SE RAB1859E08 TSB10E26 SLP154 T03060222 PNO $
KPTB 241935Z 12003KT 10SM SCT070 32/23 A29070 RMK AO2 PWINO
KPTK 241953Z 33007KT 10SM BKN055 23/08 A3009 RMK AO2 SLP185 T02330083
KPTN 241955Z AUTO 23005KT 8SM CLR 33/23 A3002 RMK AO1
KPTS 241955Z AUTO 09003KT 7SM CLR 30/18 A3007 RMK AO2 T02950178
KPTT 241955Z AUTO 17014G19KT 10SM CLR 32/20 A3004 RMK AO2
KPTV 241955Z AUTO 27006KT 10SM CLR 31/13 A2993 RMK AO1
KPTW 241954Z AUTO 01008KT 10SM FEW060 27/13 A2989 RMK AO2 SLP117 T02670133
KPUB 241953Z 00000KT 10SM CLR 36/05 A3003 RMK AO2 SLP089 T03610050
KPUC 241953Z AUTO 18013G17KT 10SM VCTS SCT110 32/08 A3020 RMK AO2 LTG DSNT N SLP111 T03170083
KPUJ 241955Z AUTO 33008KT 10SM SCT037 SCT050 BKN100 28/23 A2997 RMK AO2
KPUW 241953Z AUTO 27015G22KT 10SM FEW050 18/04 A3018 RMK AO2 SLP215 T01830044
KPVB 241935Z AUTO 15006KT 10SM SCT046 25/12 A3012 RMK AO1 T02480121
KPVC 241955Z 01009KT 10SM SCT008 BKN080 20/18 A2983 RMK AO1
KPVD 241951Z 06007KT 10SM SCT029 SCT070 BKN220 OVC300 25/18 A2983 RMK AO2 SLP099 T02500183
KPVE 241955Z AUTO 33005KT 10SM SCT045 26/17 A3001 RMK
KPVF 241955Z AUTO 29009KT 280V340 10SM CLR 29/04 A3004 RMK AO1
KPVG 241955Z AUTO 01005KT 10SM SCT021 28/23 A2988 RMK AO1
KPVJ 241955Z AUTO 10004KT 10SM CLR 33/20 A3003 RMK AO2 T03260201
KPVU 241850Z 12008KT 15SM SCT090 34/06 A3007
KPVW 241935Z AUTO 00000KT 10SM SCT070 33/15 A3015 RMK AO2 T03250151
KPWA 241953Z 11004KT 9SM CLR 33/22 A3004 RMK AO2 SLP155 T03280222
KPWC 241954Z AUTO 15010KT 10SM CLR 22/14 A3002 RMK AO2 LTG DSNT S
KPWG 241955Z AUTO 08007KT 10SM FEW060 34/20 A3001 RMK AO1
KPWK 241952Z AUTO 09007KT 070V150 10SM CLR 23/07 A3014 RMK AO2 SLP205 T02280072
KPWM 241951Z 10008KT 10SM SCT075 BKN200 22/16 A2982 RMK AO2 SLP098 T02220161
KPWT 241955Z 03008KT 10SM BKN026 BKN033 OVC043 16/14 A3020 RMK AO1
KPYM 241952Z AUTO 07009KT 10SM BKN080 22/16 A2984 RMK AO2 SLP104 T02170156
KPYX 241935Z AUTO 23013G18KT 10SM CLR 38/12 A3006 RMK AO2 T03800115
KPZQ 241954Z AUTO 35006KT 10SM CLR 21/13 A3009 RMK AO2 T02100131
KQA4 241855Z 01018G25KT 9999 CLR 30/M01 A2968 RMK PK WND 01031/06 SLP946 WND DATA ESTMD ALSTG/SLP ESTMD Q1005
KQAR 241955Z AUTO 36010G20KT 350V050 6000 CLR 27/M02 A2980 RMK AO2 SLP018 T02671020
KQAY 241955Z AUTO 28004KT 4000 HZ CLR 39/04 A2946 RMK AO2 SLP973 T03860040 $
KQBF 241946Z AUTO VRB02KT 9999 BKN200 27/22 A2995 RMK AO2 SLP129
KQBL 241956Z AUTO VRB04KT 10SM FEW210 31/23 A3000 RMK AO2 LTG DSNT NE SLP165 T03060232
KQBR 241955Z AUTO VRB01KT 10SM CLR 35/21 A2987 RMK AO2 LTG DSNT E SLP111 T03490210 $
KQCC 241855Z AUTO VRB04KT 9999 FEW050 31/21 A2970 RMK AO2 SLP983 T03060214 $
KQCL 241955Z AUTO VRB04KT 6000 BR FEW017 SCT021 27/22 A2984 RMK AO2 SLP001 T02670221 $
KQEA 241937Z AUTO 00000KT 9999 BKN000 26/22 A2983 RMK AO2 SLP099
KQEB 241855Z AUTO 00000KT 6000 BR OVC041 17/12 Q1025 RMK AO2 SLP219 T01720124
KQFG 241955Z AUTO 14009G14KT 9999 BKN033 30/23 A2964 RMK AO2 SLP980 T02990228 $
KQFQ 241855Z AUTO VRB03KT 8SM -SHRA SCT004 BKN009 BKN018 21/ A2971 RMK AO2 LTG DSNT NE RAB1655E1807SHRAB1807 SLP057 P0020 T0214 $
KQGV 241955Z 27010G13KT 9999 CLR 35/05 A2948 RMK SLPNO QNH999MB PA +874
KQGX 241858Z AUTO 21004KT 9999 CLR 33/25 A2947 RMK AO2 SLPNO T03260251 $
KQHY 241956Z AUTO VRB05KT 10SM CLR 29/26 A3001 RMK AO2 LTG DSNT NE SLP169 T02930258
KQIR 241858Z AUTO 26007KT 9999 CLR 33/12 A2946 RMK AO2 SLP977 T03310115 $
KQL5 241855Z 10007KT 9000 HZ BKN035 31/23 A2963 RMK SLP985 T03060231
KQLQ 241855Z 17008G17KT 9999 CLR 23/16 A3006 RMK AO2A SLP011 WND DATA ESTMD ALTSG/SLP DATA ESTMD T02250160
KQQS 241955Z AUTO 07004KT 6000 CLR 23/01 A3004 RMK AO2 SLP974 T02270010
KQQY 241955Z AUTO VRB01KT 9999 FEW120 32/19 A2996 RMK AO2 SLP124 T03180185 $
KQRH 241955Z AUTO 23003KT 8000 CLR 37/15 A2973 RMK AO2 SLP065 T03650151 $
KQRU 241955Z AUTO 15008G13KT 9999 CLR 24/18 A2997 RMK AO2 SLP984 T02410178
KQRY 241955Z AUTO 22003KT 8000 CLR 24/16 A3001 RMK AO2 SLP988 T02390156
KQSA 241858Z AUTO 36019G22KT 9999 CLR 29/03 A2976 RMK AO2 PK WND 33034/01 SLP963 T02910034 403760277 $
KQSN 241855Z 06003KT 9000 HZ BKN039 26/01 A3002 RMK AO2A SLP006 WND DATA ESTMD ALSTG/SLP ESTMD T02610009
KQTH 241855Z AUTO 16019KT 9999 CLR 25/21 A2973 RMK AO2 SLP037 T02520211 $
KQTZ 241855Z 27004KT 9000 HZ CLR 37/04 A2946 RMK SLP973 WND DATA ESTMD ALSTG/SLP ESTMD
KQUD 241955Z AUTO VRB02KT 6SM FEW080 SCT110 22/19 A3025 RMK AO2 LTG DSNT NE SLP187 T02190185 $
KQVF 241955Z AUTO 18003KT 9999 FEW022 24/21 A3008 RMK AO2 SLP184 T02390211
KQWM 241955Z 29007KT 9999 CLR 36/05 A2949 RMK SLP974 QNH998
KQXT 241955Z 28007KT 4800 DU SKC 35/00 A2951 RMK SLP917 T03490000 PA2806 DA5709
KRAC 241953Z AUTO 07006KT 10SM CLR 21/09 A3015 RMK AO2 SLP208 T02060089
KRAL 241953Z VRB04KT 10SM CLR 38/01 A2982 RMK AO2 SLP078 T03830011
KRAP 241952Z 00000KT 10SM CLR 33/19 A2980 RMK AO2 SLP055 T03280194
KRAS 241935Z AUTO 14009KT 10SM CLR 31/25 A2998 RMK AO2 LTG DSNT E T03080245 PWINO
KRBD 241953Z 07008KT 10SM CLR 34/17 A3001 RMK AO2 SLP152 T03440167
KRBG 241953Z AUTO 36008KT 10SM BKN045 22/09 A3025 RMK AO2 SLP243 T02170089
KRBL 241954Z AUTO 01012KT 10SM CLR 33/05 A2996 RMK AO2 SLP139 T03280050
KRBO 241935Z AUTO 13017G22KT 7SM VCTS BKN055 BKN070 OVC100 32/22 A2996 RMK AO2 LTG DSNT E THRU W T03200223
KRBW 241955Z AUTO 23009KT 10SM 35/17 A2991 RMK AO2
KRCA 241958Z AUTO 14004KT 10SM FEW170 SCT200 32/16 A2979 RMK AO2 SLP060 T03180156 $
KRCE 241955Z AUTO 14003KT CLR 33/22 A3005 RMK AO2
KRCM 241935Z AUTO 12004KT 10SM CLR 27/13 A3010 RMK AO2
KRCR 241935Z AUTO 36004KT 10SM BKN049 25/11 A3011 RMK AO2
KRCX 241955Z AUTO 22005KT 10SM SCT060 25/12 A3009 RMK AO2 T02460117
KRCZ 241955Z AUTO 24009KT 7SM -RA 28/24 A2987 RMK AO2
KRDD 241953Z 33010KT 10SM CLR 32/05 A2995 RMK AO2 SLP137 T03170050
KRDG 241954Z 01008KT 10SM BKN060 25/12 A2989 RMK AO2 SLP124 T02500117
KRDK 241935Z AUTO 15010G22KT 10SM BKN120 26/16 A3006 RMK AO2
KRDM 241956Z 30010KT 10SM CLR 20/03 A3024 RMK AO2 SLP233 T02000033
KRDR 241958Z AUTO 15014G21KT 10SM CLR 25/17 A2989 RMK AO2 PK WND 18027/08 SLP125 T02450165
KRDU 241951Z 06005KT 3SM RA BR SCT038TCU BKN045 BKN130 BKN250 29/22 A2986 RMK AO2 RAB48 SLP106 TCU E-SE AND W-NW P0000 T02890222 $
KREO 241952Z AUTO VRB06KT 22/01 A3020 RMK AO1 SLP196 T02170011
KRFD 241954Z VRB03KT 10SM BKN060 BKN250 24/11 A3013 RMK AO2 SLP199 T02440106
KRFI 241955Z AUTO 33004KT 10SM SCT035 31/20 A3004 RMK AO2 T03100201
KRGK 241954Z AUTO 18008KT 10SM BKN060 28/11 A3004 RMK AO2 LTG DSNT W
KRHI 241953Z AUTO 22007KT 10SM BKN055 24/09 A3009 RMK AO2 SLP191 T02390094
KRHP 241935Z AUTO 25010KT 10SM SCT034 SCT045 BKN050 27/21 A2997 RMK AO2 T02730206
KRHV 241947Z 30008KT 10SM SKC 29/14 A2996
KRIC 241954Z 07007KT 2SM +RA SCT042 SCT060 OVC100 26/22 A2985 RMK AO2 RAB22 SLP112 P0005 T02560222
KRIL 241953Z AUTO 35004KT 10SM CLR 30/09 A3019 RMK AO2 LTG DSNT S SLP137 T03000089
KRIV 241958Z 30007KT 10SM FEW250 39/01 A2986 RMK AO2A SLP094 T03880006
KRIW 241953Z AUTO 26018G25KT 10SM CLR 34/M01 A3001 RMK AO2 PK WND 24030/1935 SLP067 T03441006
KRKD 241955Z AUTO 11004KT 10SM FEW047 SCT070 20/14 A2980 RMK AO1
KRKP 241953Z AUTO 12007KT 10SM CLR 33/22 A2996 RMK AO2 SLP148 T03280222
KRKR 241955Z AUTO 00000KT 10SM SCT031 29/21 A3003 RMK AO2 T02920207
KRKS 241954Z AUTO 21012G24KT 10SM FEW090 30/04 A3018 RMK AO2 PK WND 23030/1941 SLP115 T03000039
KRME 241953Z 27012G20KT 10SM BKN055 22/11 A2995 RMK AO2 SLP140 T02220111
KRMG 241953Z AUTO 31007KT 10SM SCT038 BKN047 31/22 A2993 RMK AO2 LTG DSNT S SLP123 T03110217
KRMN 241935Z AUTO 31004KT 10SM SCT060 OVC070 23/22 A2995 RMK AO2 T02340222
KRMY 241953Z AUTO 05003KT 10SM SCT049 21/10 A3010 RMK AO2 T02100097
KRNC 241955Z AUTO 32010KT 10SM SCT027 BKN036 BKN049 27/22 A2999 RMK
KRND 241858Z 08007KT 10SM SCT100 BKN130 BKN160 BKN210 32/19 A3002 RMK AO2A SLP157 T03230190
KRNH 241935Z AUTO 24005KT 10SM CLR 26/12 A3005 RMK AO2 T02570117
KRNM 241953Z 31010KT 10SM CLR 37/12 A2985 RMK AO2 SLP088 T03720122
KRNO 241955Z 03003KT 10SM CLR 27/02 A3013 RMK AO2 SLP145 T02720017
KRNP 241954Z AUTO 35005KT 10SM BKN050 21/08 A3010 RMK AO2 T02120080
KRNT 241953Z 18004KT 10SM FEW027 OVC034 18/13 A3019 RMK AO2 SLP227 T01830128
KRNV 241955Z AUTO 01009KT 10SM SCT021 SCT025 OVC035 28/25 A3001 RMK AO2 T02800245
KROA 241954Z 01007KT 10SM -RA FEW020 BKN049 OVC065 23/20 A2995
KROC 241954Z 33008KT 10SM FEW200 21/07 A3003 RMK AO2 SLP169 T02110072
KROG 241957Z VRB03KT 10SM CLR 29/16 A3009 RMK AO2 SLP175 T02940161
KROS 241955Z AUTO 22005KT 10SM BKN060 26/13 A3007 RMK AO2 LTG DSNT SW T02560126
KROW 241951Z 12010KT 10SM CLR 36/07 A3014 RMK AO2 SLP132 T03560072
KROX 241954Z AUTO 11005KT 10SM CLR 23/18 A2992 RMK AO2
KRPD 241955Z AUTO 19009KT 10SM SCT060 25/11 A3007 RMK AO2 T02520106
KRPH 241935Z AUTO 32004KT 10SM BKN055 35/19 A3001 RMK AO2 T03470187
KRPJ 241935Z AUTO 36007KT 10SM CLR 24/10 A3014 RMK AO2 T02420099
KRQB 241955Z AUTO 33005KT 10SM SCT055 22/08 A3010 RMK AO2 T02200078
KRQE 241953Z AUTO 18009G21KT 10SM BKN110 32/06 A3033 RMK AO2 SLP127 T03220056 TSNO
KRRL 241935Z AUTO 19005KT 10SM SCT055 24/11 A3009 RMK AO2 T02360111
KRRT 241954Z AUTO 07009KT 10SM CLR 22/17 A2992 RMK AO2
KRSL 241953Z AUTO 15019G25KT 10SM CLR 33/21 A2997 RMK AO2 PK WND 16030/1917 SLP128 T03280211
KRSN 241955Z AUTO 00000KT 10SM SCT040 31/23 A3004 RMK AO2 T03090232
KRSP 241854Z AUTO VRB05KT 10SM CLR 22/13 A2997 RMK AO2 SLP142 T02220128 $
KRST 241954Z 17008KT 10SM SCT055 25/14 A3006 RMK AO2 SLP176 T02500139
KRSV 241955Z AUTO 05007KT 10SM SCT043 SCT055 27/16 A3009 RMK AO2 T02700156
KRSW 241953Z 25007KT 10SM -RA FEW030 31/23 A3001 RMK AO2 SLP160 P0000 T03110228
KRTS 241955Z AUTO 07005KT 10SM CLR 25/01 A3017 RMK AO2
KRUE 241953Z AUTO 00000KT 10SM BKN040 OVC049 28/21 A3006 RMK AO2 SLP171 T02830211
KRUG 241955Z AUTO 15014G20KT 10SM CLR 24/17 A2983 RMK AO2
KRUQ 241935Z AUTO 25006KT 10SM SCT043 SCT050 30/21 A2988 RMK AO2 T02980214
KRUT 241955Z 33008KT 10SM CLR 22/08 A2991 RMK AO1
KRVS 241953Z 12007KT 10SM BKN039 32/23 A3003 RMK AO2 SLP170 T03170233
KRWF 241953Z AUTO 00000KT 3SM RA FEW050 BKN090 OVC110 23/17 A3008 RMK AO2 RAB31 SLP184 P0005 T02280167
KRWI 241953Z AUTO 11004KT 10SM FEW036 SCT120 29/22 A2986 RMK AO2 LTG DSNT S AND SW SLP110 T02940217
KRWL 241953Z AUTO 24027G39KT 10SM CLR 30/04 A3020 RMK AO2 PK WND 23040/1917 SLP104 T03000044
KRWV 241935Z AUTO 04006KT 10SM FEW038 32/23 A3003 RMK AO2
KRXE 241953Z AUTO 22023G32KT 10SM CLR 27/03 A3009 RMK AO2 PK WND 21034/1943 SLP137 T02670028
KRYN 241945Z 10013G29KT 10 CLR 41/05 A2994
KRYT 241853Z AUTO VRB05KT 10SM SCT049 24/13 A2992 RMK AO2 SLP121 T02440128 $
KRYV 241935Z AUTO 30003KT 10SM SCT050 24/11 A3010 RMK AO2 T02390114
KRYW 241935Z AUTO 02004KT 10SM SCT036 31/21 A3004 RMK AO2 T03130206
KRYY 241947Z 33012G22KT 7SM BKN030 30/21 A2997
KRZL 241955Z AUTO 03005KT 10SM SCT050 23/12 A3011 RMK AO2
KRZN 241930Z AUTO 22008KT 10SM OVC065 26/11 A3006 RMK AO2 T02550114
KRZR 241955Z AUTO VRB03KT 10SM SCT043 SCT049 BKN100 29/19 A2995 RMK
KS25 241955Z AUTO 13017G30KT 10SM CLR 22/18 A2969 RMK AO2
KSAA 241955Z AUTO 22015G21KT 10SM BKN095 OVC120 25/06 A3028 RMK AO2
KSAC 241953Z 30009KT 10SM CLR 32/11 A2992 RMK AO2 SLP133 T03170111
KSAD 241951Z AUTO 12016G20KT 10SM CLR 38/06 A3003 RMK AO2 SLP103 T03780061
KSAF 241953Z 21005KT 10SM CLR 29/04 A3031 RMK AO2 SLP149 T02890044
KSAN 241951Z 28007KT 10SM FEW010 SCT070 SCT250 26/18 A2983 RMK AO2 SLP102 T02610178 $
KSAR 242000Z AUTO 04009KT 10SM SCT050 24/13 A3009 RMK AO2
KSAT 241951Z 06007KT 10SM FEW065 FEW100 BKN250 33/19 A3000 RMK AO2 SLP139 TCU DSNT SE AND NW-N T03330189
KSAV 241953Z 25010G17KT 10SM SCT050 34/21 A2992 RMK AO2 SLP132 T03440211
KSAW 241945Z 23007KT 10SM SCT055 23/09 A3007
KSAZ 241953Z AUTO 16012G19KT 10SM CLR 22/12 A2994 RMK AO2 LTG DSNT S
KSBA 241953Z 15007KT 10SM CLR 27/17 A2982 RMK AO2 SLP097 T02670172
KSBD 241950Z 26003KT 10SM FEW050 FEW100 38/02 A2983
KSBM 241953Z AUTO 14007KT 10SM CLR 22/08 A3012 RMK AO2 SLP198 T02170083
KSBN 241954Z 01006KT 10SM SCT050 23/10 A3012 RMK AO2 SLP196 T02330100
KSBO 241935Z AUTO 27010G19KT 10SM SCT060 SCT075 35/22 A2994 RMK AO2
KSBP 241956Z 32021G28KT 10SM CLR 24/14 A2987 RMK AO2 PK WND 32030/1937 SLP113 T02390144 $
KSBS 241954Z AUTO 00000KT 10SM SCT100 SCT120 24/09 A3030 RMK AO1 T02380086
KSCD 241955Z AUTO 27008KT 10SM SCT038 SCT048 SCT055 34/20 A2995 RMK AO2 T03420198
KSCF 241955Z AUTO 27013KT 10SM CLR 29/24 A3000 RMK A01
KSCH 241550Z 00000KT 10SM SCT030 BKN038 BKN045 21/14 A2992
KSCK 241955Z 31010KT 280V350 10SM CLR 31/13 A2992 RMK AO2 SLP132 T03110133 PNO $
KSDA 241935Z AUTO 16018KT 10SM CLR 27/17 A3004 RMK AO2
KSDB 241948Z AUTO 32014KT 10SM CLR 32/M02 A3010 RMK AO2 SLP128 T03171017
KSDF 241956Z 02015G18KT 10SM BKN050 27/12 A3005 RMK AO2 SLP171 T02670122
KSDL 241953Z 18008KT 10SM CLR 43/10 A2984 RMK AO2 SLP072 T04280100
KSDM 241953Z 30007KT 10SM CLR 28/18 A2982 RMK AO2 SLP092 T02830178
KSDY 241955Z AUTO 13015G20KT 10SM CLR 29/19 A2972 RMK AO1
KSEA 241953Z 22010G18KT 10SM BKN025 BKN040 18/12 A3020 RMK AO2 SLP232 T01830122
KSEE 241935Z AUTO 23003KT 10SM CLR 36/17 A2982 RMK AO2
KSEG 241953Z AUTO 32009KT 10SM BKN060 24/12 A2995 RMK AO2 SLP137 T02390122
KSEM 241955Z AUTO 23004KT 10SM SCT100 SCT120 29/23 A2996 RMK AO2
KSEP 241955Z AUTO 36003KT 7SM SCT050 33/18 A3006 RMK AO2 T03330184
KSET 241954Z AUTO 01012G16KT 10SM CLR 27/12 A3010 RMK AO1 SLP187 T02670117
KSEZ 241935Z AUTO 15004KT 10SM CLR 35/09 A3016 RMK AO2
KSFB 241953Z 18005KT 10SM BKN042 OVC050 33/23 A2999 RMK AO2 LTG DSNT SW SLP153 T03280233
KSFF 241953Z 21016G23KT 10SM BKN050 OVC070 19/05 A3012 RMK AO2 PK WND 22028/1912 SLP193 T01940050
KSFM 241955Z AUTO 11006KT 10SM FEW049 SCT055 BKN080 23/16 A2982 RMK AO1
KSFO 241956Z 32011KT 10SM CLR 28/16 A2995 RMK AO2 SLP141 T02780156 $
KSFQ 241935Z AUTO 00000KT 10SM SCT020 SCT025 BKN040 27/22 A2988 RMK AO2 LTG DSNT S T02720220
KSFY 241935Z AUTO 20004KT 10SM SCT049 OVC055 25/11 A3011 RMK AO2 T02480108
KSFZ 241955Z 07003KT 10SM BKN024 OVC030 23/17 A2986 RMK AO1
KSGF 241952Z 08007KT 10SM CLR 28/13 A3010 RMK AO2 SLP180 T02780128
KSGH 241956Z AUTO 36012KT 10SM BKN047 BKN055 23/13 A3008 RMK AO2 T02270127 BKN V OVC SLP181
KSGJ 241858Z 26010KT 10SM SCT045 35/20 A3000 RMK AO2 SLP157 T03500200 $
KSGR 241953Z 20004KT 10SM CLR 33/23 A2998 RMK AO2 LTG DSNT E-S SLP152 T03280228
KSGS 241951Z AUTO 20007KT 10SM BKN065 27/12 A3006 RMK AO2 LTG DSNT W T02690121
KSGT 241955Z AUTO 03007KT 10SM CLR 27/18 A3006 RMK AO1
KSGU 241955Z 13003KT 10SM CLR 39/05 A2994 RMK AO1
KSHD 241935Z AUTO 01007KT 10SM -VCTSRA OVC024 20/18 A2997 RMK AO2 P0003 T01960177
KSHL 241935Z AUTO 17018G30KT 10SM CLR 20/16 A2995 RMK AO2
KSHN 241953Z AUTO 23017G25KT 10SM FEW075 20/12 A3017 RMK AO2 PK WND 23030/1915 SLP215 T02000117 TSNO
KSHR 241953Z AUTO 11009KT 10SM CLR 37/11 A2979 RMK AO2 SLP035 T03720111
KSHV 241956Z VRB04KT 10SM OVC019 27/21 A3003 RMK AO2 SLP165 T02720211
KSIF 241955Z AUTO 00000KT 10SM SCT038 SCT046 SCT085 28/22 A2986 RMK AO2 T02840224
KSIY 241953Z AUTO 00000KT 10SM CLR 23/01 A3018 RMK AO2 SLP216 T02280006
KSJC 241953Z 33007KT 10SM FEW170 27/13 A2994 RMK AO2 SLP137 T02670128
KSJN 241954Z AUTO 19010G15KT 10SM CLR 32/03 A3022 RMK AO2 SLP124 T03170028
KSJS 241935Z AUTO 36004KT 10SM OVC007 19/17 A3002 RMK AO2 T01850171
KSJT 241951Z 11008KT 10SM CLR 36/17 A3005 RMK AO2 SLP146 T03560167
KSJX 241956Z AUTO 24009KT 10SM CLR 20/13 A3010 RMK AO2 T01980126
KSKA 241958Z AUTO 20018G22KT 10SM SCT042 OVC065 17/06 A3012 RMK AO2 PK WND 22026/37 SLP200 T01650062
KSKF 241859Z 08005KT 10SM FEW090 SCT120 BKN150 BKN170 BKN190 32/21 A3001 RMK SLP154 T03150214 $
KSKX 241955Z AUTO 20007KT 190V260 FEW080 28/07 A3036 RMK AO1
KSLB 241955Z AUTO 17019G29KT 7SM CLR 18/17 A2997 RMK AO2 P0003
KSLC 241953Z 31011G22KT 270V340 10SM FEW095 SCT120 SCT140 33/04 A3003 RMK AO2 SLP099 FU SCT120 FU ALQDS TCU DSNT E ACSL DSNT SE AND SW T03280044
KSLE 241956Z 14007KT 10SM FEW046 BKN060 20/12 A3026 RMK AO2 SLP247 T02000122
KSLG 241955Z AUTO 19005KT 10SM SCT027 28/19 A3009 RMK AO1
KSLH 241955Z AUTO 28004KT 10SM CLR 22/10 A3008 RMK AO2 T02270100
KSLI 241958Z 20009KT 10SM CLR 30/18 A2981 RMK AO2A SLP097 T02970180
KSLK 241951Z AUTO 28008KT 10SM FEW041 18/09 A2996 RMK AO2 SLP143 T01830089
KSLN 241953Z 14019G25KT 10SM CLR 34/18 A3000 RMK AO2 PK WND 14026/1943 SLP142 T03440183
KSLO 241955Z AUTO 01007KT 350V060 10SM SCT043 BKN050 26/16 A3010 RMK AO2 T02640155
KSLR 241935Z AUTO 08004KT 10SM CLR 31/20 A3005 RMK AO2 T03050204
KSME 241935Z AUTO 02008KT 10SM SCT023 OVC030 22/16 A3003 RMK AO2
KSMF 241953Z 35010KT 10SM CLR 31/11 A2992 RMK AO2 SLP131 T03060106
KSMN 241955Z AUTO 22015G19KT 10SM CLR 25/M02 A3000 RMK AO1
KSMO 241951Z 23007KT 10SM CLR 28/16 A2983 RMK AO2 SLP100 T02780161
KSMQ 241953Z AUTO 01003KT 10SM OVC060 27/13 A2984 RMK AO2 SLP105 T02670133
KSMS 241955Z AUTO 25010G16KT 10SM CLR 34/23 A2987 RMK AO2 LTG DSNT N AND NE
KSMX 241951Z 31014G22KT 7SM CLR 24/14 A2989 RMK AO2 PK WND 31026/1852 SLP120 T02390144 $
KSNA 241953Z 24007KT 200V260 10SM FEW040 SCT300 30/17 A2981 RMK AO2 SLP093 T03000167
KSNC 241935Z AUTO 33006KT 10SM FEW090 26/15 A2984 RMK AO2
KSNK 241935Z AUTO 06006KT 10SM CLR 35/15 A3009 RMK AO2 T03480154
KSNL 241955Z AUTO 14005KT 10SM SCT036 33/25 A3006 RMK AO2
KSNS 241953Z 26012KT 10SM CLR 23/14 A2994 RMK AO2 SLP148 T02280144
KSNT 241951Z AUTO 32006KT 19/M08 A3023 RMK AO1 SLP148 T01941083
KSNY 241953Z AUTO 23003KT 10SM CLR 37/07 A2996 RMK AO2 LTG DSNT N AND W SLP078 T03670067
KSOA 241935Z AUTO 04006G12KT 10SM FEW050 FEW070 FEW080 35/15 A3009 RMK AO2
KSOP 241955Z AUTO 25005KT 10SM CLR 31/21 A2986 RMK AO1 LTG DSNT S
KSOW 241955Z AUTO 20012G16KT 10SM CLR 29/04 A3031 RMK AO2
KSPA 241955Z AUTO 25008KT 10SM SCT045 SCT055 SCT075 32/21 A2988 RMK AO2 LTG DSNT NW P0001
KSPB 241953Z AUTO 12006KT 10SM SCT033 BKN043 BKN055 19/12 A3024 RMK AO2 SLP240 T01940117
KSPD 241856Z AUTO 19016G24KT 35/09 A3009 RMK AO1 PK WND 20026/1814 SLP113 T03500094
KSPF 241915Z AUTO 09007KT 10SM CLR 32/19 A2985 RMK AO2
KSPG 241953Z 16005KT 10SM SCT036 SCT055 BKN075 30/23 A3000 RMK AO2 SLP158 T03000233
KSPI 241952Z 36008KT 10SM CLR 26/12 A3011 RMK AO2 SLP193 T02610117
KSPL 241955Z AUTO 12009KT CLR 32/26 A2997 RMK AO1
KSPR 241955Z AUTO 29012KT 9SM CLR 29/24 A2999 RMK A01
KSPS 241952Z 12006KT 10SM FEW050 33/22 A3001 RMK AO2 SLP148 T03330217
KSPW 241953Z AUTO 21010KT 10SM -TSRA FEW085 SCT110 19/14 A2999 RMK AO2 PK WND 18033/1905 WSHFT 1925 LTG DSNT N AND S AND NW RAE18B37 TSB50 SLP154 P0002 T01890144
KSQI 241955Z 05004KT 10SM BKN050 BKN060 23/12 A3012 RMK AO1
KSQL 241947Z 35006KT 10SM SKC 27/15 A2996
KSRB 241955Z AUTO 36007KT 10SM FEW025 SCT031 27/21 A2999 RMK
KSRC 241956Z AUTO 35005KT 10SM CLR 28/18 A3006 RMK AO2 PWINO TSNO T02770177 SLP182 $
KSRQ 241953Z 24009KT 10SM CLR 32/23 A3000 RMK AO2 SLP159 T03220233
KSRR 241935Z AUTO 10SM CLR 27/05 A3040 RMK AO2
KSSC 241958Z AUTO 21013G21KT 10SM FEW050 34/22 A2985 RMK AO2 SLP107 T03400221 $
KSSF 241953Z 06007KT 10SM SCT090 33/21 A2998 RMK AO2 SLP139 T03280211 $
KSSI 241953Z AUTO 24012G17KT 10SM FEW055 34/21 A2995 RMK AO2 SLP140 T03390206
KSTC 241953Z 25008KT 10SM FEW055 SCT100 27/12 A3010 RMK AO2 SLP196 T02670122
KSTE 241935Z AUTO 22006KT 180V240 10SM SCT060 24/08 A3010 RMK AO2 T02380082
KSTF 241955Z AUTO 31004KT 10SM CLR 31/21 A2997 RMK AO2
KSTJ 241953Z 17016KT 10SM CLR 27/16 A3005 RMK AO2 SLP169 T02720161
KSTK 241955Z AUTO 15006KT 10SM CLR 40/12 A2992 RMK AO2
KSTL 241951Z 03011KT 10SM FEW060 BKN250 28/12 A3010 RMK AO2 SLP185 T02780122
KSTP 241953Z AUTO 23009KT 190V250 10SM SCT060 26/13 A3006 RMK AO2 SLP173 T02610133
KSTS 241953Z 15004KT 10SM CLR 31/13 A2993 RMK AO2 SLP127 T03060128
KSUA 241947Z 15010G15KT 7SM VCSH SCT030 BKN090 31/21 A3003
KSUE 241955Z AUTO 16010KT 10SM SCT050 21/09 A3011 RMK AO1
KSUN 241947Z 28010G15 10SM SKC 23/M01 A3015
KSUS 241954Z 02008G16KT 10SM CLR 27/11 A3009 RMK AO2 SLP185 T02720106
KSUT 241955Z AUTO 21010G16KT 10SM CLR 31/25 A2988 RMK AO2 T03130250
KSUU 241855Z 03010KT 10SM CLR 30/11 A2994 RMK AO2 SLP139 T03030108 $
KSUW 241935Z AUTO 10004KT 10SM SCT050 BKN065 24/16 A3004 RMK AO2 T02370155
KSUX 241952Z AUTO 14015G22KT 10SM CLR 24/17 A2998 RMK AO2 PK WND 13027/1932 SLP148 T02440167
KSVC 241935Z AUTO 10010G23KT 10SM CLR 31/05 A3028 RMK AO2
KSVH 241955Z AUTO 26006KT 10SM SCT044 30/21 A2988 RMK AO2 T03030207
KSVN 241958Z AUTO 24008G16KT 10SM FEW055 34/23 A2991 RMK AO2 SLP131 T03390226
KSWF 241945Z 03010KT 20SM BKN040 24/15 A2988
KSWO 241953Z 16006KT 10SM CLR 33/21 A3002 RMK AO2 SLP153 T03330211
KSWW 241935Z AUTO 06005G16KT 10SM SCT075 SCT100 36/15 A3011 RMK AO2 T03550148
KSXS 241956Z AUTO 27008G13KT 12SM FEW150 31/21 A2999 RMK AO2 LTG DSNT SE-SW SLP153 T03140208
KSXT 241956Z AUTO VRB05KT 10SM CLR 16/07 A3027 RMK AO2 SLP235 T01560067
KSYF 241935Z AUTO 20020G29KT 10SM CLR 38/M01 A2993 RMK AO2 T03821015
KSYI 241955Z AUTO 01009KT 10SM FEW030 28/22 A2999 RMK
KSYM 241950Z AUTO 00000KT 10SM SCT034 OVC044 22/15 A3006 RMK AO2
KSYN 241951Z AUTO 21007KT 10SM SCT060 27/13 A3005 RMK AO2 LTG DSNT NW T02700134
KSYR 241954Z 36010G18KT 330V040 10SM FEW043 SCT200 22/09 A2999 RMK AO2 SLP149 T02220089
KSZL 241958Z 11006KT 10SM CLR 27/07 A3010 RMK AO2A SLP189 T02730070
KSZT 241955Z AUTO 23004KT 10SM SCT029 BKN042 OVC055 12/10 A3011 RMK AO2
KT20 241935Z AUTO 10005KT 10SM CLR 33/21 A2999 RMK AO2 T03310212
KT35 241935Z AUTO 00000KT 10SM SCT050 32/22 A3001 RMK AO2 T03180217
KT65 241935Z AUTO 00000KT 10SM SCT060 37/17 A2993 RMK AO2 T03670174
KT82 241955Z AUTO 01004KT 10SM SCT070 SCT090 BKN110 33/15 A3004 RMK AO2 T03280154
KTAD 241954Z AUTO 19007KT 150V210 10SM CLR 34/06 A3015 RMK AO2 SLP106 T03440056
KTAN 241952Z AUTO VRB04KT 10SM FEW080 24/17 A2982 RMK AO2 SLP098 T02440172
KTAZ 241935Z AUTO 01006KT 10SM SCT046 23/13 A3012 RMK AO2
KTBN 241958Z AUTO VRB02KT 10SM FEW200 27/12 A3011 RMK AO2 SLP189 T02710122
KTBR 241935Z AUTO 26009G17KT 230V300 10SM SCT055 SCT070 33/22 A2993 RMK AO2 T03300219 TSNO
KTBX 241955Z AUTO 16020G34KT 130V190 10SM CLR 28/M04 A3023 RMK AO2
KTCC 241953Z AUTO 23009KT 10SM CLR 36/07 A3013 RMK AO2 SLP127 T03610072
KTCL 241953Z 32010KT 10SM FEW034 33/22 A2995 RMK AO2 SLP139 T03280222
KTCM 241958Z AUTO 24011G19KT 10SM BKN028 OVC036 19/12 A3020 RMK AO2 SLP230 T01910122 $
KTCS 241953Z AUTO 10SM FEW090 33/08 A3020 RMK AO2 SLP132 T03280083 TSNO
KTDF 241935Z AUTO 20003KT 10SM SCT029 28/21 A2989 RMK AO2 LTG DSNT N AND S
KTDR 241956Z AUTO VRB05G12KT 12SM CLR 30/25 A2999 RMK AO2 LTG DSNT N-NE SLP159 T02970248
KTDZ 241953Z AUTO 04007KT 020V090 10SM FEW050 23/09 A3010 RMK AO2 SLP188 T02330094 TSNO
KTEB 241951Z 32004KT 10SM FEW050 SCT070 28/14 A2984 RMK AO2 SLP103 T02830139
KTEW 241953Z AUTO 02008KT 10SM BKN050 23/10 A3010 RMK AO2 T02260100
KTEX 241937Z AUTO 14003KT 10SM SCT065 SCT100 BKN120 24/04 A3049 RMK AO2 LTG DSNT N AND W
KTFP 241935Z AUTO 14011G16KT 10SM SCT030 SCT039 SCT050 34/22 A2997 RMK AO2 LTG DSNT E T03380221
KTHA 241955Z AUTO 31009KT 10SM FEW035 28/19 A2999 RMK
KTHV 241953Z AUTO 35008KT 10SM FEW055 26/13 A2992 RMK AO2 SLP129 T02560133
KTIF 241935Z 19017G24KT 10SM CLR 36/19 A2989 RMK AO2 T03560187 PWINO
KTIK 241958Z AUTO 12004KT 10SM CLR 32/22 A3005 RMK AO2 SLP168 T03150223 $
KTIP 241935Z AUTO 05008KT 10SM SCT045 25/11 A3013 RMK AO2 T02510110 TSNO
KTIW 241953Z 21012G23KT 10SM SCT025 BKN028 19/11 A3019 RMK AO2 SLP222 T01940111
KTIX 241847Z 08007KT 7SM BKN039 31/24 A3002
KTKC 241953Z AUTO 31009KT 10SM -VCTSRA SCT055 SCT065 BKN085 20/17 A3009 RMK AO2 LTG DSNT ALQS P0002 T01950170
KTKI 241953Z 04007KT 10SM CLR 33/19 A3001 RMK AO2 SLP156 T03280189
KTKV 241955Z AUTO 00000KT 10SM CLR 23/11 A3009 RMK AO2 T02250110
KTLH 241953Z 02004KT 6SM -RA FEW040CB BKN080 BKN250 26/23 A3000 RMK AO2 TSB05E50RAB27 SLP159 CB NE AND S AND W MOV NE P0000 T02560228
KTMA 241930Z AUTO 24008KT 10SM SCT046 32/19 A2998 RMK AO2 T03240189 TSNO
KTMB 241953Z 28004KT 10SM BR CLR 30/23 A3003 RMK AO2 LTG DSNT NE AND SW SLP169 T03000233
KTME 241955Z AUTO 34003KT 10SM FEW038 32/23 A3000 RMK AO2
KTMK 241955Z AUTO 30005KT 10SM BKN017 BKN025 OVC032 17/14 A3030 RMK AO2
KTNB 241935Z AUTO 32010KT 10SM SCT037 SCT043 SCT049 26/15 A3002 RMK AO2 LTG DSNT SW THRU N T02560151
KTNU 241935Z AUTO 16009G16KT 10SM CLR 26/15 A3008 RMK AO2
KTOA 241947Z 29010KT 10SM FEW250 28/19 A2983
KTOB 241954Z AUTO 19009KT 10SM SCT049 25/14 A3008 RMK AO2 LTG DSNT NW
KTOC 241935Z AUTO 00000KT 10SM SCT017 SCT033 BKN080 30/25 A2993 RMK AO2 T02970248
KTOI 241953Z AUTO 24008KT 10SM CLR 32/20 A2997 RMK AO2 SLP142 T03220200
KTOL 241952Z 03009KT 10SM BKN055 24/09 A3008 RMK AO2 SLP185 T02390089 $
KTOP 241953Z 14012KT 10SM CLR 30/16 A3006 RMK AO2 SLP170 T03000161
KTOR 241953Z AUTO 28011G19KT 10SM CLR 38/07 A2990 RMK AO2 SLP057 T03780072
KTPA 241953Z 26005KT 10SM FEW040 SCT250 31/23 A3002 RMK AO2 SLP164 MDT CU SW-W T03060228
KTPH 241956Z AUTO VRB04KT CLR 31/M04 A3013 RMK AO2 SLP110 T03111044 $
KTPL 241955Z AUTO 13006KT 10SM SCT047 BKN055 32/21 A3001 RMK AO1
KTQE 241954Z AUTO 11013KT 10SM CLR 28/17 A3003 RMK AO2 SLP158 T02830167
KTQH 241955Z AUTO 00000KT 10SM SCT025 28/21 A3007 RMK AO2
KTRI 241953Z 31008KT 7SM -TSRA SCT024CB SCT039 BKN050 23/19 A2996 RMK AO2 PK WND 30029/1926 WSHFT 1913 SLP121 TSB16 OCNL LTGIC VC E TS VC E MOV E P0022 T02280194
KTRK 241945Z 16004KT 10SM SKC 24/M01 A3020 RMK NOSPECI
KTRL 241953Z AUTO VRB04KT 10SM CLR 33/19 A3002 RMK AO2 SLP157 T03280189
KTRM 241952Z AUTO 10SM CLR 44/11 A2967 RMK AO2 SLP051 T04390106 TSNO
KTSP 241955Z AUTO 31016G20KT 10SM CLR 27/11 A3007 RMK AO2
KTTA 241858Z AUTO 31004KT 10SM 31/22 A2986 RMK AO2
KTTD 241953Z 03006KT 10SM BKN032 OVC039 18/13 A3025 RMK AO2 SLP241 T01830128
KTTF 241952Z AUTO 08003KT 10SM BKN060 23/09 A3007 RMK AO2
KTTN 241953Z VRB06KT 10SM CLR 27/14 A2986 RMK AO2 SLP102 T02670139
KTTS 241958Z AUTO 10006KT 10SM FEW034 BKN043 BKN050 BKN065 31/26 A3000 RMK AO2 SLP162 T03140264
KTUL 241953Z 13006KT 10SM SCT038 31/22 A3002 RMK AO2 SLP157 T03110217
KTUP 241953Z AUTO 02008KT 10SM BKN033 BKN040 29/21 A2999 RMK AO2 SLP152 T02890206
KTUS 241953Z 13016G24KT 100V170 10SM CLR 41/03 A2996 RMK AO2 SLP085 T04110033
KTVC 241953Z 03008KT 10SM FEW050 22/06 A3009 RMK AO2 SLP191 T02220061
KTVF 241955Z AUTO 13014G21KT 10SM CLR 23/16 A2990 RMK AO1
KTVI 241955Z AUTO 25007KT 10SM VCTS SCT065 SCT095 32/22 A2999 RMK AO2 LTG DSNT S AND SW
KTVK 241935Z AUTO 13010KT 10SM CLR 25/16 A3008 RMK AO2
KTVL 241953Z AUTO VRB03KT 10SM CLR 24/04 A3022 RMK AO2 SLP172 T02440039
KTVR 241953Z AUTO 10SM SCT030 32/24 A2998 RMK AO2 SLP159 T03220239 TSNO
KTWF 241953Z 28010G22KT 10SM CLR 23/03 A3020 RMK AO2 SLP172 T02280033
KTWM 241954Z AUTO 18007KT 10SM SCT050 SCT065 23/14 A3003 RMK AO2
KTXK 241953Z 07005KT 8SM OVC019 26/22 A3005 RMK AO2 SLP172 T02560217
KTYQ 241955Z AUTO 07004KT 10SM BKN050 23/10 A3011 RMK AO2 T02300100
KTYR 241953Z VRB05KT 10SM CLR 32/21 A3002 RMK AO2 SLP159 P0001 T03170206
KTYS 241953Z 30006KT 10SM FEW035 SCT050 SCT120 BKN250 29/21 A2993 RMK AO2 SLP122 T02890206
KTZR 241950Z 36006G14KT 10SM SCT048 OVC065 23/14 A3004
KU16 241758Z AUTO 36007G14KT CLR 31/M01 A3007 RMK AO2 SLP802 T03111006 10311 20150 50004 $
KUAO 241953Z AUTO VRB06KT 10SM SCT032 SCT041 19/11 A3027 RMK AO2 SLP250 T01890106
KUBE 241935Z AUTO 20007KT 10SM BKN060 23/12 A3007 RMK AO2
KUCP 241956Z AUTO 34008KT 10SM 23/12 A3003 RMK AO2 TSNO T02270116 SLP181 $
KUCY 241935Z AUTO 36010KT 10SM FEW042 25/17 A3003 RMK
KUDG 241955Z AUTO 27004KT 10SM FEW060 30/22 A2988 RMK AO1 LTG DSNT E TSE31
KUES 241945Z 00000KT 10SM SCT055 22/08 A3013
KUGN 241952Z 07006KT 10SM CLR 21/07 A3013 RMK AO2 SLP197 T02060072
KUIL 241953Z AUTO 26008KT 7SM BKN034 OVC045 16/11 A3023 RMK AO2 SLP238 T01610111
KUIN 241954Z AUTO 12007KT 10SM SCT047 25/13 A3011 RMK AO2 SLP191 T02500128
KUKF 241935Z AUTO 23005KT 10SM CLR 29/21 A2996 RMK AO2 LTG DSNT N AND NW
KUKI 241956Z AUTO 00000KT 10SM CLR 31/11 A2995 RMK AO2 SLP134 T03060111
KUKT 241955Z AUTO 34005KT 10SM SCT060 25/13 A2989 RMK AO1
KULM 241954Z AUTO 23008KT 10SM VCTS BKN046 BKN055 25/16 A3009 RMK AO2 LTG DSNT S THRU NW
KUNI 241955Z AUTO 36008KT 10SM SCT050 25/12 A3000 RMK AO2 T02450120
KUNO 241953Z AUTO 35006KT 10SM CLR 27/13 A3010 RMK AO2 SLP181 T02720133
KUNU 241935Z AUTO 23003KT 10SM BKN050 23/07 A3012 RMK AO2 T02300070
KUNV 241954Z 36009KT 10SM BKN050 23/11 A2998
KUOX 241935Z AUTO 33006KT 10SM FEW029 28/20 A3003 RMK AO2
KUSE 241955Z AUTO 03007KT 10SM SCT060 24/10 A3009 RMK AO2
KUTA 241955Z AUTO 35009KT 10SM CLR 27/15 A3004 RMK AO2
KUTS 241953Z AUTO VRB03KT 10SM BKN043 32/21 A3001 RMK AO2 SLP157 T03170211
KUUU 241953Z AUTO 02007KT 10SM FEW080 24/18 A2982 RMK AO2 SLP097 T02390178
KUVA 241955Z AUTO 02005KT 10SM SCT048 34/21 A2999 RMK AO2 T03400213
KUXL 241935Z AUTO 32005KT 10SM SCT032 32/24 A3000 RMK AO2 T03220239
KUZA 241954Z AUTO 03005KT 10SM SCT030 SCT040 28/23 A2989 RMK AO2 LTG DSNT SE AND W TSB26E48 SLP108 T02780228
KVAD 241858Z AUTO 21009G16KT 10SM FEW046 SCT160 BKN190 33/27 A2998 RMK AO2 SLP152 T03300270 $
KVAF 241955Z AUTO VRB05G10KT 5SM HZ CLR 29/22 A3001 RMK A01
KVAY 241954Z AUTO 34006KT 10SM FEW050 27/14 A2986 RMK AO2 SLP111 T02670144
KVBG 241955Z 31018G23KT 7SM FEW003 SCT005 SCT250 21/15 A2991 RMK AO2 SLP119 T02110150 $
KVBS 241955Z AUTO 29007KT 10SM FEW020 28/24 A2998 RMK A01
KVBT 241955Z AUTO 22004KT 10SM BKN033 OVC043 28/20 A3009 RMK AO1
KVCB 241953Z AUTO 02007KT 10SM CLR 33/09 A2994 RMK AO2 SLP136 T03280089
KVCT 241951Z 10SM CLR 33/23 A2999 RMK AO2 WSHFT 1846 SLP153 T03280228
KVCV 241935Z AUTO 36004KT 10SM SCT110 36/02 A2996 RMK AO2
KVDF 241955Z AUTO 00000KT 10SM CLR 33/23 A3001 RMK AO2
KVDI 241935Z AUTO 25006KT 10SM 32/22 A2995 RMK AO2
KVEL 241953Z AUTO 21008KT 10SM CLR 31/09 A3014 RMK AO2 SLP123 T03110089
KVER 241935Z AUTO 13006KT 10SM CLR 27/12 A3011 RMK AO2 T02730122
KVES 241935Z AUTO 03010KT 10SM BKN050 22/11 A3009 RMK AO2
KVGT 241953Z 16014G19KT 10SM CLR 42/M04 A2984 RMK AO2 SLP086 T04171044
KVIH 241953Z AUTO 02008G14KT 10SM CLR 27/10 A3011 RMK AO2 SLP185 T02720100
KVIS 241955Z AUTO 30006KT 10SM CLR 30/16 A2990 RMK AO1
KVJI 241955Z AUTO 32003KT 10SM VCTS SCT048 SCT070 BKN120 21/19 A2999 RMK AO2 LTG DSNT E THRU S P0053 T02070193
KVLD 241953Z 21005KT 10SM SCT046 34/21 A2996 RMK AO2 SLP152 T03440206
KVLL 241954Z AUTO 01005KT 10SM BKN060 23/09 A3010 RMK AO2 T02270088
KVNC 241935Z AUTO 24006KT 9SM CLR 32/25 A3002 RMK AO2 LTG DSNT NE-SE
KVNY 241951Z 00000KT 10SM CLR 38/M03 A2981 RMK AO2 SLP082 T03831033
KVOA 241955Z AUTO 26006KT 10SM CLR 29/24 A3000 RMK A01
KVOK 241858Z 17005KT 10SM BKN055 BKN250 24/12 A3011 RMK AO2A SLP198
KVPC 241953Z AUTO 00000KT 10SM FEW085 OVC100 26/23 A2995 RMK AO2 LTG DSNT SE AND SW RAB03E26 TSB12E36 SLP129 P0040 T02560228
KVPS 241958Z AUTO 19009KT 10SM CLR 30/23 A2999 RMK AO2 DZB1932E1938 SLP161 P0000 T03030225 $
KVPZ 241953Z AUTO 33006KT 10SM FEW038 23/13 A3012 RMK AO2 SLP199 T02280128 TSNO
KVQQ 241950Z 27008KT 10SM SCT050 SCT065 32/22 A2997
KVQT 241955Z AUTO 32014KT 10SM FEW019 28/24 A3000 RMK A01
KVRB 241956Z 29018KT 1 1/2SM TSRA BR FEW021 BKN026 OVC044 24/23 A3005 RMK AO2 P0000 T02390228
KVSF 241954Z AUTO VRB04KT 10SM FEW050 BKN060 23/11 A2988 RMK AO2 SLP116 T02330111
KVSH 241955Z AUTO 18005KT 10SM BKN039 BKN049 31/21 A2998 RMK AO1
KVTA 241954Z AUTO 35006KT 10SM FEW047 BKN065 24/14 A3002 RMK AO2 SLP162 T02440139
KVTN 241952Z AUTO 19020G29KT 10SM CLR 38/19 A2978 RMK AO2 PK WND 18032/1938 SLP053 T03830189
KVTP 241949Z AUTO 23008KT 10SM CLR 24/06 A3056 RMK AO2
KVUJ 241935Z AUTO 25005KT 10SM VCTS CLR 30/23 A2992 RMK AO2 LTG DSNT E AND W T02970230
KVUO 241953Z AUTO 25005KT 10SM FEW030 FEW039 BKN060 19/11 A3026 RMK AO2 SLP245 T01890111
KVVV 241954Z AUTO 12008KT 10SM -RA SCT027 SCT038 BKN050 19/17 A2998 RMK AO2 P0005 LTG DSNT S
KVWU 241955Z AUTO 00000KT 10SM SCT042 24/16 A2995 RMK AO2
KVYS 241935Z AUTO 10006KT 7SM CLR 24/13 A3013 RMK AO2 T02420125
KW29 241939Z AUTO 35006KT 10SM 25/16 A2989 RMK AO1
KW43 241935Z AUTO 10SM CLR 34/12 A2986 RMK AO2
KW99 241935Z AUTO 00000KT 7SM SCT036 BKN044 BKN050 21/15 A2997 RMK AO2 LTG DSNT S T02080153
KWAL 241954Z AUTO 10004KT 10SM FEW019 BKN026 OVC031 25/21 A2988 RMK AO2 SLP116 T02500206
KWDG 241850Z 12007KT 07SM FEW180 33/23 A3003
KWDR 241935Z AUTO 23009KT 10SM SCT047 SCT080 SCT095 30/23 A2998 RMK AO2 LTG DSNT SE THRU SW T02960230 PWINO
KWHP 241847Z 14006KT 20SM SKC 34/09 A2988
KWJF 241956Z VRB03KT 10SM CLR 38/M01 A2990 RMK AO2 SLP098 T03781011
KWLD 241954Z AUTO 13013KT 10SM CLR 32/21 A3005 RMK AO2 SLP162 T03170211
KWMC 241956Z AUTO 30005KT 10SM CLR 27/M01 A3015 RMK AO2 SLP161 T02671006
KWRB 241958Z AUTO 24013KT 10SM CLR 33/21 A2994 RMK AO2 SLP138 T03320210
KWRI 241958Z AUTO 33009KT 10SM FEW190 26/16 A2984 RMK AO2 SLP107 T02640156
KWRL 241953Z AUTO 23022G28KT 10SM CLR 38/01 A2983 RMK AO2 PK WND 22030/1909 SLP037 T03830006
KWST 241953Z AUTO 14009KT 10SM FEW031 FEW046 BKN075 23/19 A2983 RMK AO2 SLP100 T02330194
KWVI 241953Z AUTO 21007KT 10SM CLR 27/14 A2995 RMK AO2 SLP141 T02670144
KWVL 241955Z 31008KT 10SM SCT050 BKN060 OVC080 24/14 A2978 RMK AO1
KWWD 241955Z AUTO 29006KT 10SM FEW049 BKN075 25/18 A2987 RMK AO1
KWWR 241935Z AUTO 14007G14KT 10SM CLR 37/16 A3006 RMK AO2
KWYS 241950Z AUTO 20025G34KT 10SM CLR 22/03 A3014 RMK AO2
KXBP 241955Z AUTO 00000KT 10SM CLR 33/18 A3004 RMK AO2 T03330180
KXFL 241950Z VRB05KT 7SM SCT050 34/22 A2998
KXIH 241955Z AUTO 00000KT 10SM CLR 30/23 A2999 RMK A01
KXLL 241935Z AUTO 33008G16KT 300V360 10SM BKN065 26/12 A2990 RMK AO2
KXMR 241858Z AUTO 16007KT 10SM CLR 32/25 A3000 RMK AO2 PRESFR SLP162 T03150249
KXNA 241953Z 18007KT 10SM BKN030 28/21 A3008 RMK AO2 SLP173 T02780206
KXPY 241955Z AUTO 26009G16KT 10SM FEW019 SCT100 29/24 A3000 RMK A01
KXSA 241955Z AUTO 36006KT 10SM SCT024 BKN045 26/19 A2990 RMK AO2 T02550187
KXVG 241956Z AUTO 16007KT 10SM SCT047 BKN055 22/14 A3001 RMK AO2
KY19 241955Z AUTO 13015G22KT 10SM OVC028 24/18 A2982 RMK AO2 LTG DSNT NW
KY23 241955Z AUTO 16004KT 10SM SCT050 SCT055 25/13 A3006 RMK AO2 T02520126
KY50 241956Z AUTO 19007KT 150V220 10SM FEW055 26/10 A3009 RMK AO2 TSNO T02550100 SLP184
KY51 241935Z AUTO 17006KT 10SM CLR 25/12 A3009 RMK AO1 T02470124
KY63 241958Z AUTO 13033G43KT 7SM -RA SCT027 SCT045 BKN070 17/16 A2971 RMK AO2 LTG DSNT SE AND S P0020 T01690156
KY70 241953Z AUTO 03003KT 10SM BKN050 21/10 A3010 RMK AO2 T02120098
KYIP 241953Z 36005KT 10SM SCT060 26/08 A3009 RMK AO2 SLP184 T02610083
KYKM 241953Z 27011G22KT 10SM FEW070 24/06 A3011 RMK AO2 SLP194 T02440061
KYKN 241955Z AUTO 14020G30KT 10SM CLR 28/19 A2989 RMK AO1
KYNG 241951Z 35010KT 10SM BKN045 22/10 A3004 RMK AO2 SLP169 T02170100 $
KZPH 241955Z AUTO 25006KT 10SM CLR 32/21 A3002 RMK AO2
KZZV 241953Z AUTO 05007KT 10SM SCT049 BKN060 23/12 A3002 RMK AO2 SLP161 T02330117